<?xml version="1.0" encoding="UTF-8" standalone="no" ?>
<gpx xmlns="http://www.topografix.com/GPX/1/1" xmlns:xsi="http://www.w3.org/2001/XMLSchema-instance" xsi:schemaLocation="http://www.topografix.com/GPX/1/1 http://www.topografix.com/GPX/1/1/gpx.xsd" version="1.1" creator="VisuGPX - https://www.visugpx.com">
  <metadata>
    <name>Reculée du SAVIGNARD </name>
    <desc><![CDATA[Sentier sauvage empruntant la ligne non réalisée du TRAM]]></desc>
  </metadata>
  <trk>
    <name><![CDATA[Reculée du SAVIGNARD _1]]></name>
    <trkseg>
      <trkpt lat="46.64807" lon="5.54802">
        <ele>276.95709228516</ele>
        <time>2014-10-24T12:12:33Z</time>
      </trkpt>
      <trkpt lat="46.64801" lon="5.54789">
        <ele>277.06683349609</ele>
        <time>2014-10-24T12:12:37Z</time>
      </trkpt>
      <trkpt lat="46.648" lon="5.54786">
        <ele>277.05880737305</ele>
        <time>2014-10-24T12:12:38Z</time>
      </trkpt>
      <trkpt lat="46.6479" lon="5.54773">
        <ele>277</ele>
        <time>2014-10-24T12:12:43Z</time>
      </trkpt>
      <trkpt lat="46.64779" lon="5.5476">
        <ele>277</ele>
        <time>2014-10-24T12:12:48Z</time>
      </trkpt>
      <trkpt lat="46.64771" lon="5.54742">
        <ele>277.24798583984</ele>
        <time>2014-10-24T12:12:53Z</time>
      </trkpt>
      <trkpt lat="46.64766" lon="5.54724">
        <ele>277.42651367188</ele>
        <time>2014-10-24T12:12:59Z</time>
      </trkpt>
      <trkpt lat="46.64765" lon="5.5472">
        <ele>277.46771240234</ele>
        <time>2014-10-24T12:13:01Z</time>
      </trkpt>
      <trkpt lat="46.64765" lon="5.54716">
        <ele>277.46771240234</ele>
        <time>2014-10-24T12:13:03Z</time>
      </trkpt>
      <trkpt lat="46.64761" lon="5.54708">
        <ele>277.60504150391</ele>
        <time>2014-10-24T12:13:08Z</time>
      </trkpt>
      <trkpt lat="46.64759" lon="5.54705">
        <ele>277.67370605469</ele>
        <time>2014-10-24T12:13:10Z</time>
      </trkpt>
      <trkpt lat="46.64753" lon="5.54696">
        <ele>277.89343261719</ele>
        <time>2014-10-24T12:13:15Z</time>
      </trkpt>
      <trkpt lat="46.64753" lon="5.54694">
        <ele>277.90716552734</ele>
        <time>2014-10-24T12:13:16Z</time>
      </trkpt>
      <trkpt lat="46.64749" lon="5.54683">
        <ele>278.04449462891</ele>
        <time>2014-10-24T12:13:22Z</time>
      </trkpt>
      <trkpt lat="46.64744" lon="5.54665">
        <ele>278.20928955078</ele>
        <time>2014-10-24T12:13:31Z</time>
      </trkpt>
      <trkpt lat="46.64742" lon="5.54652">
        <ele>278.30541992188</ele>
        <time>2014-10-24T12:13:38Z</time>
      </trkpt>
      <trkpt lat="46.64738" lon="5.54636">
        <ele>278.42901611328</ele>
        <time>2014-10-24T12:13:46Z</time>
      </trkpt>
      <trkpt lat="46.64735" lon="5.54619">
        <ele>278.55261230469</ele>
        <time>2014-10-24T12:13:55Z</time>
      </trkpt>
      <trkpt lat="46.64733" lon="5.54616">
        <ele>278.60754394531</ele>
        <time>2014-10-24T12:13:57Z</time>
      </trkpt>
      <trkpt lat="46.64731" lon="5.54608">
        <ele>278.67620849609</ele>
        <time>2014-10-24T12:14:01Z</time>
      </trkpt>
      <trkpt lat="46.64728" lon="5.54597">
        <ele>278.7998046875</ele>
        <time>2014-10-24T12:14:07Z</time>
      </trkpt>
      <trkpt lat="46.64724" lon="5.54587">
        <ele>278.93713378906</ele>
        <time>2014-10-24T12:14:12Z</time>
      </trkpt>
      <trkpt lat="46.64716" lon="5.54576">
        <ele>279</ele>
        <time>2014-10-24T12:14:20Z</time>
      </trkpt>
      <trkpt lat="46.6471" lon="5.54561">
        <ele>279</ele>
        <time>2014-10-24T12:14:27Z</time>
      </trkpt>
      <trkpt lat="46.64709" lon="5.54559">
        <ele>279</ele>
        <time>2014-10-24T12:14:28Z</time>
      </trkpt>
      <trkpt lat="46.64705" lon="5.54555">
        <ele>279</ele>
        <time>2014-10-24T12:14:32Z</time>
      </trkpt>
      <trkpt lat="46.64701" lon="5.54548">
        <ele>279</ele>
        <time>2014-10-24T12:14:36Z</time>
      </trkpt>
      <trkpt lat="46.64698" lon="5.54542">
        <ele>279</ele>
        <time>2014-10-24T12:14:39Z</time>
      </trkpt>
      <trkpt lat="46.64693" lon="5.54533">
        <ele>279.01211547852</ele>
        <time>2014-10-24T12:14:45Z</time>
      </trkpt>
      <trkpt lat="46.64691" lon="5.5453">
        <ele>279.01025390625</ele>
        <time>2014-10-24T12:14:47Z</time>
      </trkpt>
      <trkpt lat="46.64683" lon="5.5452">
        <ele>279</ele>
        <time>2014-10-24T12:14:55Z</time>
      </trkpt>
      <trkpt lat="46.64679" lon="5.54514">
        <ele>279</ele>
        <time>2014-10-24T12:14:59Z</time>
      </trkpt>
      <trkpt lat="46.64678" lon="5.54513">
        <ele>279</ele>
        <time>2014-10-24T12:15:00Z</time>
      </trkpt>
      <trkpt lat="46.6467" lon="5.54511">
        <ele>279</ele>
        <time>2014-10-24T12:15:07Z</time>
      </trkpt>
      <trkpt lat="46.64664" lon="5.54512">
        <ele>279.13339233398</ele>
        <time>2014-10-24T12:15:12Z</time>
      </trkpt>
      <trkpt lat="46.64662" lon="5.54513">
        <ele>279.25885009766</ele>
        <time>2014-10-24T12:15:14Z</time>
      </trkpt>
      <trkpt lat="46.64661" lon="5.54516">
        <ele>279.33892822266</ele>
        <time>2014-10-24T12:15:16Z</time>
      </trkpt>
      <trkpt lat="46.6466" lon="5.54517">
        <ele>279.39529418945</ele>
        <time>2014-10-24T12:15:17Z</time>
      </trkpt>
      <trkpt lat="46.64658" lon="5.54525">
        <ele>279.62283325195</ele>
        <time>2014-10-24T12:15:24Z</time>
      </trkpt>
      <trkpt lat="46.64658" lon="5.54532">
        <ele>279.796875</ele>
        <time>2014-10-24T12:15:29Z</time>
      </trkpt>
      <trkpt lat="46.64658" lon="5.54543">
        <ele>280.17279052734</ele>
        <time>2014-10-24T12:15:35Z</time>
      </trkpt>
      <trkpt lat="46.6466" lon="5.54556">
        <ele>280.51098632812</ele>
        <time>2014-10-24T12:15:42Z</time>
      </trkpt>
      <trkpt lat="46.64661" lon="5.54571">
        <ele>280.97790527344</ele>
        <time>2014-10-24T12:15:49Z</time>
      </trkpt>
      <trkpt lat="46.64662" lon="5.54582">
        <ele>281.27142333984</ele>
        <time>2014-10-24T12:15:55Z</time>
      </trkpt>
      <trkpt lat="46.64663" lon="5.54584">
        <ele>281.30575561523</ele>
        <time>2014-10-24T12:15:56Z</time>
      </trkpt>
      <trkpt lat="46.64662" lon="5.54594">
        <ele>281.69885253906</ele>
        <time>2014-10-24T12:16:01Z</time>
      </trkpt>
      <trkpt lat="46.64657" lon="5.54606">
        <ele>282.51770019531</ele>
        <time>2014-10-24T12:16:07Z</time>
      </trkpt>
      <trkpt lat="46.64653" lon="5.54608">
        <ele>282.84558105469</ele>
        <time>2014-10-24T12:16:11Z</time>
      </trkpt>
      <trkpt lat="46.64651" lon="5.5461">
        <ele>283.06872558594</ele>
        <time>2014-10-24T12:16:13Z</time>
      </trkpt>
      <trkpt lat="46.6465" lon="5.5461">
        <ele>283.17517089844</ele>
        <time>2014-10-24T12:16:15Z</time>
      </trkpt>
      <trkpt lat="46.64645" lon="5.5461">
        <ele>283.5442199707</ele>
        <time>2014-10-24T12:16:20Z</time>
      </trkpt>
      <trkpt lat="46.64637" lon="5.5461">
        <ele>284.22525024414</ele>
        <time>2014-10-24T12:16:26Z</time>
      </trkpt>
      <trkpt lat="46.64628" lon="5.54609">
        <ele>285.47372436523</ele>
        <time>2014-10-24T12:16:34Z</time>
      </trkpt>
      <trkpt lat="46.64614" lon="5.5461">
        <ele>287.42358398438</ele>
        <time>2014-10-24T12:16:45Z</time>
      </trkpt>
      <trkpt lat="46.6461" lon="5.54609">
        <ele>288.08721923828</ele>
        <time>2014-10-24T12:16:51Z</time>
      </trkpt>
      <trkpt lat="46.64603" lon="5.54612">
        <ele>289.16903686523</ele>
        <time>2014-10-24T12:16:56Z</time>
      </trkpt>
      <trkpt lat="46.64595" lon="5.54618">
        <ele>290.72790527344</ele>
        <time>2014-10-24T12:17:03Z</time>
      </trkpt>
      <trkpt lat="46.64593" lon="5.5462">
        <ele>291.08624267578</ele>
        <time>2014-10-24T12:17:06Z</time>
      </trkpt>
      <trkpt lat="46.64591" lon="5.5462">
        <ele>291.30557250977</ele>
        <time>2014-10-24T12:17:08Z</time>
      </trkpt>
      <trkpt lat="46.6459" lon="5.54621">
        <ele>291.46041870117</ele>
        <time>2014-10-24T12:17:09Z</time>
      </trkpt>
      <trkpt lat="46.64582" lon="5.54626">
        <ele>292.61853027344</ele>
        <time>2014-10-24T12:17:16Z</time>
      </trkpt>
      <trkpt lat="46.64577" lon="5.54636">
        <ele>293.38928222656</ele>
        <time>2014-10-24T12:17:23Z</time>
      </trkpt>
      <trkpt lat="46.64574" lon="5.54641">
        <ele>293.95043945312</ele>
        <time>2014-10-24T12:17:27Z</time>
      </trkpt>
      <trkpt lat="46.64572" lon="5.54643">
        <ele>294.25601196289</ele>
        <time>2014-10-24T12:17:29Z</time>
      </trkpt>
      <trkpt lat="46.64571" lon="5.54649">
        <ele>294.96325683594</ele>
        <time>2014-10-24T12:17:34Z</time>
      </trkpt>
      <trkpt lat="46.6457" lon="5.5465">
        <ele>295.14007568359</ele>
        <time>2014-10-24T12:17:35Z</time>
      </trkpt>
      <trkpt lat="46.64566" lon="5.54659">
        <ele>296.43783569336</ele>
        <time>2014-10-24T12:17:42Z</time>
      </trkpt>
      <trkpt lat="46.64565" lon="5.5466">
        <ele>296.61978149414</ele>
        <time>2014-10-24T12:17:43Z</time>
      </trkpt>
      <trkpt lat="46.64562" lon="5.54668">
        <ele>297.62222290039</ele>
        <time>2014-10-24T12:17:48Z</time>
      </trkpt>
      <trkpt lat="46.64557" lon="5.54679">
        <ele>298.80212402344</ele>
        <time>2014-10-24T12:17:56Z</time>
      </trkpt>
      <trkpt lat="46.64554" lon="5.54688">
        <ele>299.55514526367</ele>
        <time>2014-10-24T12:18:02Z</time>
      </trkpt>
      <trkpt lat="46.64554" lon="5.54688">
        <ele>299.63067626953</ele>
        <time>2014-10-24T12:18:03Z</time>
      </trkpt>
      <trkpt lat="46.64552" lon="5.54695">
        <ele>300.19418334961</ele>
        <time>2014-10-24T12:18:06Z</time>
      </trkpt>
      <trkpt lat="46.64552" lon="5.54697">
        <ele>300.33682250977</ele>
        <time>2014-10-24T12:18:07Z</time>
      </trkpt>
      <trkpt lat="46.64552" lon="5.54706">
        <ele>300.97952270508</ele>
        <time>2014-10-24T12:18:12Z</time>
      </trkpt>
      <trkpt lat="46.64553" lon="5.54721">
        <ele>302.06890869141</ele>
        <time>2014-10-24T12:18:21Z</time>
      </trkpt>
      <trkpt lat="46.64553" lon="5.54732">
        <ele>302.56762695312</ele>
        <time>2014-10-24T12:18:27Z</time>
      </trkpt>
      <trkpt lat="46.64551" lon="5.54746">
        <ele>303.34518432617</ele>
        <time>2014-10-24T12:18:34Z</time>
      </trkpt>
      <trkpt lat="46.64547" lon="5.54757">
        <ele>304.44311523438</ele>
        <time>2014-10-24T12:18:40Z</time>
      </trkpt>
      <trkpt lat="46.64546" lon="5.54766">
        <ele>305.36767578125</ele>
        <time>2014-10-24T12:18:45Z</time>
      </trkpt>
      <trkpt lat="46.64542" lon="5.54772">
        <ele>306.48944091797</ele>
        <time>2014-10-24T12:18:50Z</time>
      </trkpt>
      <trkpt lat="46.64541" lon="5.54773">
        <ele>306.72387695312</ele>
        <time>2014-10-24T12:18:52Z</time>
      </trkpt>
      <trkpt lat="46.64541" lon="5.54774">
        <ele>306.73583984375</ele>
        <time>2014-10-24T12:19:00Z</time>
      </trkpt>
      <trkpt lat="46.64542" lon="5.54771">
        <ele>306.36474609375</ele>
        <time>2014-10-24T12:19:03Z</time>
      </trkpt>
      <trkpt lat="46.64541" lon="5.54772">
        <ele>306.6240234375</ele>
        <time>2014-10-24T12:19:06Z</time>
      </trkpt>
      <trkpt lat="46.64537" lon="5.54777">
        <ele>307.58145141602</ele>
        <time>2014-10-24T12:19:13Z</time>
      </trkpt>
      <trkpt lat="46.6453" lon="5.54788">
        <ele>309.40921020508</ele>
        <time>2014-10-24T12:19:21Z</time>
      </trkpt>
      <trkpt lat="46.64523" lon="5.54797">
        <ele>311.66394042969</ele>
        <time>2014-10-24T12:19:29Z</time>
      </trkpt>
      <trkpt lat="46.64516" lon="5.54806">
        <ele>314.02267456055</ele>
        <time>2014-10-24T12:19:36Z</time>
      </trkpt>
      <trkpt lat="46.64509" lon="5.54815">
        <ele>316.49850463867</ele>
        <time>2014-10-24T12:19:43Z</time>
      </trkpt>
      <trkpt lat="46.64504" lon="5.54821">
        <ele>318.11056518555</ele>
        <time>2014-10-24T12:19:48Z</time>
      </trkpt>
      <trkpt lat="46.64495" lon="5.54823">
        <ele>319.49041748047</ele>
        <time>2014-10-24T12:19:54Z</time>
      </trkpt>
      <trkpt lat="46.64493" lon="5.54821">
        <ele>319.45541381836</ele>
        <time>2014-10-24T12:19:59Z</time>
      </trkpt>
      <trkpt lat="46.64493" lon="5.54819">
        <ele>319.32290649414</ele>
        <time>2014-10-24T12:20:00Z</time>
      </trkpt>
      <trkpt lat="46.64491" lon="5.5481">
        <ele>318.93487548828</ele>
        <time>2014-10-24T12:20:04Z</time>
      </trkpt>
      <trkpt lat="46.64491" lon="5.54808">
        <ele>318.80062866211</ele>
        <time>2014-10-24T12:20:05Z</time>
      </trkpt>
      <trkpt lat="46.64492" lon="5.54795">
        <ele>317.27691650391</ele>
        <time>2014-10-24T12:20:10Z</time>
      </trkpt>
      <trkpt lat="46.64494" lon="5.54792">
        <ele>316.91134643555</ele>
        <time>2014-10-24T12:20:12Z</time>
      </trkpt>
      <trkpt lat="46.64495" lon="5.5479">
        <ele>316.587890625</ele>
        <time>2014-10-24T12:20:15Z</time>
      </trkpt>
      <trkpt lat="46.64495" lon="5.54797">
        <ele>317.3854675293</ele>
        <time>2014-10-24T12:20:22Z</time>
      </trkpt>
      <trkpt lat="46.64495" lon="5.54801">
        <ele>317.78979492188</ele>
        <time>2014-10-24T12:20:24Z</time>
      </trkpt>
      <trkpt lat="46.64496" lon="5.5481">
        <ele>318.59487915039</ele>
        <time>2014-10-24T12:20:28Z</time>
      </trkpt>
      <trkpt lat="46.64498" lon="5.54824">
        <ele>319.42727661133</ele>
        <time>2014-10-24T12:20:34Z</time>
      </trkpt>
      <trkpt lat="46.64491" lon="5.54826">
        <ele>319.89071655273</ele>
        <time>2014-10-24T12:20:38Z</time>
      </trkpt>
      <trkpt lat="46.64487" lon="5.54828">
        <ele>320.15084838867</ele>
        <time>2014-10-24T12:20:42Z</time>
      </trkpt>
      <trkpt lat="46.64486" lon="5.54828">
        <ele>320.21331787109</ele>
        <time>2014-10-24T12:20:43Z</time>
      </trkpt>
      <trkpt lat="46.64483" lon="5.5483">
        <ele>320.4362487793</ele>
        <time>2014-10-24T12:20:46Z</time>
      </trkpt>
      <trkpt lat="46.6448" lon="5.54832">
        <ele>320.64761352539</ele>
        <time>2014-10-24T12:20:49Z</time>
      </trkpt>
      <trkpt lat="46.64477" lon="5.54834">
        <ele>320.86016845703</ele>
        <time>2014-10-24T12:20:53Z</time>
      </trkpt>
      <trkpt lat="46.64475" lon="5.54833">
        <ele>320.88079833984</ele>
        <time>2014-10-24T12:20:55Z</time>
      </trkpt>
      <trkpt lat="46.64468" lon="5.54834">
        <ele>321.48202514648</ele>
        <time>2014-10-24T12:21:00Z</time>
      </trkpt>
      <trkpt lat="46.64466" lon="5.54834">
        <ele>321.73266601562</ele>
        <time>2014-10-24T12:21:02Z</time>
      </trkpt>
      <trkpt lat="46.6446" lon="5.54836">
        <ele>322.51885986328</ele>
        <time>2014-10-24T12:21:07Z</time>
      </trkpt>
      <trkpt lat="46.64457" lon="5.54836">
        <ele>322.81411743164</ele>
        <time>2014-10-24T12:21:09Z</time>
      </trkpt>
      <trkpt lat="46.64451" lon="5.54833">
        <ele>323.26458740234</ele>
        <time>2014-10-24T12:21:15Z</time>
      </trkpt>
      <trkpt lat="46.6445" lon="5.54832">
        <ele>323.2346496582</ele>
        <time>2014-10-24T12:21:16Z</time>
      </trkpt>
      <trkpt lat="46.64444" lon="5.54828">
        <ele>323.39569091797</ele>
        <time>2014-10-24T12:21:21Z</time>
      </trkpt>
      <trkpt lat="46.64438" lon="5.54826">
        <ele>323.17938232422</ele>
        <time>2014-10-24T12:21:25Z</time>
      </trkpt>
      <trkpt lat="46.64437" lon="5.54825">
        <ele>323.13818359375</ele>
        <time>2014-10-24T12:21:26Z</time>
      </trkpt>
      <trkpt lat="46.64436" lon="5.54823">
        <ele>322.93218994141</ele>
        <time>2014-10-24T12:21:29Z</time>
      </trkpt>
      <trkpt lat="46.64436" lon="5.54822">
        <ele>322.8137512207</ele>
        <time>2014-10-24T12:21:31Z</time>
      </trkpt>
      <trkpt lat="46.64434" lon="5.54821">
        <ele>322.66439819336</ele>
        <time>2014-10-24T12:21:32Z</time>
      </trkpt>
      <trkpt lat="46.64431" lon="5.54818">
        <ele>322.38632202148</ele>
        <time>2014-10-24T12:21:35Z</time>
      </trkpt>
      <trkpt lat="46.64428" lon="5.54816">
        <ele>322.0979309082</ele>
        <time>2014-10-24T12:21:39Z</time>
      </trkpt>
      <trkpt lat="46.64427" lon="5.54815">
        <ele>321.96917724609</ele>
        <time>2014-10-24T12:21:40Z</time>
      </trkpt>
      <trkpt lat="46.64421" lon="5.5481">
        <ele>321.51083374023</ele>
        <time>2014-10-24T12:21:45Z</time>
      </trkpt>
      <trkpt lat="46.64418" lon="5.54806">
        <ele>321.05764770508</ele>
        <time>2014-10-24T12:21:48Z</time>
      </trkpt>
      <trkpt lat="46.64418" lon="5.54805">
        <ele>320.8876953125</ele>
        <time>2014-10-24T12:21:49Z</time>
      </trkpt>
      <trkpt lat="46.64413" lon="5.54802">
        <ele>320.88055419922</ele>
        <time>2014-10-24T12:21:54Z</time>
      </trkpt>
      <trkpt lat="46.64411" lon="5.54802">
        <ele>321.03161621094</ele>
        <time>2014-10-24T12:21:55Z</time>
      </trkpt>
      <trkpt lat="46.644" lon="5.54795">
        <ele>320.98181152344</ele>
        <time>2014-10-24T12:22:01Z</time>
      </trkpt>
      <trkpt lat="46.64394" lon="5.54792">
        <ele>321.22900390625</ele>
        <time>2014-10-24T12:22:06Z</time>
      </trkpt>
      <trkpt lat="46.64388" lon="5.54787">
        <ele>321.19253540039</ele>
        <time>2014-10-24T12:22:11Z</time>
      </trkpt>
      <trkpt lat="46.64388" lon="5.54787">
        <ele>321.09466552734</ele>
        <time>2014-10-24T12:22:12Z</time>
      </trkpt>
      <trkpt lat="46.64388" lon="5.54784">
        <ele>320.85263061523</ele>
        <time>2014-10-24T12:22:13Z</time>
      </trkpt>
      <trkpt lat="46.64388" lon="5.54779">
        <ele>320.30160522461</ele>
        <time>2014-10-24T12:22:17Z</time>
      </trkpt>
      <trkpt lat="46.64389" lon="5.54778">
        <ele>320.06814575195</ele>
        <time>2014-10-24T12:22:18Z</time>
      </trkpt>
      <trkpt lat="46.64388" lon="5.54768">
        <ele>318.85748291016</ele>
        <time>2014-10-24T12:22:24Z</time>
      </trkpt>
      <trkpt lat="46.64387" lon="5.54766">
        <ele>318.54849243164</ele>
        <time>2014-10-24T12:22:25Z</time>
      </trkpt>
      <trkpt lat="46.64387" lon="5.54762">
        <ele>317.96484375</ele>
        <time>2014-10-24T12:22:27Z</time>
      </trkpt>
      <trkpt lat="46.64388" lon="5.5476">
        <ele>317.50479125977</ele>
        <time>2014-10-24T12:22:28Z</time>
      </trkpt>
      <trkpt lat="46.64391" lon="5.54749">
        <ele>315.59393310547</ele>
        <time>2014-10-24T12:22:34Z</time>
      </trkpt>
      <trkpt lat="46.64391" lon="5.54743">
        <ele>315.02746582031</ele>
        <time>2014-10-24T12:22:37Z</time>
      </trkpt>
      <trkpt lat="46.64391" lon="5.54741">
        <ele>314.85235595703</ele>
        <time>2014-10-24T12:22:38Z</time>
      </trkpt>
      <trkpt lat="46.64391" lon="5.5474">
        <ele>314.7184753418</ele>
        <time>2014-10-24T12:22:39Z</time>
      </trkpt>
      <trkpt lat="46.6439" lon="5.54736">
        <ele>314.39916992188</ele>
        <time>2014-10-24T12:22:45Z</time>
      </trkpt>
      <trkpt lat="46.64389" lon="5.54729">
        <ele>313.75030517578</ele>
        <time>2014-10-24T12:22:51Z</time>
      </trkpt>
      <trkpt lat="46.64389" lon="5.54729">
        <ele>313.67303466797</ele>
        <time>2014-10-24T12:22:52Z</time>
      </trkpt>
      <trkpt lat="46.64388" lon="5.54724">
        <ele>313.36383056641</ele>
        <time>2014-10-24T12:22:56Z</time>
      </trkpt>
      <trkpt lat="46.64388" lon="5.54721">
        <ele>312.97729492188</ele>
        <time>2014-10-24T12:22:59Z</time>
      </trkpt>
      <trkpt lat="46.64388" lon="5.54716">
        <ele>312.30438232422</ele>
        <time>2014-10-24T12:23:07Z</time>
      </trkpt>
      <trkpt lat="46.64384" lon="5.54711">
        <ele>312.11212158203</ele>
        <time>2014-10-24T12:23:13Z</time>
      </trkpt>
      <trkpt lat="46.64383" lon="5.5471">
        <ele>312.04345703125</ele>
        <time>2014-10-24T12:23:18Z</time>
      </trkpt>
      <trkpt lat="46.64385" lon="5.54713">
        <ele>312.23571777344</ele>
        <time>2014-10-24T12:23:25Z</time>
      </trkpt>
      <trkpt lat="46.64388" lon="5.54719">
        <ele>312.6545715332</ele>
        <time>2014-10-24T12:23:31Z</time>
      </trkpt>
      <trkpt lat="46.64389" lon="5.54725">
        <ele>313.26620483398</ele>
        <time>2014-10-24T12:23:36Z</time>
      </trkpt>
      <trkpt lat="46.6439" lon="5.54731">
        <ele>313.80178833008</ele>
        <time>2014-10-24T12:23:40Z</time>
      </trkpt>
      <trkpt lat="46.6439" lon="5.54733">
        <ele>314.01293945312</ele>
        <time>2014-10-24T12:23:41Z</time>
      </trkpt>
      <trkpt lat="46.64388" lon="5.54739">
        <ele>314.92596435547</ele>
        <time>2014-10-24T12:23:45Z</time>
      </trkpt>
      <trkpt lat="46.64388" lon="5.5474">
        <ele>315.02380371094</ele>
        <time>2014-10-24T12:23:46Z</time>
      </trkpt>
      <trkpt lat="46.64388" lon="5.54745">
        <ele>315.71044921875</ele>
        <time>2014-10-24T12:23:52Z</time>
      </trkpt>
      <trkpt lat="46.64386" lon="5.5475">
        <ele>316.37869262695</ele>
        <time>2014-10-24T12:23:56Z</time>
      </trkpt>
      <trkpt lat="46.64386" lon="5.54752">
        <ele>316.69454956055</ele>
        <time>2014-10-24T12:23:58Z</time>
      </trkpt>
      <trkpt lat="46.64383" lon="5.54759">
        <ele>318.09530639648</ele>
        <time>2014-10-24T12:24:04Z</time>
      </trkpt>
      <trkpt lat="46.64384" lon="5.54763">
        <ele>318.52789306641</ele>
        <time>2014-10-24T12:24:07Z</time>
      </trkpt>
      <trkpt lat="46.64385" lon="5.54765">
        <ele>318.69955444336</ele>
        <time>2014-10-24T12:24:09Z</time>
      </trkpt>
      <trkpt lat="46.64387" lon="5.54771">
        <ele>319.31066894531</ele>
        <time>2014-10-24T12:24:13Z</time>
      </trkpt>
      <trkpt lat="46.64389" lon="5.54774">
        <ele>319.47546386719</ele>
        <time>2014-10-24T12:24:16Z</time>
      </trkpt>
      <trkpt lat="46.64392" lon="5.54779">
        <ele>319.82312011719</ele>
        <time>2014-10-24T12:24:20Z</time>
      </trkpt>
      <trkpt lat="46.64394" lon="5.5478">
        <ele>319.82482910156</ele>
        <time>2014-10-24T12:24:21Z</time>
      </trkpt>
      <trkpt lat="46.644" lon="5.54785">
        <ele>319.95874023438</ele>
        <time>2014-10-24T12:24:27Z</time>
      </trkpt>
      <trkpt lat="46.64401" lon="5.54786">
        <ele>319.98104858398</ele>
        <time>2014-10-24T12:24:29Z</time>
      </trkpt>
      <trkpt lat="46.64404" lon="5.54787">
        <ele>319.92611694336</ele>
        <time>2014-10-24T12:24:31Z</time>
      </trkpt>
      <trkpt lat="46.6441" lon="5.54791">
        <ele>319.92782592773</ele>
        <time>2014-10-24T12:24:37Z</time>
      </trkpt>
      <trkpt lat="46.64415" lon="5.548">
        <ele>320.49603271484</ele>
        <time>2014-10-24T12:24:43Z</time>
      </trkpt>
      <trkpt lat="46.64417" lon="5.54801">
        <ele>320.48742675781</ele>
        <time>2014-10-24T12:24:45Z</time>
      </trkpt>
      <trkpt lat="46.64421" lon="5.54805">
        <ele>320.93405151367</ele>
        <time>2014-10-24T12:24:48Z</time>
      </trkpt>
      <trkpt lat="46.64422" lon="5.54807">
        <ele>321.20184326172</ele>
        <time>2014-10-24T12:24:50Z</time>
      </trkpt>
      <trkpt lat="46.64426" lon="5.5481">
        <ele>321.47479248047</ele>
        <time>2014-10-24T12:24:53Z</time>
      </trkpt>
      <trkpt lat="46.64431" lon="5.54814">
        <ele>321.87646484375</ele>
        <time>2014-10-24T12:24:58Z</time>
      </trkpt>
      <trkpt lat="46.6443" lon="5.54814">
        <ele>321.91253662109</ele>
        <time>2014-10-24T12:24:59Z</time>
      </trkpt>
      <trkpt lat="46.64427" lon="5.54814">
        <ele>321.92282104492</ele>
        <time>2014-10-24T12:25:03Z</time>
      </trkpt>
      <trkpt lat="46.6442" lon="5.54814">
        <ele>321.94857788086</ele>
        <time>2014-10-24T12:25:09Z</time>
      </trkpt>
      <trkpt lat="46.64417" lon="5.54813">
        <ele>321.80438232422</ele>
        <time>2014-10-24T12:25:11Z</time>
      </trkpt>
      <trkpt lat="46.64413" lon="5.54813">
        <ele>322.01870727539</ele>
        <time>2014-10-24T12:25:16Z</time>
      </trkpt>
      <trkpt lat="46.64411" lon="5.54813">
        <ele>322.25924682617</ele>
        <time>2014-10-24T12:25:18Z</time>
      </trkpt>
      <trkpt lat="46.64406" lon="5.54815">
        <ele>322.92260742188</ele>
        <time>2014-10-24T12:25:23Z</time>
      </trkpt>
      <trkpt lat="46.64406" lon="5.54816">
        <ele>323.05648803711</ele>
        <time>2014-10-24T12:25:30Z</time>
      </trkpt>
      <trkpt lat="46.64402" lon="5.54815">
        <ele>323.31817626953</ele>
        <time>2014-10-24T12:25:35Z</time>
      </trkpt>
      <trkpt lat="46.64397" lon="5.54814">
        <ele>323.57800292969</ele>
        <time>2014-10-24T12:25:40Z</time>
      </trkpt>
      <trkpt lat="46.64391" lon="5.54815">
        <ele>324.26712036133</ele>
        <time>2014-10-24T12:25:46Z</time>
      </trkpt>
      <trkpt lat="46.64388" lon="5.54816">
        <ele>324.75827026367</ele>
        <time>2014-10-24T12:25:51Z</time>
      </trkpt>
      <trkpt lat="46.64382" lon="5.54817">
        <ele>325.71270751953</ele>
        <time>2014-10-24T12:25:56Z</time>
      </trkpt>
      <trkpt lat="46.64381" lon="5.54817">
        <ele>325.80197143555</ele>
        <time>2014-10-24T12:25:57Z</time>
      </trkpt>
      <trkpt lat="46.6438" lon="5.54817">
        <ele>326.05603027344</ele>
        <time>2014-10-24T12:26:00Z</time>
      </trkpt>
      <trkpt lat="46.64376" lon="5.54817">
        <ele>326.46801757812</ele>
        <time>2014-10-24T12:26:03Z</time>
      </trkpt>
      <trkpt lat="46.64374" lon="5.54818">
        <ele>326.93493652344</ele>
        <time>2014-10-24T12:26:05Z</time>
      </trkpt>
      <trkpt lat="46.64372" lon="5.54819">
        <ele>327.37438964844</ele>
        <time>2014-10-24T12:26:08Z</time>
      </trkpt>
      <trkpt lat="46.64369" lon="5.5482">
        <ele>327.92370605469</ele>
        <time>2014-10-24T12:26:11Z</time>
      </trkpt>
      <trkpt lat="46.64365" lon="5.5482">
        <ele>328.53482055664</ele>
        <time>2014-10-24T12:26:14Z</time>
      </trkpt>
      <trkpt lat="46.6436" lon="5.54821">
        <ele>329.28900146484</ele>
        <time>2014-10-24T12:26:20Z</time>
      </trkpt>
      <trkpt lat="46.64359" lon="5.54821">
        <ele>329.39886474609</ele>
        <time>2014-10-24T12:26:21Z</time>
      </trkpt>
      <trkpt lat="46.64359" lon="5.54816">
        <ele>328.73281860352</ele>
        <time>2014-10-24T12:26:25Z</time>
      </trkpt>
      <trkpt lat="46.64358" lon="5.54806">
        <ele>327.3251953125</ele>
        <time>2014-10-24T12:26:31Z</time>
      </trkpt>
      <trkpt lat="46.64357" lon="5.54805">
        <ele>327.17208862305</ele>
        <time>2014-10-24T12:26:32Z</time>
      </trkpt>
      <trkpt lat="46.64358" lon="5.54803">
        <ele>326.94204711914</ele>
        <time>2014-10-24T12:26:33Z</time>
      </trkpt>
      <trkpt lat="46.6436" lon="5.54799">
        <ele>326.40991210938</ele>
        <time>2014-10-24T12:26:36Z</time>
      </trkpt>
      <trkpt lat="46.6436" lon="5.54787">
        <ele>325.1018371582</ele>
        <time>2014-10-24T12:26:43Z</time>
      </trkpt>
      <trkpt lat="46.64359" lon="5.54785">
        <ele>324.96450805664</ele>
        <time>2014-10-24T12:26:44Z</time>
      </trkpt>
      <trkpt lat="46.64359" lon="5.54784">
        <ele>324.80487060547</ele>
        <time>2014-10-24T12:26:45Z</time>
      </trkpt>
      <trkpt lat="46.64359" lon="5.54781">
        <ele>324.5491027832</ele>
        <time>2014-10-24T12:26:48Z</time>
      </trkpt>
      <trkpt lat="46.64359" lon="5.5478">
        <ele>324.46841430664</ele>
        <time>2014-10-24T12:26:49Z</time>
      </trkpt>
      <trkpt lat="46.64353" lon="5.54775">
        <ele>324.21868896484</ele>
        <time>2014-10-24T12:26:53Z</time>
      </trkpt>
      <trkpt lat="46.64349" lon="5.54773">
        <ele>324.2607421875</ele>
        <time>2014-10-24T12:26:57Z</time>
      </trkpt>
      <trkpt lat="46.64339" lon="5.54765">
        <ele>324.14926147461</ele>
        <time>2014-10-24T12:27:03Z</time>
      </trkpt>
      <trkpt lat="46.64334" lon="5.54757">
        <ele>323.73397827148</ele>
        <time>2014-10-24T12:27:08Z</time>
      </trkpt>
      <trkpt lat="46.64334" lon="5.54757">
        <ele>323.7197265625</ele>
        <time>2014-10-24T12:27:09Z</time>
      </trkpt>
      <trkpt lat="46.6433" lon="5.54756">
        <ele>324.31408691406</ele>
        <time>2014-10-24T12:27:13Z</time>
      </trkpt>
      <trkpt lat="46.64326" lon="5.54748">
        <ele>324.55599975586</ele>
        <time>2014-10-24T12:27:18Z</time>
      </trkpt>
      <trkpt lat="46.64325" lon="5.54747">
        <ele>324.82379150391</ele>
        <time>2014-10-24T12:27:19Z</time>
      </trkpt>
      <trkpt lat="46.64325" lon="5.54745">
        <ele>325.08471679688</ele>
        <time>2014-10-24T12:27:22Z</time>
      </trkpt>
      <trkpt lat="46.64322" lon="5.54743">
        <ele>325.6357421875</ele>
        <time>2014-10-24T12:27:23Z</time>
      </trkpt>
      <trkpt lat="46.6432" lon="5.54739">
        <ele>326.36532592773</ele>
        <time>2014-10-24T12:27:26Z</time>
      </trkpt>
      <trkpt lat="46.64317" lon="5.54737">
        <ele>326.93353271484</ele>
        <time>2014-10-24T12:27:28Z</time>
      </trkpt>
      <trkpt lat="46.64317" lon="5.54736">
        <ele>327.12579345703</ele>
        <time>2014-10-24T12:27:29Z</time>
      </trkpt>
      <trkpt lat="46.64315" lon="5.54734">
        <ele>327.52746582031</ele>
        <time>2014-10-24T12:27:31Z</time>
      </trkpt>
      <trkpt lat="46.64312" lon="5.54731">
        <ele>328.39605712891</ele>
        <time>2014-10-24T12:27:34Z</time>
      </trkpt>
      <trkpt lat="46.64304" lon="5.54723">
        <ele>330.32382202148</ele>
        <time>2014-10-24T12:27:41Z</time>
      </trkpt>
      <trkpt lat="46.64301" lon="5.54722">
        <ele>330.97088623047</ele>
        <time>2014-10-24T12:27:44Z</time>
      </trkpt>
      <trkpt lat="46.64297" lon="5.54719">
        <ele>331.21463012695</ele>
        <time>2014-10-24T12:27:47Z</time>
      </trkpt>
      <trkpt lat="46.64295" lon="5.54717">
        <ele>331.29702758789</ele>
        <time>2014-10-24T12:27:51Z</time>
      </trkpt>
      <trkpt lat="46.64294" lon="5.54715">
        <ele>331.24725341797</ele>
        <time>2014-10-24T12:27:52Z</time>
      </trkpt>
      <trkpt lat="46.6429" lon="5.54713">
        <ele>331.67297363281</ele>
        <time>2014-10-24T12:27:56Z</time>
      </trkpt>
      <trkpt lat="46.64289" lon="5.54712">
        <ele>331.70385742188</ele>
        <time>2014-10-24T12:27:58Z</time>
      </trkpt>
      <trkpt lat="46.64289" lon="5.54709">
        <ele>331.34509277344</ele>
        <time>2014-10-24T12:28:05Z</time>
      </trkpt>
      <trkpt lat="46.64286" lon="5.54707">
        <ele>331.44982910156</ele>
        <time>2014-10-24T12:28:08Z</time>
      </trkpt>
      <trkpt lat="46.64284" lon="5.54705">
        <ele>331.65237426758</ele>
        <time>2014-10-24T12:28:12Z</time>
      </trkpt>
      <trkpt lat="46.64279" lon="5.54707">
        <ele>332.99304199219</ele>
        <time>2014-10-24T12:28:19Z</time>
      </trkpt>
      <trkpt lat="46.64277" lon="5.54708">
        <ele>333.70861816406</ele>
        <time>2014-10-24T12:28:25Z</time>
      </trkpt>
      <trkpt lat="46.64278" lon="5.54705">
        <ele>332.82312011719</ele>
        <time>2014-10-24T12:28:33Z</time>
      </trkpt>
      <trkpt lat="46.64286" lon="5.5471">
        <ele>332.00256347656</ele>
        <time>2014-10-24T12:28:46Z</time>
      </trkpt>
      <trkpt lat="46.64288" lon="5.54713">
        <ele>332.16735839844</ele>
        <time>2014-10-24T12:28:48Z</time>
      </trkpt>
      <trkpt lat="46.64289" lon="5.54714">
        <ele>332.01287841797</ele>
        <time>2014-10-24T12:28:51Z</time>
      </trkpt>
      <trkpt lat="46.6429" lon="5.54717">
        <ele>332.31155395508</ele>
        <time>2014-10-24T12:28:57Z</time>
      </trkpt>
      <trkpt lat="46.6429" lon="5.54719">
        <ele>332.84027099609</ele>
        <time>2014-10-24T12:29:02Z</time>
      </trkpt>
      <trkpt lat="46.6429" lon="5.54721">
        <ele>333.03253173828</ele>
        <time>2014-10-24T12:29:08Z</time>
      </trkpt>
      <trkpt lat="46.64287" lon="5.54724">
        <ele>334.00082397461</ele>
        <time>2014-10-24T12:29:15Z</time>
      </trkpt>
      <trkpt lat="46.64287" lon="5.54721">
        <ele>333.74322509766</ele>
        <time>2014-10-24T12:29:22Z</time>
      </trkpt>
      <trkpt lat="46.64287" lon="5.5472">
        <ele>333.58526611328</ele>
        <time>2014-10-24T12:29:27Z</time>
      </trkpt>
      <trkpt lat="46.64288" lon="5.54716">
        <ele>332.82824707031</ele>
        <time>2014-10-24T12:29:33Z</time>
      </trkpt>
      <trkpt lat="46.64288" lon="5.54711">
        <ele>331.6506652832</ele>
        <time>2014-10-24T12:29:42Z</time>
      </trkpt>
      <trkpt lat="46.6429" lon="5.54707">
        <ele>330.59494018555</ele>
        <time>2014-10-24T12:29:50Z</time>
      </trkpt>
      <trkpt lat="46.64292" lon="5.54706">
        <ele>330.04217529297</ele>
        <time>2014-10-24T12:29:51Z</time>
      </trkpt>
      <trkpt lat="46.64293" lon="5.54706">
        <ele>329.71258544922</ele>
        <time>2014-10-24T12:29:55Z</time>
      </trkpt>
      <trkpt lat="46.64295" lon="5.54709">
        <ele>329.8928527832</ele>
        <time>2014-10-24T12:30:00Z</time>
      </trkpt>
      <trkpt lat="46.64297" lon="5.54711">
        <ele>329.88427734375</ele>
        <time>2014-10-24T12:30:02Z</time>
      </trkpt>
      <trkpt lat="46.64299" lon="5.54712">
        <ele>329.61819458008</ele>
        <time>2014-10-24T12:30:04Z</time>
      </trkpt>
      <trkpt lat="46.643" lon="5.54715">
        <ele>329.8258972168</ele>
        <time>2014-10-24T12:30:09Z</time>
      </trkpt>
      <trkpt lat="46.64302" lon="5.54716">
        <ele>329.72290039062</ele>
        <time>2014-10-24T12:30:11Z</time>
      </trkpt>
      <trkpt lat="46.64304" lon="5.54717">
        <ele>329.37100219727</ele>
        <time>2014-10-24T12:30:13Z</time>
      </trkpt>
      <trkpt lat="46.64307" lon="5.54719">
        <ele>329.09118652344</ele>
        <time>2014-10-24T12:30:17Z</time>
      </trkpt>
      <trkpt lat="46.64308" lon="5.5472">
        <ele>329.01345825195</ele>
        <time>2014-10-24T12:30:18Z</time>
      </trkpt>
      <trkpt lat="46.64312" lon="5.54724">
        <ele>328.61407470703</ele>
        <time>2014-10-24T12:30:22Z</time>
      </trkpt>
      <trkpt lat="46.64313" lon="5.54726">
        <ele>328.21411132812</ele>
        <time>2014-10-24T12:30:24Z</time>
      </trkpt>
      <trkpt lat="46.64315" lon="5.5473">
        <ele>327.77294921875</ele>
        <time>2014-10-24T12:30:26Z</time>
      </trkpt>
      <trkpt lat="46.64318" lon="5.54732">
        <ele>326.86486816406</ele>
        <time>2014-10-24T12:30:29Z</time>
      </trkpt>
      <trkpt lat="46.64319" lon="5.54735">
        <ele>326.57989501953</ele>
        <time>2014-10-24T12:30:32Z</time>
      </trkpt>
      <trkpt lat="46.64322" lon="5.54738">
        <ele>325.91040039062</ele>
        <time>2014-10-24T12:30:35Z</time>
      </trkpt>
      <trkpt lat="46.64323" lon="5.54739">
        <ele>325.69583129883</ele>
        <time>2014-10-24T12:30:36Z</time>
      </trkpt>
      <trkpt lat="46.64329" lon="5.54747">
        <ele>324.10626220703</ele>
        <time>2014-10-24T12:30:42Z</time>
      </trkpt>
      <trkpt lat="46.64337" lon="5.54753">
        <ele>322.92456054688</ele>
        <time>2014-10-24T12:30:48Z</time>
      </trkpt>
      <trkpt lat="46.64336" lon="5.54756">
        <ele>323.34985351562</ele>
        <time>2014-10-24T12:30:51Z</time>
      </trkpt>
      <trkpt lat="46.64334" lon="5.54759">
        <ele>323.9001159668</ele>
        <time>2014-10-24T12:30:55Z</time>
      </trkpt>
      <trkpt lat="46.64331" lon="5.54764">
        <ele>324.82656860352</ele>
        <time>2014-10-24T12:31:02Z</time>
      </trkpt>
      <trkpt lat="46.6433" lon="5.54771">
        <ele>325.63479614258</ele>
        <time>2014-10-24T12:31:12Z</time>
      </trkpt>
      <trkpt lat="46.64328" lon="5.54772">
        <ele>326.15353393555</ele>
        <time>2014-10-24T12:31:17Z</time>
      </trkpt>
      <trkpt lat="46.64322" lon="5.54777">
        <ele>327.16806030273</ele>
        <time>2014-10-24T12:31:24Z</time>
      </trkpt>
      <trkpt lat="46.64316" lon="5.54777">
        <ele>327.859375</ele>
        <time>2014-10-24T12:31:32Z</time>
      </trkpt>
      <trkpt lat="46.64311" lon="5.54777">
        <ele>328.37661743164</ele>
        <time>2014-10-24T12:31:38Z</time>
      </trkpt>
      <trkpt lat="46.64311" lon="5.54778">
        <ele>328.44744873047</ele>
        <time>2014-10-24T12:31:43Z</time>
      </trkpt>
      <trkpt lat="46.64308" lon="5.54779">
        <ele>328.85470581055</ele>
        <time>2014-10-24T12:31:50Z</time>
      </trkpt>
      <trkpt lat="46.64308" lon="5.54786">
        <ele>329.34036254883</ele>
        <time>2014-10-24T12:31:54Z</time>
      </trkpt>
      <trkpt lat="46.64309" lon="5.54792">
        <ele>329.75408935547</ele>
        <time>2014-10-24T12:31:58Z</time>
      </trkpt>
      <trkpt lat="46.64307" lon="5.54796">
        <ele>330.21899414062</ele>
        <time>2014-10-24T12:32:00Z</time>
      </trkpt>
      <trkpt lat="46.64303" lon="5.54801">
        <ele>331.01467895508</ele>
        <time>2014-10-24T12:32:06Z</time>
      </trkpt>
      <trkpt lat="46.64299" lon="5.5481">
        <ele>332.2116394043</ele>
        <time>2014-10-24T12:32:11Z</time>
      </trkpt>
      <trkpt lat="46.64297" lon="5.54812">
        <ele>332.7197265625</ele>
        <time>2014-10-24T12:32:14Z</time>
      </trkpt>
      <trkpt lat="46.64294" lon="5.54813">
        <ele>333.22909545898</ele>
        <time>2014-10-24T12:32:16Z</time>
      </trkpt>
      <trkpt lat="46.64292" lon="5.54815">
        <ele>333.64544677734</ele>
        <time>2014-10-24T12:32:18Z</time>
      </trkpt>
      <trkpt lat="46.64288" lon="5.54815">
        <ele>334.01211547852</ele>
        <time>2014-10-24T12:32:21Z</time>
      </trkpt>
      <trkpt lat="46.64284" lon="5.54818">
        <ele>334.70581054688</ele>
        <time>2014-10-24T12:32:25Z</time>
      </trkpt>
      <trkpt lat="46.64282" lon="5.54819">
        <ele>335.06332397461</ele>
        <time>2014-10-24T12:32:27Z</time>
      </trkpt>
      <trkpt lat="46.64273" lon="5.54822">
        <ele>336.18481445312</ele>
        <time>2014-10-24T12:32:34Z</time>
      </trkpt>
      <trkpt lat="46.64266" lon="5.54825">
        <ele>337.11813354492</ele>
        <time>2014-10-24T12:32:40Z</time>
      </trkpt>
      <trkpt lat="46.64257" lon="5.54828">
        <ele>338.06097412109</ele>
        <time>2014-10-24T12:32:48Z</time>
      </trkpt>
      <trkpt lat="46.64252" lon="5.54835">
        <ele>338.95471191406</ele>
        <time>2014-10-24T12:32:53Z</time>
      </trkpt>
      <trkpt lat="46.64251" lon="5.54835">
        <ele>339.0817565918</ele>
        <time>2014-10-24T12:32:54Z</time>
      </trkpt>
      <trkpt lat="46.64244" lon="5.54831">
        <ele>339.69342041016</ele>
        <time>2014-10-24T12:33:00Z</time>
      </trkpt>
      <trkpt lat="46.64243" lon="5.54829">
        <ele>339.66937255859</ele>
        <time>2014-10-24T12:33:01Z</time>
      </trkpt>
      <trkpt lat="46.64246" lon="5.54824">
        <ele>338.95184326172</ele>
        <time>2014-10-24T12:33:05Z</time>
      </trkpt>
      <trkpt lat="46.64249" lon="5.54817">
        <ele>338.04547119141</ele>
        <time>2014-10-24T12:33:10Z</time>
      </trkpt>
      <trkpt lat="46.64248" lon="5.54815">
        <ele>337.96649169922</ele>
        <time>2014-10-24T12:33:12Z</time>
      </trkpt>
      <trkpt lat="46.64243" lon="5.54815">
        <ele>338.61538696289</ele>
        <time>2014-10-24T12:33:15Z</time>
      </trkpt>
      <trkpt lat="46.6424" lon="5.54817">
        <ele>339.24710083008</ele>
        <time>2014-10-24T12:33:17Z</time>
      </trkpt>
      <trkpt lat="46.64238" lon="5.54817">
        <ele>339.51489257812</ele>
        <time>2014-10-24T12:33:19Z</time>
      </trkpt>
      <trkpt lat="46.64235" lon="5.54818">
        <ele>339.97839355469</ele>
        <time>2014-10-24T12:33:21Z</time>
      </trkpt>
      <trkpt lat="46.64232" lon="5.54819">
        <ele>340.57574462891</ele>
        <time>2014-10-24T12:33:24Z</time>
      </trkpt>
      <trkpt lat="46.64229" lon="5.54822">
        <ele>341.14910888672</ele>
        <time>2014-10-24T12:33:27Z</time>
      </trkpt>
      <trkpt lat="46.64225" lon="5.54829">
        <ele>342.23059082031</ele>
        <time>2014-10-24T12:33:33Z</time>
      </trkpt>
      <trkpt lat="46.64223" lon="5.54836">
        <ele>343.07070922852</ele>
        <time>2014-10-24T12:33:38Z</time>
      </trkpt>
      <trkpt lat="46.64225" lon="5.54838">
        <ele>343.10244750977</ele>
        <time>2014-10-24T12:33:40Z</time>
      </trkpt>
      <trkpt lat="46.64227" lon="5.5484">
        <ele>342.96429443359</ele>
        <time>2014-10-24T12:33:43Z</time>
      </trkpt>
      <trkpt lat="46.64229" lon="5.5485">
        <ele>343.66519165039</ele>
        <time>2014-10-24T12:33:48Z</time>
      </trkpt>
      <trkpt lat="46.64229" lon="5.54851">
        <ele>343.7600402832</ele>
        <time>2014-10-24T12:33:49Z</time>
      </trkpt>
      <trkpt lat="46.64229" lon="5.54853">
        <ele>343.98916625977</ele>
        <time>2014-10-24T12:33:54Z</time>
      </trkpt>
      <trkpt lat="46.64229" lon="5.54865">
        <ele>345.49984741211</ele>
        <time>2014-10-24T12:34:00Z</time>
      </trkpt>
      <trkpt lat="46.64231" lon="5.54879">
        <ele>347.64562988281</ele>
        <time>2014-10-24T12:34:07Z</time>
      </trkpt>
      <trkpt lat="46.6423" lon="5.5488">
        <ele>348.01470947266</ele>
        <time>2014-10-24T12:34:08Z</time>
      </trkpt>
      <trkpt lat="46.64224" lon="5.5488">
        <ele>349.16482543945</ele>
        <time>2014-10-24T12:34:12Z</time>
      </trkpt>
      <trkpt lat="46.64212" lon="5.54881">
        <ele>351.11553955078</ele>
        <time>2014-10-24T12:34:17Z</time>
      </trkpt>
      <trkpt lat="46.64203" lon="5.54882">
        <ele>352.43048095703</ele>
        <time>2014-10-24T12:34:21Z</time>
      </trkpt>
      <trkpt lat="46.64201" lon="5.54882">
        <ele>352.80297851562</ele>
        <time>2014-10-24T12:34:22Z</time>
      </trkpt>
      <trkpt lat="46.64201" lon="5.54882">
        <ele>352.80297851562</ele>
        <time>2014-10-24T12:34:22Z</time>
      </trkpt>
      <trkpt lat="46.64189" lon="5.54881">
        <ele>354.01293945312</ele>
        <time>2014-10-24T12:34:27Z</time>
      </trkpt>
      <trkpt lat="46.64178" lon="5.54879">
        <ele>354.33737182617</ele>
        <time>2014-10-24T12:34:32Z</time>
      </trkpt>
      <trkpt lat="46.64169" lon="5.54877">
        <ele>354.80944824219</ele>
        <time>2014-10-24T12:34:37Z</time>
      </trkpt>
      <trkpt lat="46.64161" lon="5.54876">
        <ele>355.10437011719</ele>
        <time>2014-10-24T12:34:42Z</time>
      </trkpt>
      <trkpt lat="46.64152" lon="5.54877">
        <ele>355.82135009766</ele>
        <time>2014-10-24T12:34:46Z</time>
      </trkpt>
      <trkpt lat="46.64142" lon="5.54878">
        <ele>356.6005859375</ele>
        <time>2014-10-24T12:34:51Z</time>
      </trkpt>
      <trkpt lat="46.6414" lon="5.54877">
        <ele>356.63049316406</ele>
        <time>2014-10-24T12:34:52Z</time>
      </trkpt>
      <trkpt lat="46.64132" lon="5.54874">
        <ele>356.66842651367</ele>
        <time>2014-10-24T12:34:56Z</time>
      </trkpt>
      <trkpt lat="46.64122" lon="5.54874">
        <ele>357.03057861328</ele>
        <time>2014-10-24T12:35:01Z</time>
      </trkpt>
      <trkpt lat="46.64118" lon="5.54874">
        <ele>357.2082824707</ele>
        <time>2014-10-24T12:35:03Z</time>
      </trkpt>
      <trkpt lat="46.64113" lon="5.54874">
        <ele>357.36581420898</ele>
        <time>2014-10-24T12:35:05Z</time>
      </trkpt>
      <trkpt lat="46.64104" lon="5.54873">
        <ele>357.66015625</ele>
        <time>2014-10-24T12:35:10Z</time>
      </trkpt>
      <trkpt lat="46.64093" lon="5.54871">
        <ele>358.01205444336</ele>
        <time>2014-10-24T12:35:15Z</time>
      </trkpt>
      <trkpt lat="46.64083" lon="5.54869">
        <ele>358.28497314453</ele>
        <time>2014-10-24T12:35:20Z</time>
      </trkpt>
      <trkpt lat="46.64072" lon="5.54869">
        <ele>358.28515625</ele>
        <time>2014-10-24T12:35:26Z</time>
      </trkpt>
      <trkpt lat="46.64063" lon="5.54867">
        <ele>358.21990966797</ele>
        <time>2014-10-24T12:35:32Z</time>
      </trkpt>
      <trkpt lat="46.64055" lon="5.54866">
        <ele>358.18557739258</ele>
        <time>2014-10-24T12:35:38Z</time>
      </trkpt>
      <trkpt lat="46.64054" lon="5.54865">
        <ele>358.1272277832</ele>
        <time>2014-10-24T12:35:39Z</time>
      </trkpt>
      <trkpt lat="46.64052" lon="5.54863">
        <ele>358.08428955078</ele>
        <time>2014-10-24T12:35:42Z</time>
      </trkpt>
      <trkpt lat="46.64045" lon="5.54863">
        <ele>358.06372070312</ele>
        <time>2014-10-24T12:35:47Z</time>
      </trkpt>
      <trkpt lat="46.6404" lon="5.54862">
        <ele>358.02593994141</ele>
        <time>2014-10-24T12:35:53Z</time>
      </trkpt>
      <trkpt lat="46.64039" lon="5.54862">
        <ele>358.04824829102</ele>
        <time>2014-10-24T12:35:54Z</time>
      </trkpt>
      <trkpt lat="46.64037" lon="5.54863">
        <ele>358.0654296875</ele>
        <time>2014-10-24T12:36:03Z</time>
      </trkpt>
      <trkpt lat="46.64034" lon="5.54863">
        <ele>358.05340576172</ele>
        <time>2014-10-24T12:36:22Z</time>
      </trkpt>
      <trkpt lat="46.64027" lon="5.54864">
        <ele>358.09829711914</ele>
        <time>2014-10-24T12:36:27Z</time>
      </trkpt>
      <trkpt lat="46.64021" lon="5.54862">
        <ele>358.28323364258</ele>
        <time>2014-10-24T12:36:33Z</time>
      </trkpt>
      <trkpt lat="46.64013" lon="5.54862">
        <ele>358.55838012695</ele>
        <time>2014-10-24T12:36:41Z</time>
      </trkpt>
      <trkpt lat="46.64011" lon="5.54861">
        <ele>358.61685180664</ele>
        <time>2014-10-24T12:36:43Z</time>
      </trkpt>
      <trkpt lat="46.64006" lon="5.54861">
        <ele>358.8010559082</ele>
        <time>2014-10-24T12:36:47Z</time>
      </trkpt>
      <trkpt lat="46.64003" lon="5.54861">
        <ele>358.8932800293</ele>
        <time>2014-10-24T12:36:50Z</time>
      </trkpt>
      <trkpt lat="46.64001" lon="5.54862">
        <ele>358.97543334961</ele>
        <time>2014-10-24T12:36:52Z</time>
      </trkpt>
      <trkpt lat="46.63995" lon="5.5486">
        <ele>360.69857788086</ele>
        <time>2014-10-24T12:36:56Z</time>
      </trkpt>
      <trkpt lat="46.63992" lon="5.54861">
        <ele>361.74301147461</ele>
        <time>2014-10-24T12:36:59Z</time>
      </trkpt>
      <trkpt lat="46.63985" lon="5.54861">
        <ele>363.95016479492</ele>
        <time>2014-10-24T12:37:04Z</time>
      </trkpt>
      <trkpt lat="46.63977" lon="5.54865">
        <ele>366.22250366211</ele>
        <time>2014-10-24T12:37:10Z</time>
      </trkpt>
      <trkpt lat="46.63968" lon="5.54867">
        <ele>368.44995117188</ele>
        <time>2014-10-24T12:37:17Z</time>
      </trkpt>
      <trkpt lat="46.6396" lon="5.5487">
        <ele>370.16250610352</ele>
        <time>2014-10-24T12:37:24Z</time>
      </trkpt>
      <trkpt lat="46.63951" lon="5.54874">
        <ele>371.97232055664</ele>
        <time>2014-10-24T12:37:31Z</time>
      </trkpt>
      <trkpt lat="46.63941" lon="5.54877">
        <ele>373.9924621582</ele>
        <time>2014-10-24T12:37:38Z</time>
      </trkpt>
      <trkpt lat="46.63934" lon="5.54881">
        <ele>375.05804443359</ele>
        <time>2014-10-24T12:37:44Z</time>
      </trkpt>
      <trkpt lat="46.63924" lon="5.54884">
        <ele>376.33990478516</ele>
        <time>2014-10-24T12:37:50Z</time>
      </trkpt>
      <trkpt lat="46.63913" lon="5.54887">
        <ele>377.60269165039</ele>
        <time>2014-10-24T12:37:57Z</time>
      </trkpt>
      <trkpt lat="46.63906" lon="5.54889">
        <ele>378.18402099609</ele>
        <time>2014-10-24T12:38:01Z</time>
      </trkpt>
      <trkpt lat="46.63896" lon="5.54889">
        <ele>379.23709106445</ele>
        <time>2014-10-24T12:38:05Z</time>
      </trkpt>
      <trkpt lat="46.63886" lon="5.54895">
        <ele>379.61560058594</ele>
        <time>2014-10-24T12:38:09Z</time>
      </trkpt>
      <trkpt lat="46.63875" lon="5.54898">
        <ele>379.67169189453</ele>
        <time>2014-10-24T12:38:14Z</time>
      </trkpt>
      <trkpt lat="46.63867" lon="5.54902">
        <ele>379.80743408203</ele>
        <time>2014-10-24T12:38:18Z</time>
      </trkpt>
      <trkpt lat="46.63863" lon="5.54904">
        <ele>379.94174194336</ele>
        <time>2014-10-24T12:38:21Z</time>
      </trkpt>
      <trkpt lat="46.63857" lon="5.54905">
        <ele>380</ele>
        <time>2014-10-24T12:38:23Z</time>
      </trkpt>
      <trkpt lat="46.6385" lon="5.54911">
        <ele>380</ele>
        <time>2014-10-24T12:38:27Z</time>
      </trkpt>
      <trkpt lat="46.63837" lon="5.54919">
        <ele>379.7243347168</ele>
        <time>2014-10-24T12:38:32Z</time>
      </trkpt>
      <trkpt lat="46.63825" lon="5.54927">
        <ele>378.80822753906</ele>
        <time>2014-10-24T12:38:37Z</time>
      </trkpt>
      <trkpt lat="46.63813" lon="5.54934">
        <ele>377.72796630859</ele>
        <time>2014-10-24T12:38:42Z</time>
      </trkpt>
      <trkpt lat="46.63807" lon="5.54939">
        <ele>376.88668823242</ele>
        <time>2014-10-24T12:38:46Z</time>
      </trkpt>
      <trkpt lat="46.63797" lon="5.54947">
        <ele>375.87551879883</ele>
        <time>2014-10-24T12:38:51Z</time>
      </trkpt>
      <trkpt lat="46.63796" lon="5.54949">
        <ele>375.96478271484</ele>
        <time>2014-10-24T12:38:53Z</time>
      </trkpt>
      <trkpt lat="46.63792" lon="5.5495">
        <ele>375.94073486328</ele>
        <time>2014-10-24T12:38:55Z</time>
      </trkpt>
      <trkpt lat="46.63787" lon="5.5495">
        <ele>375.73818969727</ele>
        <time>2014-10-24T12:38:59Z</time>
      </trkpt>
      <trkpt lat="46.63785" lon="5.5495">
        <ele>375.63861083984</ele>
        <time>2014-10-24T12:39:00Z</time>
      </trkpt>
      <trkpt lat="46.63781" lon="5.54943">
        <ele>375.28713989258</ele>
        <time>2014-10-24T12:39:04Z</time>
      </trkpt>
      <trkpt lat="46.63779" lon="5.54943">
        <ele>375.36544799805</ele>
        <time>2014-10-24T12:39:05Z</time>
      </trkpt>
      <trkpt lat="46.6377" lon="5.54941">
        <ele>375.44985961914</ele>
        <time>2014-10-24T12:39:09Z</time>
      </trkpt>
      <trkpt lat="46.63768" lon="5.5494">
        <ele>375.59918212891</ele>
        <time>2014-10-24T12:39:10Z</time>
      </trkpt>
      <trkpt lat="46.63753" lon="5.54935">
        <ele>376.19973754883</ele>
        <time>2014-10-24T12:39:16Z</time>
      </trkpt>
      <trkpt lat="46.63743" lon="5.5493">
        <ele>375.49310302734</ele>
        <time>2014-10-24T12:39:21Z</time>
      </trkpt>
      <trkpt lat="46.63732" lon="5.54925">
        <ele>373.30770874023</ele>
        <time>2014-10-24T12:39:25Z</time>
      </trkpt>
      <trkpt lat="46.6372" lon="5.54923">
        <ele>369.77142333984</ele>
        <time>2014-10-24T12:39:30Z</time>
      </trkpt>
      <trkpt lat="46.63706" lon="5.54916">
        <ele>365.92913818359</ele>
        <time>2014-10-24T12:39:36Z</time>
      </trkpt>
      <trkpt lat="46.63694" lon="5.5491">
        <ele>362.46008300781</ele>
        <time>2014-10-24T12:39:42Z</time>
      </trkpt>
      <trkpt lat="46.63681" lon="5.54907">
        <ele>360.8503112793</ele>
        <time>2014-10-24T12:39:47Z</time>
      </trkpt>
      <trkpt lat="46.63668" lon="5.54907">
        <ele>359.3864440918</ele>
        <time>2014-10-24T12:39:52Z</time>
      </trkpt>
      <trkpt lat="46.63657" lon="5.54904">
        <ele>356.95388793945</ele>
        <time>2014-10-24T12:39:57Z</time>
      </trkpt>
      <trkpt lat="46.63647" lon="5.54905">
        <ele>355.56243896484</ele>
        <time>2014-10-24T12:40:02Z</time>
      </trkpt>
      <trkpt lat="46.63637" lon="5.54905">
        <ele>353.68298339844</ele>
        <time>2014-10-24T12:40:07Z</time>
      </trkpt>
      <trkpt lat="46.63625" lon="5.54903">
        <ele>348.10397338867</ele>
        <time>2014-10-24T12:40:11Z</time>
      </trkpt>
      <trkpt lat="46.6362" lon="5.54903">
        <ele>346.1813659668</ele>
        <time>2014-10-24T12:40:13Z</time>
      </trkpt>
      <trkpt lat="46.63615" lon="5.54902">
        <ele>344.13171386719</ele>
        <time>2014-10-24T12:40:15Z</time>
      </trkpt>
      <trkpt lat="46.63603" lon="5.54903">
        <ele>339.9372253418</ele>
        <time>2014-10-24T12:40:20Z</time>
      </trkpt>
      <trkpt lat="46.63592" lon="5.54905">
        <ele>336.62805175781</ele>
        <time>2014-10-24T12:40:25Z</time>
      </trkpt>
      <trkpt lat="46.63583" lon="5.54907">
        <ele>333.66217041016</ele>
        <time>2014-10-24T12:40:29Z</time>
      </trkpt>
      <trkpt lat="46.63569" lon="5.54904">
        <ele>330.61395263672</ele>
        <time>2014-10-24T12:40:35Z</time>
      </trkpt>
      <trkpt lat="46.63565" lon="5.54904">
        <ele>329.85531616211</ele>
        <time>2014-10-24T12:40:37Z</time>
      </trkpt>
      <trkpt lat="46.63563" lon="5.549">
        <ele>328.50912475586</ele>
        <time>2014-10-24T12:40:39Z</time>
      </trkpt>
      <trkpt lat="46.63559" lon="5.54895">
        <ele>326.41897583008</ele>
        <time>2014-10-24T12:40:41Z</time>
      </trkpt>
      <trkpt lat="46.63551" lon="5.54884">
        <ele>321.08547973633</ele>
        <time>2014-10-24T12:40:45Z</time>
      </trkpt>
      <trkpt lat="46.6355" lon="5.5488">
        <ele>319.18615722656</ele>
        <time>2014-10-24T12:40:46Z</time>
      </trkpt>
      <trkpt lat="46.63541" lon="5.54865">
        <ele>310.97204589844</ele>
        <time>2014-10-24T12:40:51Z</time>
      </trkpt>
      <trkpt lat="46.6353" lon="5.5485">
        <ele>304.37985229492</ele>
        <time>2014-10-24T12:40:57Z</time>
      </trkpt>
      <trkpt lat="46.63523" lon="5.54834">
        <ele>300.13418579102</ele>
        <time>2014-10-24T12:41:02Z</time>
      </trkpt>
      <trkpt lat="46.63513" lon="5.54816">
        <ele>300</ele>
        <time>2014-10-24T12:41:08Z</time>
      </trkpt>
      <trkpt lat="46.63508" lon="5.54805">
        <ele>300</ele>
        <time>2014-10-24T12:41:12Z</time>
      </trkpt>
      <trkpt lat="46.63507" lon="5.54801">
        <ele>300</ele>
        <time>2014-10-24T12:41:13Z</time>
      </trkpt>
      <trkpt lat="46.635" lon="5.54786">
        <ele>300</ele>
        <time>2014-10-24T12:41:18Z</time>
      </trkpt>
      <trkpt lat="46.63495" lon="5.54774">
        <ele>300</ele>
        <time>2014-10-24T12:41:22Z</time>
      </trkpt>
      <trkpt lat="46.6349" lon="5.54763">
        <ele>300</ele>
        <time>2014-10-24T12:41:26Z</time>
      </trkpt>
      <trkpt lat="46.6348" lon="5.54754">
        <ele>300</ele>
        <time>2014-10-24T12:41:31Z</time>
      </trkpt>
      <trkpt lat="46.63471" lon="5.54751">
        <ele>300</ele>
        <time>2014-10-24T12:41:36Z</time>
      </trkpt>
      <trkpt lat="46.63459" lon="5.54752">
        <ele>300</ele>
        <time>2014-10-24T12:41:42Z</time>
      </trkpt>
      <trkpt lat="46.6345" lon="5.54752">
        <ele>300</ele>
        <time>2014-10-24T12:41:46Z</time>
      </trkpt>
      <trkpt lat="46.63443" lon="5.54754">
        <ele>300</ele>
        <time>2014-10-24T12:41:49Z</time>
      </trkpt>
      <trkpt lat="46.63438" lon="5.54754">
        <ele>300</ele>
        <time>2014-10-24T12:41:51Z</time>
      </trkpt>
      <trkpt lat="46.63427" lon="5.54758">
        <ele>300</ele>
        <time>2014-10-24T12:41:56Z</time>
      </trkpt>
      <trkpt lat="46.63424" lon="5.54757">
        <ele>300</ele>
        <time>2014-10-24T12:41:58Z</time>
      </trkpt>
      <trkpt lat="46.63422" lon="5.5475">
        <ele>300</ele>
        <time>2014-10-24T12:42:00Z</time>
      </trkpt>
      <trkpt lat="46.63423" lon="5.54745">
        <ele>300</ele>
        <time>2014-10-24T12:42:04Z</time>
      </trkpt>
      <trkpt lat="46.63417" lon="5.54743">
        <ele>300</ele>
        <time>2014-10-24T12:42:08Z</time>
      </trkpt>
      <trkpt lat="46.63407" lon="5.54743">
        <ele>300</ele>
        <time>2014-10-24T12:42:12Z</time>
      </trkpt>
      <trkpt lat="46.63401" lon="5.54742">
        <ele>300</ele>
        <time>2014-10-24T12:42:14Z</time>
      </trkpt>
      <trkpt lat="46.63393" lon="5.54742">
        <ele>300</ele>
        <time>2014-10-24T12:42:17Z</time>
      </trkpt>
      <trkpt lat="46.63377" lon="5.54741">
        <ele>300</ele>
        <time>2014-10-24T12:42:23Z</time>
      </trkpt>
      <trkpt lat="46.63364" lon="5.54739">
        <ele>300</ele>
        <time>2014-10-24T12:42:28Z</time>
      </trkpt>
      <trkpt lat="46.63354" lon="5.54738">
        <ele>300</ele>
        <time>2014-10-24T12:42:33Z</time>
      </trkpt>
      <trkpt lat="46.63341" lon="5.54736">
        <ele>300</ele>
        <time>2014-10-24T12:42:38Z</time>
      </trkpt>
      <trkpt lat="46.63329" lon="5.54741">
        <ele>300</ele>
        <time>2014-10-24T12:42:43Z</time>
      </trkpt>
      <trkpt lat="46.63316" lon="5.54742">
        <ele>300</ele>
        <time>2014-10-24T12:42:48Z</time>
      </trkpt>
      <trkpt lat="46.63299" lon="5.54742">
        <ele>300</ele>
        <time>2014-10-24T12:42:55Z</time>
      </trkpt>
      <trkpt lat="46.63289" lon="5.54742">
        <ele>300</ele>
        <time>2014-10-24T12:42:59Z</time>
      </trkpt>
      <trkpt lat="46.63285" lon="5.54741">
        <ele>300</ele>
        <time>2014-10-24T12:43:00Z</time>
      </trkpt>
      <trkpt lat="46.63275" lon="5.54742">
        <ele>300</ele>
        <time>2014-10-24T12:43:04Z</time>
      </trkpt>
      <trkpt lat="46.63266" lon="5.5474">
        <ele>300</ele>
        <time>2014-10-24T12:43:08Z</time>
      </trkpt>
      <trkpt lat="46.63251" lon="5.54738">
        <ele>300</ele>
        <time>2014-10-24T12:43:14Z</time>
      </trkpt>
      <trkpt lat="46.63243" lon="5.54739">
        <ele>300</ele>
        <time>2014-10-24T12:43:18Z</time>
      </trkpt>
      <trkpt lat="46.63231" lon="5.54734">
        <ele>300</ele>
        <time>2014-10-24T12:43:24Z</time>
      </trkpt>
      <trkpt lat="46.63219" lon="5.54727">
        <ele>300</ele>
        <time>2014-10-24T12:43:28Z</time>
      </trkpt>
      <trkpt lat="46.63205" lon="5.5472">
        <ele>300</ele>
        <time>2014-10-24T12:43:34Z</time>
      </trkpt>
      <trkpt lat="46.63194" lon="5.54715">
        <ele>300</ele>
        <time>2014-10-24T12:43:39Z</time>
      </trkpt>
      <trkpt lat="46.6318" lon="5.54713">
        <ele>300</ele>
        <time>2014-10-24T12:43:44Z</time>
      </trkpt>
      <trkpt lat="46.63166" lon="5.5471">
        <ele>300</ele>
        <time>2014-10-24T12:43:50Z</time>
      </trkpt>
      <trkpt lat="46.63155" lon="5.54706">
        <ele>300</ele>
        <time>2014-10-24T12:43:56Z</time>
      </trkpt>
      <trkpt lat="46.63141" lon="5.54702">
        <ele>300</ele>
        <time>2014-10-24T12:44:02Z</time>
      </trkpt>
      <trkpt lat="46.63126" lon="5.54695">
        <ele>302.67236328125</ele>
        <time>2014-10-24T12:44:08Z</time>
      </trkpt>
      <trkpt lat="46.63116" lon="5.54693">
        <ele>305.0426940918</ele>
        <time>2014-10-24T12:44:12Z</time>
      </trkpt>
      <trkpt lat="46.63106" lon="5.54692">
        <ele>307.09301757812</ele>
        <time>2014-10-24T12:44:17Z</time>
      </trkpt>
      <trkpt lat="46.63092" lon="5.54682">
        <ele>309.94180297852</ele>
        <time>2014-10-24T12:44:22Z</time>
      </trkpt>
      <trkpt lat="46.63082" lon="5.54675">
        <ele>311.87921142578</ele>
        <time>2014-10-24T12:44:27Z</time>
      </trkpt>
      <trkpt lat="46.63072" lon="5.54665">
        <ele>313.68515014648</ele>
        <time>2014-10-24T12:44:32Z</time>
      </trkpt>
      <trkpt lat="46.63061" lon="5.54665">
        <ele>315.30773925781</ele>
        <time>2014-10-24T12:44:37Z</time>
      </trkpt>
      <trkpt lat="46.63053" lon="5.54667">
        <ele>316.23281860352</ele>
        <time>2014-10-24T12:44:42Z</time>
      </trkpt>
      <trkpt lat="46.63047" lon="5.54672">
        <ele>316.73236083984</ele>
        <time>2014-10-24T12:44:48Z</time>
      </trkpt>
      <trkpt lat="46.63046" lon="5.54672">
        <ele>316.88513183594</ele>
        <time>2014-10-24T12:44:49Z</time>
      </trkpt>
      <trkpt lat="46.63042" lon="5.54675">
        <ele>317.10485839844</ele>
        <time>2014-10-24T12:44:52Z</time>
      </trkpt>
      <trkpt lat="46.63039" lon="5.54676">
        <ele>317.49969482422</ele>
        <time>2014-10-24T12:44:55Z</time>
      </trkpt>
      <trkpt lat="46.63035" lon="5.54677">
        <ele>317.82583618164</ele>
        <time>2014-10-24T12:44:58Z</time>
      </trkpt>
      <trkpt lat="46.63028" lon="5.54677">
        <ele>318.63967895508</ele>
        <time>2014-10-24T12:45:02Z</time>
      </trkpt>
      <trkpt lat="46.63023" lon="5.54679">
        <ele>318.55554199219</ele>
        <time>2014-10-24T12:45:06Z</time>
      </trkpt>
      <trkpt lat="46.63021" lon="5.5468">
        <ele>318.51263427734</ele>
        <time>2014-10-24T12:45:08Z</time>
      </trkpt>
      <trkpt lat="46.63013" lon="5.54686">
        <ele>318.31695556641</ele>
        <time>2014-10-24T12:45:14Z</time>
      </trkpt>
      <trkpt lat="46.63012" lon="5.54687">
        <ele>318.28433227539</ele>
        <time>2014-10-24T12:45:15Z</time>
      </trkpt>
      <trkpt lat="46.63008" lon="5.54688">
        <ele>318.21566772461</ele>
        <time>2014-10-24T12:45:18Z</time>
      </trkpt>
      <trkpt lat="46.63005" lon="5.5469">
        <ele>318.16760253906</ele>
        <time>2014-10-24T12:45:20Z</time>
      </trkpt>
      <trkpt lat="46.62999" lon="5.54689">
        <ele>318.18304443359</ele>
        <time>2014-10-24T12:45:23Z</time>
      </trkpt>
      <trkpt lat="46.62992" lon="5.54689">
        <ele>318.193359375</ele>
        <time>2014-10-24T12:45:25Z</time>
      </trkpt>
      <trkpt lat="46.62985" lon="5.5469">
        <ele>318.16073608398</ele>
        <time>2014-10-24T12:45:29Z</time>
      </trkpt>
      <trkpt lat="46.62984" lon="5.5469">
        <ele>318.14700317383</ele>
        <time>2014-10-24T12:45:30Z</time>
      </trkpt>
      <trkpt lat="46.62973" lon="5.54691">
        <ele>318.13497924805</ele>
        <time>2014-10-24T12:45:35Z</time>
      </trkpt>
      <trkpt lat="46.62965" lon="5.54692">
        <ele>318.10580444336</ele>
        <time>2014-10-24T12:45:39Z</time>
      </trkpt>
      <trkpt lat="46.62957" lon="5.54693">
        <ele>318.05773925781</ele>
        <time>2014-10-24T12:45:42Z</time>
      </trkpt>
      <trkpt lat="46.62952" lon="5.54695">
        <ele>318</ele>
        <time>2014-10-24T12:45:44Z</time>
      </trkpt>
      <trkpt lat="46.62943" lon="5.54698">
        <ele>318</ele>
        <time>2014-10-24T12:45:48Z</time>
      </trkpt>
      <trkpt lat="46.62941" lon="5.547">
        <ele>318</ele>
        <time>2014-10-24T12:45:49Z</time>
      </trkpt>
      <trkpt lat="46.62937" lon="5.54705">
        <ele>318</ele>
        <time>2014-10-24T12:45:52Z</time>
      </trkpt>
      <trkpt lat="46.62933" lon="5.54708">
        <ele>318</ele>
        <time>2014-10-24T12:45:54Z</time>
      </trkpt>
      <trkpt lat="46.6292" lon="5.54714">
        <ele>318</ele>
        <time>2014-10-24T12:46:00Z</time>
      </trkpt>
      <trkpt lat="46.62908" lon="5.54718">
        <ele>318.04260253906</ele>
        <time>2014-10-24T12:46:05Z</time>
      </trkpt>
      <trkpt lat="46.62896" lon="5.5472">
        <ele>318.06802368164</ele>
        <time>2014-10-24T12:46:10Z</time>
      </trkpt>
      <trkpt lat="46.62888" lon="5.54724">
        <ele>318</ele>
        <time>2014-10-24T12:46:15Z</time>
      </trkpt>
      <trkpt lat="46.62882" lon="5.54727">
        <ele>318</ele>
        <time>2014-10-24T12:46:20Z</time>
      </trkpt>
      <trkpt lat="46.62873" lon="5.54731">
        <ele>318</ele>
        <time>2014-10-24T12:46:25Z</time>
      </trkpt>
      <trkpt lat="46.62871" lon="5.54734">
        <ele>318</ele>
        <time>2014-10-24T12:46:28Z</time>
      </trkpt>
      <trkpt lat="46.6287" lon="5.54736">
        <ele>318</ele>
        <time>2014-10-24T12:46:29Z</time>
      </trkpt>
      <trkpt lat="46.62869" lon="5.54739">
        <ele>318</ele>
        <time>2014-10-24T12:46:31Z</time>
      </trkpt>
      <trkpt lat="46.62867" lon="5.54743">
        <ele>318</ele>
        <time>2014-10-24T12:46:33Z</time>
      </trkpt>
      <trkpt lat="46.62867" lon="5.54743">
        <ele>318</ele>
        <time>2014-10-24T12:46:33Z</time>
      </trkpt>
      <trkpt lat="46.62867" lon="5.54745">
        <ele>318</ele>
        <time>2014-10-24T12:46:34Z</time>
      </trkpt>
      <trkpt lat="46.62861" lon="5.54755">
        <ele>317.80554199219</ele>
        <time>2014-10-24T12:46:41Z</time>
      </trkpt>
      <trkpt lat="46.62859" lon="5.54759">
        <ele>317.66479492188</ele>
        <time>2014-10-24T12:46:44Z</time>
      </trkpt>
      <trkpt lat="46.62856" lon="5.54762">
        <ele>317.55493164062</ele>
        <time>2014-10-24T12:46:46Z</time>
      </trkpt>
      <trkpt lat="46.62849" lon="5.5477">
        <ele>317.27682495117</ele>
        <time>2014-10-24T12:46:51Z</time>
      </trkpt>
      <trkpt lat="46.62849" lon="5.54772">
        <ele>317.19097900391</ele>
        <time>2014-10-24T12:46:52Z</time>
      </trkpt>
      <trkpt lat="46.62846" lon="5.54776">
        <ele>317.04681396484</ele>
        <time>2014-10-24T12:46:55Z</time>
      </trkpt>
      <trkpt lat="46.62841" lon="5.54787">
        <ele>317</ele>
        <time>2014-10-24T12:47:00Z</time>
      </trkpt>
      <trkpt lat="46.62841" lon="5.54788">
        <ele>317</ele>
        <time>2014-10-24T12:47:01Z</time>
      </trkpt>
      <trkpt lat="46.62835" lon="5.54797">
        <ele>317</ele>
        <time>2014-10-24T12:47:07Z</time>
      </trkpt>
      <trkpt lat="46.62825" lon="5.54805">
        <ele>317.00451660156</ele>
        <time>2014-10-24T12:47:15Z</time>
      </trkpt>
      <trkpt lat="46.62819" lon="5.54811">
        <ele>317.62927246094</ele>
        <time>2014-10-24T12:47:21Z</time>
      </trkpt>
      <trkpt lat="46.62819" lon="5.54811">
        <ele>317.61383056641</ele>
        <time>2014-10-24T12:47:22Z</time>
      </trkpt>
      <trkpt lat="46.62813" lon="5.54817">
        <ele>318.18548583984</ele>
        <time>2014-10-24T12:47:27Z</time>
      </trkpt>
      <trkpt lat="46.62802" lon="5.54823">
        <ele>318.96627807617</ele>
        <time>2014-10-24T12:47:35Z</time>
      </trkpt>
      <trkpt lat="46.628" lon="5.54827">
        <ele>319.35244750977</ele>
        <time>2014-10-24T12:47:37Z</time>
      </trkpt>
      <trkpt lat="46.62797" lon="5.54829">
        <ele>319.61862182617</ele>
        <time>2014-10-24T12:47:41Z</time>
      </trkpt>
      <trkpt lat="46.62791" lon="5.54837">
        <ele>320</ele>
        <time>2014-10-24T12:47:49Z</time>
      </trkpt>
      <trkpt lat="46.62784" lon="5.54842">
        <ele>320</ele>
        <time>2014-10-24T12:47:55Z</time>
      </trkpt>
      <trkpt lat="46.62781" lon="5.54844">
        <ele>320</ele>
        <time>2014-10-24T12:47:59Z</time>
      </trkpt>
      <trkpt lat="46.6278" lon="5.54845">
        <ele>320</ele>
        <time>2014-10-24T12:48:00Z</time>
      </trkpt>
      <trkpt lat="46.62777" lon="5.54853">
        <ele>320</ele>
        <time>2014-10-24T12:48:05Z</time>
      </trkpt>
      <trkpt lat="46.62774" lon="5.54858">
        <ele>320</ele>
        <time>2014-10-24T12:48:09Z</time>
      </trkpt>
      <trkpt lat="46.62772" lon="5.54857">
        <ele>320</ele>
        <time>2014-10-24T12:48:10Z</time>
      </trkpt>
      <trkpt lat="46.6277" lon="5.54858">
        <ele>320</ele>
        <time>2014-10-24T12:48:11Z</time>
      </trkpt>
      <trkpt lat="46.62764" lon="5.54865">
        <ele>320</ele>
        <time>2014-10-24T12:48:17Z</time>
      </trkpt>
      <trkpt lat="46.62757" lon="5.54871">
        <ele>320</ele>
        <time>2014-10-24T12:48:23Z</time>
      </trkpt>
      <trkpt lat="46.62757" lon="5.54873">
        <ele>320</ele>
        <time>2014-10-24T12:48:25Z</time>
      </trkpt>
      <trkpt lat="46.62753" lon="5.54876">
        <ele>320</ele>
        <time>2014-10-24T12:48:28Z</time>
      </trkpt>
      <trkpt lat="46.62748" lon="5.54883">
        <ele>320</ele>
        <time>2014-10-24T12:48:34Z</time>
      </trkpt>
      <trkpt lat="46.62749" lon="5.54883">
        <ele>320</ele>
        <time>2014-10-24T12:48:40Z</time>
      </trkpt>
      <trkpt lat="46.62745" lon="5.54885">
        <ele>320</ele>
        <time>2014-10-24T12:48:43Z</time>
      </trkpt>
      <trkpt lat="46.62743" lon="5.54889">
        <ele>320</ele>
        <time>2014-10-24T12:48:45Z</time>
      </trkpt>
      <trkpt lat="46.62737" lon="5.54892">
        <ele>320</ele>
        <time>2014-10-24T12:48:50Z</time>
      </trkpt>
      <trkpt lat="46.62736" lon="5.54892">
        <ele>320</ele>
        <time>2014-10-24T12:48:51Z</time>
      </trkpt>
      <trkpt lat="46.62736" lon="5.54893">
        <ele>320</ele>
        <time>2014-10-24T12:48:52Z</time>
      </trkpt>
      <trkpt lat="46.62734" lon="5.54896">
        <ele>320</ele>
        <time>2014-10-24T12:48:54Z</time>
      </trkpt>
      <trkpt lat="46.62733" lon="5.54897">
        <ele>320</ele>
        <time>2014-10-24T12:48:55Z</time>
      </trkpt>
      <trkpt lat="46.62731" lon="5.54901">
        <ele>320</ele>
        <time>2014-10-24T12:48:57Z</time>
      </trkpt>
      <trkpt lat="46.62725" lon="5.549">
        <ele>320</ele>
        <time>2014-10-24T12:49:00Z</time>
      </trkpt>
      <trkpt lat="46.62721" lon="5.549">
        <ele>320</ele>
        <time>2014-10-24T12:49:02Z</time>
      </trkpt>
      <trkpt lat="46.62719" lon="5.54902">
        <ele>320</ele>
        <time>2014-10-24T12:49:04Z</time>
      </trkpt>
      <trkpt lat="46.6271" lon="5.54904">
        <ele>320</ele>
        <time>2014-10-24T12:49:09Z</time>
      </trkpt>
      <trkpt lat="46.62703" lon="5.54904">
        <ele>320</ele>
        <time>2014-10-24T12:49:13Z</time>
      </trkpt>
      <trkpt lat="46.62698" lon="5.54908">
        <ele>320</ele>
        <time>2014-10-24T12:49:17Z</time>
      </trkpt>
      <trkpt lat="46.62696" lon="5.54909">
        <ele>320</ele>
        <time>2014-10-24T12:49:18Z</time>
      </trkpt>
      <trkpt lat="46.62693" lon="5.5491">
        <ele>320</ele>
        <time>2014-10-24T12:49:20Z</time>
      </trkpt>
      <trkpt lat="46.62687" lon="5.5491">
        <ele>320</ele>
        <time>2014-10-24T12:49:24Z</time>
      </trkpt>
      <trkpt lat="46.62682" lon="5.54912">
        <ele>320</ele>
        <time>2014-10-24T12:49:31Z</time>
      </trkpt>
      <trkpt lat="46.62677" lon="5.54914">
        <ele>320</ele>
        <time>2014-10-24T12:49:35Z</time>
      </trkpt>
      <trkpt lat="46.62672" lon="5.54913">
        <ele>320</ele>
        <time>2014-10-24T12:49:39Z</time>
      </trkpt>
      <trkpt lat="46.62668" lon="5.54914">
        <ele>320</ele>
        <time>2014-10-24T12:49:43Z</time>
      </trkpt>
      <trkpt lat="46.62663" lon="5.54914">
        <ele>320</ele>
        <time>2014-10-24T12:49:49Z</time>
      </trkpt>
      <trkpt lat="46.62662" lon="5.54914">
        <ele>320</ele>
        <time>2014-10-24T12:49:50Z</time>
      </trkpt>
      <trkpt lat="46.62658" lon="5.54915">
        <ele>320</ele>
        <time>2014-10-24T12:49:53Z</time>
      </trkpt>
      <trkpt lat="46.62656" lon="5.54915">
        <ele>320</ele>
        <time>2014-10-24T12:49:54Z</time>
      </trkpt>
      <trkpt lat="46.62653" lon="5.54916">
        <ele>320</ele>
        <time>2014-10-24T12:49:57Z</time>
      </trkpt>
      <trkpt lat="46.62651" lon="5.54917">
        <ele>320</ele>
        <time>2014-10-24T12:49:58Z</time>
      </trkpt>
      <trkpt lat="46.6265" lon="5.54916">
        <ele>320</ele>
        <time>2014-10-24T12:49:59Z</time>
      </trkpt>
      <trkpt lat="46.6265" lon="5.54919">
        <ele>320.15252685547</ele>
        <time>2014-10-24T12:50:04Z</time>
      </trkpt>
      <trkpt lat="46.62644" lon="5.5492">
        <ele>320.26672363281</ele>
        <time>2014-10-24T12:50:14Z</time>
      </trkpt>
      <trkpt lat="46.62643" lon="5.5492">
        <ele>320.32409667969</ele>
        <time>2014-10-24T12:50:15Z</time>
      </trkpt>
      <trkpt lat="46.62639" lon="5.5492">
        <ele>320.33578491211</ele>
        <time>2014-10-24T12:50:19Z</time>
      </trkpt>
      <trkpt lat="46.62633" lon="5.54919">
        <ele>321.55627441406</ele>
        <time>2014-10-24T12:50:23Z</time>
      </trkpt>
      <trkpt lat="46.62632" lon="5.5492">
        <ele>321.94207763672</ele>
        <time>2014-10-24T12:50:24Z</time>
      </trkpt>
      <trkpt lat="46.6263" lon="5.5492">
        <ele>322.38299560547</ele>
        <time>2014-10-24T12:50:26Z</time>
      </trkpt>
      <trkpt lat="46.62627" lon="5.54922">
        <ele>323.26309204102</ele>
        <time>2014-10-24T12:50:28Z</time>
      </trkpt>
      <trkpt lat="46.62625" lon="5.54924">
        <ele>324.1806640625</ele>
        <time>2014-10-24T12:50:31Z</time>
      </trkpt>
      <trkpt lat="46.62623" lon="5.54925">
        <ele>324.60479736328</ele>
        <time>2014-10-24T12:50:32Z</time>
      </trkpt>
      <trkpt lat="46.62619" lon="5.54929">
        <ele>326.12966918945</ele>
        <time>2014-10-24T12:50:36Z</time>
      </trkpt>
      <trkpt lat="46.6261" lon="5.54934">
        <ele>329.29293823242</ele>
        <time>2014-10-24T12:50:43Z</time>
      </trkpt>
      <trkpt lat="46.62606" lon="5.54936">
        <ele>330.23123168945</ele>
        <time>2014-10-24T12:50:47Z</time>
      </trkpt>
      <trkpt lat="46.62603" lon="5.54938">
        <ele>330.78088378906</ele>
        <time>2014-10-24T12:50:50Z</time>
      </trkpt>
      <trkpt lat="46.62598" lon="5.54942">
        <ele>331.97430419922</ele>
        <time>2014-10-24T12:50:53Z</time>
      </trkpt>
      <trkpt lat="46.62597" lon="5.54942">
        <ele>332.26818847656</ele>
        <time>2014-10-24T12:50:55Z</time>
      </trkpt>
      <trkpt lat="46.62595" lon="5.54943">
        <ele>332.56341552734</ele>
        <time>2014-10-24T12:50:57Z</time>
      </trkpt>
      <trkpt lat="46.62593" lon="5.54944">
        <ele>332.81979370117</ele>
        <time>2014-10-24T12:50:58Z</time>
      </trkpt>
      <trkpt lat="46.62588" lon="5.54947">
        <ele>333.7160949707</ele>
        <time>2014-10-24T12:51:03Z</time>
      </trkpt>
      <trkpt lat="46.62586" lon="5.54947">
        <ele>333.95086669922</ele>
        <time>2014-10-24T12:51:04Z</time>
      </trkpt>
      <trkpt lat="46.62577" lon="5.54953">
        <ele>335.16293334961</ele>
        <time>2014-10-24T12:51:09Z</time>
      </trkpt>
      <trkpt lat="46.62571" lon="5.54959">
        <ele>336.18347167969</ele>
        <time>2014-10-24T12:51:14Z</time>
      </trkpt>
      <trkpt lat="46.62563" lon="5.54965">
        <ele>337.12423706055</ele>
        <time>2014-10-24T12:51:18Z</time>
      </trkpt>
      <trkpt lat="46.62558" lon="5.54976">
        <ele>337.98843383789</ele>
        <time>2014-10-24T12:51:24Z</time>
      </trkpt>
      <trkpt lat="46.62556" lon="5.54977">
        <ele>338.12872314453</ele>
        <time>2014-10-24T12:51:25Z</time>
      </trkpt>
      <trkpt lat="46.6255" lon="5.54984">
        <ele>338.52871704102</ele>
        <time>2014-10-24T12:51:29Z</time>
      </trkpt>
      <trkpt lat="46.62538" lon="5.54988">
        <ele>338.84454345703</ele>
        <time>2014-10-24T12:51:37Z</time>
      </trkpt>
      <trkpt lat="46.62537" lon="5.54992">
        <ele>338.90295410156</ele>
        <time>2014-10-24T12:51:40Z</time>
      </trkpt>
      <trkpt lat="46.62535" lon="5.54993">
        <ele>338.93588256836</ele>
        <time>2014-10-24T12:51:42Z</time>
      </trkpt>
      <trkpt lat="46.62531" lon="5.54997">
        <ele>338.98907470703</ele>
        <time>2014-10-24T12:51:45Z</time>
      </trkpt>
      <trkpt lat="46.62529" lon="5.54999">
        <ele>338.99829101562</ele>
        <time>2014-10-24T12:51:47Z</time>
      </trkpt>
      <trkpt lat="46.62521" lon="5.55005">
        <ele>339.1809387207</ele>
        <time>2014-10-24T12:51:54Z</time>
      </trkpt>
      <trkpt lat="46.62521" lon="5.55007">
        <ele>339.25988769531</ele>
        <time>2014-10-24T12:51:55Z</time>
      </trkpt>
      <trkpt lat="46.62518" lon="5.5501">
        <ele>339.36975097656</ele>
        <time>2014-10-24T12:51:59Z</time>
      </trkpt>
      <trkpt lat="46.62512" lon="5.55011">
        <ele>339.40753173828</ele>
        <time>2014-10-24T12:52:04Z</time>
      </trkpt>
      <trkpt lat="46.62508" lon="5.55014">
        <ele>339.48648071289</ele>
        <time>2014-10-24T12:52:07Z</time>
      </trkpt>
      <trkpt lat="46.62506" lon="5.55015">
        <ele>339.53970336914</ele>
        <time>2014-10-24T12:52:09Z</time>
      </trkpt>
      <trkpt lat="46.62503" lon="5.55015">
        <ele>339.54998779297</ele>
        <time>2014-10-24T12:52:11Z</time>
      </trkpt>
      <trkpt lat="46.62497" lon="5.55019">
        <ele>339.69076538086</ele>
        <time>2014-10-24T12:52:16Z</time>
      </trkpt>
      <trkpt lat="46.62494" lon="5.55021">
        <ele>339.76113891602</ele>
        <time>2014-10-24T12:52:19Z</time>
      </trkpt>
      <trkpt lat="46.62491" lon="5.55022">
        <ele>339.7783203125</ele>
        <time>2014-10-24T12:52:22Z</time>
      </trkpt>
      <trkpt lat="46.6249" lon="5.55023">
        <ele>339.81781005859</ele>
        <time>2014-10-24T12:52:25Z</time>
      </trkpt>
      <trkpt lat="46.62485" lon="5.55028">
        <ele>340.13537597656</ele>
        <time>2014-10-24T12:52:31Z</time>
      </trkpt>
      <trkpt lat="46.62484" lon="5.55028">
        <ele>340.12164306641</ele>
        <time>2014-10-24T12:52:32Z</time>
      </trkpt>
      <trkpt lat="46.62479" lon="5.55032">
        <ele>341.13787841797</ele>
        <time>2014-10-24T12:52:37Z</time>
      </trkpt>
      <trkpt lat="46.62476" lon="5.55034">
        <ele>341.90692138672</ele>
        <time>2014-10-24T12:52:40Z</time>
      </trkpt>
      <trkpt lat="46.62473" lon="5.55038">
        <ele>342.95062255859</ele>
        <time>2014-10-24T12:52:43Z</time>
      </trkpt>
      <trkpt lat="46.62471" lon="5.5504">
        <ele>343.46102905273</ele>
        <time>2014-10-24T12:52:45Z</time>
      </trkpt>
      <trkpt lat="46.62465" lon="5.5504">
        <ele>343.158203125</ele>
        <time>2014-10-24T12:52:49Z</time>
      </trkpt>
      <trkpt lat="46.62463" lon="5.55043">
        <ele>343.78573608398</ele>
        <time>2014-10-24T12:52:51Z</time>
      </trkpt>
      <trkpt lat="46.62458" lon="5.55048">
        <ele>344.31423950195</ele>
        <time>2014-10-24T12:52:56Z</time>
      </trkpt>
      <trkpt lat="46.62458" lon="5.55042">
        <ele>343.03829956055</ele>
        <time>2014-10-24T12:53:00Z</time>
      </trkpt>
      <trkpt lat="46.6245" lon="5.5504">
        <ele>342.07766723633</ele>
        <time>2014-10-24T12:53:14Z</time>
      </trkpt>
      <trkpt lat="46.62453" lon="5.55038">
        <ele>341.87231445312</ele>
        <time>2014-10-24T12:53:20Z</time>
      </trkpt>
      <trkpt lat="46.62455" lon="5.55041">
        <ele>342.61303710938</ele>
        <time>2014-10-24T12:53:23Z</time>
      </trkpt>
      <trkpt lat="46.62455" lon="5.55042">
        <ele>342.83090209961</ele>
        <time>2014-10-24T12:53:24Z</time>
      </trkpt>
      <trkpt lat="46.62453" lon="5.55043">
        <ele>342.86666870117</ele>
        <time>2014-10-24T12:53:25Z</time>
      </trkpt>
      <trkpt lat="46.62452" lon="5.55046">
        <ele>343.35623168945</ele>
        <time>2014-10-24T12:53:27Z</time>
      </trkpt>
      <trkpt lat="46.62448" lon="5.55048">
        <ele>343.24786376953</ele>
        <time>2014-10-24T12:53:30Z</time>
      </trkpt>
      <trkpt lat="46.62444" lon="5.55049">
        <ele>343.10763549805</ele>
        <time>2014-10-24T12:53:33Z</time>
      </trkpt>
      <trkpt lat="46.62442" lon="5.55054">
        <ele>343.46438598633</ele>
        <time>2014-10-24T12:53:37Z</time>
      </trkpt>
      <trkpt lat="46.62434" lon="5.55059">
        <ele>343.55859375</ele>
        <time>2014-10-24T12:53:44Z</time>
      </trkpt>
      <trkpt lat="46.62429" lon="5.55062">
        <ele>343.51739501953</ele>
        <time>2014-10-24T12:53:48Z</time>
      </trkpt>
      <trkpt lat="46.62427" lon="5.55063">
        <ele>343.51739501953</ele>
        <time>2014-10-24T12:53:50Z</time>
      </trkpt>
      <trkpt lat="46.62424" lon="5.55063">
        <ele>343.27020263672</ele>
        <time>2014-10-24T12:53:52Z</time>
      </trkpt>
      <trkpt lat="46.62421" lon="5.55061">
        <ele>342.37756347656</ele>
        <time>2014-10-24T12:53:55Z</time>
      </trkpt>
      <trkpt lat="46.62415" lon="5.55059">
        <ele>340.92443847656</ele>
        <time>2014-10-24T12:54:03Z</time>
      </trkpt>
      <trkpt lat="46.62411" lon="5.55058">
        <ele>340.64978027344</ele>
        <time>2014-10-24T12:54:07Z</time>
      </trkpt>
      <trkpt lat="46.62409" lon="5.55058">
        <ele>340.73217773438</ele>
        <time>2014-10-24T12:54:08Z</time>
      </trkpt>
      <trkpt lat="46.62407" lon="5.55059">
        <ele>340.89697265625</ele>
        <time>2014-10-24T12:54:09Z</time>
      </trkpt>
      <trkpt lat="46.62401" lon="5.5506">
        <ele>341.15789794922</ele>
        <time>2014-10-24T12:54:13Z</time>
      </trkpt>
      <trkpt lat="46.62398" lon="5.55059">
        <ele>341.10296630859</ele>
        <time>2014-10-24T12:54:16Z</time>
      </trkpt>
      <trkpt lat="46.62397" lon="5.55059">
        <ele>341.07550048828</ele>
        <time>2014-10-24T12:54:17Z</time>
      </trkpt>
      <trkpt lat="46.62395" lon="5.55059">
        <ele>341.07550048828</ele>
        <time>2014-10-24T12:54:21Z</time>
      </trkpt>
      <trkpt lat="46.62395" lon="5.55057">
        <ele>340.44378662109</ele>
        <time>2014-10-24T12:54:42Z</time>
      </trkpt>
      <trkpt lat="46.62401" lon="5.55052">
        <ele>340</ele>
        <time>2014-10-24T12:55:06Z</time>
      </trkpt>
      <trkpt lat="46.62402" lon="5.55051">
        <ele>340</ele>
        <time>2014-10-24T12:55:07Z</time>
      </trkpt>
      <trkpt lat="46.62404" lon="5.55051">
        <ele>340</ele>
        <time>2014-10-24T12:55:10Z</time>
      </trkpt>
      <trkpt lat="46.62404" lon="5.5505">
        <ele>340</ele>
        <time>2014-10-24T12:55:12Z</time>
      </trkpt>
      <trkpt lat="46.62405" lon="5.5505">
        <ele>340</ele>
        <time>2014-10-24T12:55:17Z</time>
      </trkpt>
      <trkpt lat="46.62408" lon="5.55049">
        <ele>340</ele>
        <time>2014-10-24T12:55:26Z</time>
      </trkpt>
      <trkpt lat="46.6241" lon="5.55047">
        <ele>340</ele>
        <time>2014-10-24T12:55:28Z</time>
      </trkpt>
      <trkpt lat="46.62414" lon="5.55046">
        <ele>340</ele>
        <time>2014-10-24T12:55:32Z</time>
      </trkpt>
      <trkpt lat="46.62417" lon="5.55049">
        <ele>340.01858520508</ele>
        <time>2014-10-24T12:55:34Z</time>
      </trkpt>
      <trkpt lat="46.62422" lon="5.55053">
        <ele>340.65948486328</ele>
        <time>2014-10-24T12:55:41Z</time>
      </trkpt>
      <trkpt lat="46.62427" lon="5.55055">
        <ele>341.44393920898</ele>
        <time>2014-10-24T12:55:47Z</time>
      </trkpt>
      <trkpt lat="46.62429" lon="5.55055">
        <ele>341.66348266602</ele>
        <time>2014-10-24T12:55:51Z</time>
      </trkpt>
      <trkpt lat="46.62432" lon="5.5505">
        <ele>341.8522644043</ele>
        <time>2014-10-24T12:55:56Z</time>
      </trkpt>
      <trkpt lat="46.62435" lon="5.55047">
        <ele>341.82949829102</ele>
        <time>2014-10-24T12:55:59Z</time>
      </trkpt>
      <trkpt lat="46.62436" lon="5.55046">
        <ele>341.82147216797</ele>
        <time>2014-10-24T12:56:00Z</time>
      </trkpt>
      <trkpt lat="46.62442" lon="5.55042">
        <ele>341.86019897461</ele>
        <time>2014-10-24T12:56:04Z</time>
      </trkpt>
      <trkpt lat="46.62446" lon="5.5504">
        <ele>341.82485961914</ele>
        <time>2014-10-24T12:56:08Z</time>
      </trkpt>
      <trkpt lat="46.62448" lon="5.55038">
        <ele>341.61187744141</ele>
        <time>2014-10-24T12:56:10Z</time>
      </trkpt>
      <trkpt lat="46.62452" lon="5.55036">
        <ele>341.54241943359</ele>
        <time>2014-10-24T12:56:13Z</time>
      </trkpt>
      <trkpt lat="46.62454" lon="5.55034">
        <ele>341.24847412109</ele>
        <time>2014-10-24T12:56:16Z</time>
      </trkpt>
      <trkpt lat="46.62455" lon="5.55034">
        <ele>341.23657226562</ele>
        <time>2014-10-24T12:56:17Z</time>
      </trkpt>
      <trkpt lat="46.6246" lon="5.55032">
        <ele>340.97201538086</ele>
        <time>2014-10-24T12:56:22Z</time>
      </trkpt>
      <trkpt lat="46.62462" lon="5.55031">
        <ele>340.76434326172</ele>
        <time>2014-10-24T12:56:24Z</time>
      </trkpt>
      <trkpt lat="46.62466" lon="5.5503">
        <ele>340.53125</ele>
        <time>2014-10-24T12:56:27Z</time>
      </trkpt>
      <trkpt lat="46.62466" lon="5.55029">
        <ele>340.36727905273</ele>
        <time>2014-10-24T12:56:28Z</time>
      </trkpt>
      <trkpt lat="46.62476" lon="5.55025">
        <ele>339.88647460938</ele>
        <time>2014-10-24T12:56:33Z</time>
      </trkpt>
      <trkpt lat="46.62485" lon="5.55018">
        <ele>339.64270019531</ele>
        <time>2014-10-24T12:56:39Z</time>
      </trkpt>
      <trkpt lat="46.62485" lon="5.55019">
        <ele>339.66845703125</ele>
        <time>2014-10-24T12:56:40Z</time>
      </trkpt>
      <trkpt lat="46.62482" lon="5.55025">
        <ele>339.89505004883</ele>
        <time>2014-10-24T12:56:44Z</time>
      </trkpt>
      <trkpt lat="46.62482" lon="5.55026">
        <ele>339.94482421875</ele>
        <time>2014-10-24T12:56:45Z</time>
      </trkpt>
      <trkpt lat="46.62478" lon="5.55032">
        <ele>341.35760498047</ele>
        <time>2014-10-24T12:56:49Z</time>
      </trkpt>
      <trkpt lat="46.62473" lon="5.5504">
        <ele>343.45874023438</ele>
        <time>2014-10-24T12:56:54Z</time>
      </trkpt>
      <trkpt lat="46.6247" lon="5.55049">
        <ele>345.94189453125</ele>
        <time>2014-10-24T12:56:59Z</time>
      </trkpt>
      <trkpt lat="46.6247" lon="5.5505">
        <ele>346.25750732422</ele>
        <time>2014-10-24T12:57:00Z</time>
      </trkpt>
      <trkpt lat="46.62469" lon="5.55052">
        <ele>346.49603271484</ele>
        <time>2014-10-24T12:57:01Z</time>
      </trkpt>
      <trkpt lat="46.62466" lon="5.55055">
        <ele>347.08380126953</ele>
        <time>2014-10-24T12:57:03Z</time>
      </trkpt>
      <trkpt lat="46.62466" lon="5.55057">
        <ele>347.48620605469</ele>
        <time>2014-10-24T12:57:04Z</time>
      </trkpt>
      <trkpt lat="46.62461" lon="5.55066">
        <ele>349.40881347656</ele>
        <time>2014-10-24T12:57:08Z</time>
      </trkpt>
      <trkpt lat="46.62459" lon="5.55069">
        <ele>350.06799316406</ele>
        <time>2014-10-24T12:57:10Z</time>
      </trkpt>
      <trkpt lat="46.62453" lon="5.55078">
        <ele>351.67474365234</ele>
        <time>2014-10-24T12:57:16Z</time>
      </trkpt>
      <trkpt lat="46.62453" lon="5.55078">
        <ele>351.66101074219</ele>
        <time>2014-10-24T12:57:17Z</time>
      </trkpt>
      <trkpt lat="46.62449" lon="5.55082">
        <ele>352.19659423828</ele>
        <time>2014-10-24T12:57:21Z</time>
      </trkpt>
      <trkpt lat="46.62444" lon="5.55087">
        <ele>353.439453125</ele>
        <time>2014-10-24T12:57:27Z</time>
      </trkpt>
      <trkpt lat="46.6244" lon="5.55094">
        <ele>355.97842407227</ele>
        <time>2014-10-24T12:57:33Z</time>
      </trkpt>
      <trkpt lat="46.62439" lon="5.55095">
        <ele>356.33377075195</ele>
        <time>2014-10-24T12:57:34Z</time>
      </trkpt>
      <trkpt lat="46.62436" lon="5.55101">
        <ele>358.97970581055</ele>
        <time>2014-10-24T12:57:40Z</time>
      </trkpt>
      <trkpt lat="46.62435" lon="5.55103">
        <ele>359.66857910156</ele>
        <time>2014-10-24T12:57:41Z</time>
      </trkpt>
      <trkpt lat="46.62433" lon="5.55106">
        <ele>360.92395019531</ele>
        <time>2014-10-24T12:57:44Z</time>
      </trkpt>
      <trkpt lat="46.62432" lon="5.55109">
        <ele>361.98779296875</ele>
        <time>2014-10-24T12:57:46Z</time>
      </trkpt>
      <trkpt lat="46.62431" lon="5.5511">
        <ele>362.63912963867</ele>
        <time>2014-10-24T12:57:47Z</time>
      </trkpt>
      <trkpt lat="46.6243" lon="5.55112">
        <ele>363.25704956055</ele>
        <time>2014-10-24T12:57:50Z</time>
      </trkpt>
      <trkpt lat="46.62428" lon="5.55116">
        <ele>364.36624145508</ele>
        <time>2014-10-24T12:57:56Z</time>
      </trkpt>
      <trkpt lat="46.6243" lon="5.55119">
        <ele>365.21844482422</ele>
        <time>2014-10-24T12:58:02Z</time>
      </trkpt>
      <trkpt lat="46.62436" lon="5.55119">
        <ele>365.68490600586</ele>
        <time>2014-10-24T12:58:08Z</time>
      </trkpt>
      <trkpt lat="46.62442" lon="5.55118">
        <ele>365.9108581543</ele>
        <time>2014-10-24T12:58:15Z</time>
      </trkpt>
      <trkpt lat="46.62443" lon="5.55118">
        <ele>365.93103027344</ele>
        <time>2014-10-24T12:58:16Z</time>
      </trkpt>
      <trkpt lat="46.62446" lon="5.55116">
        <ele>365.61737060547</ele>
        <time>2014-10-24T12:58:21Z</time>
      </trkpt>
      <trkpt lat="46.62449" lon="5.55116">
        <ele>366.00189208984</ele>
        <time>2014-10-24T12:58:25Z</time>
      </trkpt>
      <trkpt lat="46.6245" lon="5.55116">
        <ele>366.05682373047</ele>
        <time>2014-10-24T12:58:26Z</time>
      </trkpt>
      <trkpt lat="46.62452" lon="5.55116">
        <ele>366.455078125</ele>
        <time>2014-10-24T12:58:31Z</time>
      </trkpt>
      <trkpt lat="46.62457" lon="5.55115">
        <ele>366.99066162109</ele>
        <time>2014-10-24T12:58:40Z</time>
      </trkpt>
      <trkpt lat="46.62459" lon="5.55115">
        <ele>367.19665527344</ele>
        <time>2014-10-24T12:58:42Z</time>
      </trkpt>
      <trkpt lat="46.62459" lon="5.55116">
        <ele>367.38891601562</ele>
        <time>2014-10-24T12:58:46Z</time>
      </trkpt>
      <trkpt lat="46.6246" lon="5.55117">
        <ele>367.91076660156</ele>
        <time>2014-10-24T12:58:52Z</time>
      </trkpt>
      <trkpt lat="46.62458" lon="5.55119">
        <ele>368.30902099609</ele>
        <time>2014-10-24T12:59:05Z</time>
      </trkpt>
      <trkpt lat="46.62457" lon="5.5512">
        <ele>368.26782226562</ele>
        <time>2014-10-24T12:59:06Z</time>
      </trkpt>
      <trkpt lat="46.62455" lon="5.5512">
        <ele>368.00689697266</ele>
        <time>2014-10-24T12:59:08Z</time>
      </trkpt>
      <trkpt lat="46.62449" lon="5.55122">
        <ele>367.63610839844</ele>
        <time>2014-10-24T12:59:11Z</time>
      </trkpt>
      <trkpt lat="46.62444" lon="5.55124">
        <ele>367.52328491211</ele>
        <time>2014-10-24T12:59:14Z</time>
      </trkpt>
      <trkpt lat="46.62442" lon="5.55125">
        <ele>367.77807617188</ele>
        <time>2014-10-24T12:59:15Z</time>
      </trkpt>
      <trkpt lat="46.62441" lon="5.55126">
        <ele>368.17538452148</ele>
        <time>2014-10-24T12:59:16Z</time>
      </trkpt>
      <trkpt lat="46.62438" lon="5.55134">
        <ele>370.30252075195</ele>
        <time>2014-10-24T12:59:20Z</time>
      </trkpt>
      <trkpt lat="46.62432" lon="5.55135">
        <ele>370.45040893555</ele>
        <time>2014-10-24T12:59:25Z</time>
      </trkpt>
      <trkpt lat="46.62436" lon="5.55129">
        <ele>368.8078918457</ele>
        <time>2014-10-24T12:59:29Z</time>
      </trkpt>
      <trkpt lat="46.6244" lon="5.55122">
        <ele>366.92529296875</ele>
        <time>2014-10-24T12:59:33Z</time>
      </trkpt>
      <trkpt lat="46.62441" lon="5.5512">
        <ele>366.41116333008</ele>
        <time>2014-10-24T12:59:34Z</time>
      </trkpt>
      <trkpt lat="46.62444" lon="5.55116">
        <ele>365.46878051758</ele>
        <time>2014-10-24T12:59:37Z</time>
      </trkpt>
      <trkpt lat="46.62446" lon="5.55111">
        <ele>364.21661376953</ele>
        <time>2014-10-24T12:59:40Z</time>
      </trkpt>
      <trkpt lat="46.62447" lon="5.55109">
        <ele>363.57962036133</ele>
        <time>2014-10-24T12:59:42Z</time>
      </trkpt>
      <trkpt lat="46.62446" lon="5.55106">
        <ele>362.16513061523</ele>
        <time>2014-10-24T12:59:46Z</time>
      </trkpt>
      <trkpt lat="46.62436" lon="5.55105">
        <ele>360.5661315918</ele>
        <time>2014-10-24T12:59:53Z</time>
      </trkpt>
      <trkpt lat="46.62423" lon="5.55098">
        <ele>356.20767211914</ele>
        <time>2014-10-24T12:59:59Z</time>
      </trkpt>
      <trkpt lat="46.62416" lon="5.55095">
        <ele>353.97866821289</ele>
        <time>2014-10-24T13:00:03Z</time>
      </trkpt>
      <trkpt lat="46.62414" lon="5.55095">
        <ele>353.8825378418</ele>
        <time>2014-10-24T13:00:04Z</time>
      </trkpt>
      <trkpt lat="46.62408" lon="5.55094">
        <ele>353.18560791016</ele>
        <time>2014-10-24T13:00:09Z</time>
      </trkpt>
      <trkpt lat="46.62405" lon="5.55092">
        <ele>352.53671264648</ele>
        <time>2014-10-24T13:00:11Z</time>
      </trkpt>
      <trkpt lat="46.62401" lon="5.55091">
        <ele>351.83978271484</ele>
        <time>2014-10-24T13:00:14Z</time>
      </trkpt>
      <trkpt lat="46.62397" lon="5.5509">
        <ele>351.14282226562</ele>
        <time>2014-10-24T13:00:17Z</time>
      </trkpt>
      <trkpt lat="46.62392" lon="5.55089">
        <ele>350.75830078125</ele>
        <time>2014-10-24T13:00:22Z</time>
      </trkpt>
      <trkpt lat="46.62392" lon="5.55089">
        <ele>350.90249633789</ele>
        <time>2014-10-24T13:00:23Z</time>
      </trkpt>
      <trkpt lat="46.62392" lon="5.5509">
        <ele>351.16687011719</ele>
        <time>2014-10-24T13:00:27Z</time>
      </trkpt>
      <trkpt lat="46.6239" lon="5.55087">
        <ele>349.72491455078</ele>
        <time>2014-10-24T13:00:34Z</time>
      </trkpt>
      <trkpt lat="46.62386" lon="5.55086">
        <ele>348.77407836914</ele>
        <time>2014-10-24T13:00:38Z</time>
      </trkpt>
      <trkpt lat="46.62383" lon="5.55085">
        <ele>348.21658325195</ele>
        <time>2014-10-24T13:00:40Z</time>
      </trkpt>
      <trkpt lat="46.62377" lon="5.5508">
        <ele>346.02624511719</ele>
        <time>2014-10-24T13:00:44Z</time>
      </trkpt>
      <trkpt lat="46.62372" lon="5.55078">
        <ele>344.95111083984</ele>
        <time>2014-10-24T13:00:47Z</time>
      </trkpt>
      <trkpt lat="46.62371" lon="5.55077">
        <ele>344.74807739258</ele>
        <time>2014-10-24T13:00:48Z</time>
      </trkpt>
      <trkpt lat="46.62365" lon="5.55072">
        <ele>343.2815246582</ele>
        <time>2014-10-24T13:00:52Z</time>
      </trkpt>
      <trkpt lat="46.62362" lon="5.5507">
        <ele>342.61325073242</ele>
        <time>2014-10-24T13:00:54Z</time>
      </trkpt>
      <trkpt lat="46.62354" lon="5.55065">
        <ele>341.72790527344</ele>
        <time>2014-10-24T13:01:00Z</time>
      </trkpt>
      <trkpt lat="46.62348" lon="5.55061">
        <ele>341.05841064453</ele>
        <time>2014-10-24T13:01:07Z</time>
      </trkpt>
      <trkpt lat="46.62344" lon="5.55058">
        <ele>340.48336791992</ele>
        <time>2014-10-24T13:01:12Z</time>
      </trkpt>
      <trkpt lat="46.62343" lon="5.55057">
        <ele>340.23443603516</ele>
        <time>2014-10-24T13:01:13Z</time>
      </trkpt>
      <trkpt lat="46.62339" lon="5.55054">
        <ele>340</ele>
        <time>2014-10-24T13:01:17Z</time>
      </trkpt>
      <trkpt lat="46.62337" lon="5.55053">
        <ele>340</ele>
        <time>2014-10-24T13:01:18Z</time>
      </trkpt>
      <trkpt lat="46.62333" lon="5.55052">
        <ele>340</ele>
        <time>2014-10-24T13:01:23Z</time>
      </trkpt>
      <trkpt lat="46.62325" lon="5.55051">
        <ele>340</ele>
        <time>2014-10-24T13:01:32Z</time>
      </trkpt>
      <trkpt lat="46.62315" lon="5.55051">
        <ele>340</ele>
        <time>2014-10-24T13:01:39Z</time>
      </trkpt>
      <trkpt lat="46.62306" lon="5.55054">
        <ele>340</ele>
        <time>2014-10-24T13:01:44Z</time>
      </trkpt>
      <trkpt lat="46.62299" lon="5.55057">
        <ele>340</ele>
        <time>2014-10-24T13:01:48Z</time>
      </trkpt>
      <trkpt lat="46.62293" lon="5.55063">
        <ele>340</ele>
        <time>2014-10-24T13:01:53Z</time>
      </trkpt>
      <trkpt lat="46.62292" lon="5.55064">
        <ele>340</ele>
        <time>2014-10-24T13:01:54Z</time>
      </trkpt>
      <trkpt lat="46.62285" lon="5.55067">
        <ele>340</ele>
        <time>2014-10-24T13:01:58Z</time>
      </trkpt>
      <trkpt lat="46.62275" lon="5.55074">
        <ele>340</ele>
        <time>2014-10-24T13:02:03Z</time>
      </trkpt>
      <trkpt lat="46.62267" lon="5.55079">
        <ele>340</ele>
        <time>2014-10-24T13:02:07Z</time>
      </trkpt>
      <trkpt lat="46.62256" lon="5.55082">
        <ele>340</ele>
        <time>2014-10-24T13:02:12Z</time>
      </trkpt>
      <trkpt lat="46.62249" lon="5.55085">
        <ele>341.50283813477</ele>
        <time>2014-10-24T13:02:16Z</time>
      </trkpt>
      <trkpt lat="46.62245" lon="5.55087">
        <ele>342.42980957031</ele>
        <time>2014-10-24T13:02:18Z</time>
      </trkpt>
      <trkpt lat="46.62239" lon="5.5509">
        <ele>345.00473022461</ele>
        <time>2014-10-24T13:02:21Z</time>
      </trkpt>
      <trkpt lat="46.62235" lon="5.55092">
        <ele>346.58401489258</ele>
        <time>2014-10-24T13:02:23Z</time>
      </trkpt>
      <trkpt lat="46.62227" lon="5.55093">
        <ele>347.06466674805</ele>
        <time>2014-10-24T13:02:27Z</time>
      </trkpt>
      <trkpt lat="46.62221" lon="5.55094">
        <ele>348.10119628906</ele>
        <time>2014-10-24T13:02:30Z</time>
      </trkpt>
      <trkpt lat="46.62209" lon="5.55099">
        <ele>355.12301635742</ele>
        <time>2014-10-24T13:02:36Z</time>
      </trkpt>
      <trkpt lat="46.62199" lon="5.55103">
        <ele>359.96395874023</ele>
        <time>2014-10-24T13:02:41Z</time>
      </trkpt>
      <trkpt lat="46.62191" lon="5.55105">
        <ele>362.27941894531</ele>
        <time>2014-10-24T13:02:45Z</time>
      </trkpt>
      <trkpt lat="46.62181" lon="5.55105">
        <ele>362.87390136719</ele>
        <time>2014-10-24T13:02:50Z</time>
      </trkpt>
      <trkpt lat="46.62177" lon="5.55106">
        <ele>363.10562133789</ele>
        <time>2014-10-24T13:02:54Z</time>
      </trkpt>
      <trkpt lat="46.62177" lon="5.55106">
        <ele>363.08645629883</ele>
        <time>2014-10-24T13:02:55Z</time>
      </trkpt>
      <trkpt lat="46.62174" lon="5.55106">
        <ele>363.30197143555</ele>
        <time>2014-10-24T13:02:57Z</time>
      </trkpt>
      <trkpt lat="46.62169" lon="5.55106">
        <ele>363.35415649414</ele>
        <time>2014-10-24T13:03:01Z</time>
      </trkpt>
      <trkpt lat="46.62161" lon="5.55106">
        <ele>363.21142578125</ele>
        <time>2014-10-24T13:03:07Z</time>
      </trkpt>
      <trkpt lat="46.62156" lon="5.55108">
        <ele>364.09204101562</ele>
        <time>2014-10-24T13:03:12Z</time>
      </trkpt>
      <trkpt lat="46.62154" lon="5.55108">
        <ele>364.15383911133</ele>
        <time>2014-10-24T13:03:14Z</time>
      </trkpt>
      <trkpt lat="46.62146" lon="5.55108">
        <ele>364.15383911133</ele>
        <time>2014-10-24T13:03:19Z</time>
      </trkpt>
      <trkpt lat="46.62141" lon="5.55112">
        <ele>365.22711181641</ele>
        <time>2014-10-24T13:03:23Z</time>
      </trkpt>
      <trkpt lat="46.6214" lon="5.55111">
        <ele>364.84906005859</ele>
        <time>2014-10-24T13:03:25Z</time>
      </trkpt>
      <trkpt lat="46.62132" lon="5.55113">
        <ele>365.77642822266</ele>
        <time>2014-10-24T13:03:32Z</time>
      </trkpt>
      <trkpt lat="46.62131" lon="5.55114">
        <ele>366.18841552734</ele>
        <time>2014-10-24T13:03:33Z</time>
      </trkpt>
      <trkpt lat="46.62124" lon="5.55114">
        <ele>366.18841552734</ele>
        <time>2014-10-24T13:03:38Z</time>
      </trkpt>
      <trkpt lat="46.62122" lon="5.55115">
        <ele>366.32574462891</ele>
        <time>2014-10-24T13:03:40Z</time>
      </trkpt>
      <trkpt lat="46.62117" lon="5.55115">
        <ele>366.22277832031</ele>
        <time>2014-10-24T13:03:43Z</time>
      </trkpt>
      <trkpt lat="46.62116" lon="5.55114">
        <ele>366.17126464844</ele>
        <time>2014-10-24T13:03:44Z</time>
      </trkpt>
      <trkpt lat="46.62113" lon="5.55115">
        <ele>366.25708007812</ele>
        <time>2014-10-24T13:03:46Z</time>
      </trkpt>
      <trkpt lat="46.62104" lon="5.55117">
        <ele>366.94372558594</ele>
        <time>2014-10-24T13:03:50Z</time>
      </trkpt>
      <trkpt lat="46.62098" lon="5.55117">
        <ele>367.0295715332</ele>
        <time>2014-10-24T13:03:53Z</time>
      </trkpt>
      <trkpt lat="46.62093" lon="5.55118">
        <ele>367.56170654297</ele>
        <time>2014-10-24T13:03:55Z</time>
      </trkpt>
      <trkpt lat="46.62082" lon="5.55125">
        <ele>370.0954284668</ele>
        <time>2014-10-24T13:04:01Z</time>
      </trkpt>
      <trkpt lat="46.62071" lon="5.55128">
        <ele>371.94515991211</ele>
        <time>2014-10-24T13:04:06Z</time>
      </trkpt>
      <trkpt lat="46.62069" lon="5.55128">
        <ele>371.98361206055</ele>
        <time>2014-10-24T13:04:08Z</time>
      </trkpt>
      <trkpt lat="46.62066" lon="5.55127">
        <ele>371.88146972656</ele>
        <time>2014-10-24T13:04:10Z</time>
      </trkpt>
      <trkpt lat="46.62056" lon="5.55125">
        <ele>372.01135253906</ele>
        <time>2014-10-24T13:04:15Z</time>
      </trkpt>
      <trkpt lat="46.6205" lon="5.55124">
        <ele>371.84838867188</ele>
        <time>2014-10-24T13:04:19Z</time>
      </trkpt>
      <trkpt lat="46.62049" lon="5.55124">
        <ele>371.62866210938</ele>
        <time>2014-10-24T13:04:20Z</time>
      </trkpt>
      <trkpt lat="46.62043" lon="5.55123">
        <ele>371.34027099609</ele>
        <time>2014-10-24T13:04:25Z</time>
      </trkpt>
      <trkpt lat="46.62042" lon="5.55122">
        <ele>371.23040771484</ele>
        <time>2014-10-24T13:04:26Z</time>
      </trkpt>
      <trkpt lat="46.62037" lon="5.5512">
        <ele>370.53002929688</ele>
        <time>2014-10-24T13:04:29Z</time>
      </trkpt>
      <trkpt lat="46.62033" lon="5.55117">
        <ele>369.69232177734</ele>
        <time>2014-10-24T13:04:32Z</time>
      </trkpt>
      <trkpt lat="46.62023" lon="5.55107">
        <ele>366.74822998047</ele>
        <time>2014-10-24T13:04:38Z</time>
      </trkpt>
      <trkpt lat="46.62019" lon="5.55101">
        <ele>364.70217895508</ele>
        <time>2014-10-24T13:04:40Z</time>
      </trkpt>
      <trkpt lat="46.62013" lon="5.55092">
        <ele>361.75259399414</ele>
        <time>2014-10-24T13:04:44Z</time>
      </trkpt>
      <trkpt lat="46.62005" lon="5.55082">
        <ele>358.77365112305</ele>
        <time>2014-10-24T13:04:51Z</time>
      </trkpt>
      <trkpt lat="46.61995" lon="5.55069">
        <ele>358.65841674805</ele>
        <time>2014-10-24T13:04:57Z</time>
      </trkpt>
      <trkpt lat="46.61991" lon="5.5506">
        <ele>358.4970703125</ele>
        <time>2014-10-24T13:05:01Z</time>
      </trkpt>
      <trkpt lat="46.6199" lon="5.55058">
        <ele>358.4524230957</ele>
        <time>2014-10-24T13:05:02Z</time>
      </trkpt>
      <trkpt lat="46.61983" lon="5.55049">
        <ele>358.47592163086</ele>
        <time>2014-10-24T13:05:07Z</time>
      </trkpt>
      <trkpt lat="46.61977" lon="5.5504">
        <ele>358.36074829102</ele>
        <time>2014-10-24T13:05:11Z</time>
      </trkpt>
      <trkpt lat="46.61976" lon="5.55037">
        <ele>358.28756713867</ele>
        <time>2014-10-24T13:05:12Z</time>
      </trkpt>
      <trkpt lat="46.61971" lon="5.55027">
        <ele>358</ele>
        <time>2014-10-24T13:05:17Z</time>
      </trkpt>
      <trkpt lat="46.6197" lon="5.55025">
        <ele>358</ele>
        <time>2014-10-24T13:05:18Z</time>
      </trkpt>
      <trkpt lat="46.61965" lon="5.55018">
        <ele>358</ele>
        <time>2014-10-24T13:05:22Z</time>
      </trkpt>
      <trkpt lat="46.61962" lon="5.5501">
        <ele>358</ele>
        <time>2014-10-24T13:05:26Z</time>
      </trkpt>
      <trkpt lat="46.61955" lon="5.54996">
        <ele>358.12634277344</ele>
        <time>2014-10-24T13:05:31Z</time>
      </trkpt>
      <trkpt lat="46.61953" lon="5.54993">
        <ele>358.263671875</ele>
        <time>2014-10-24T13:05:33Z</time>
      </trkpt>
      <trkpt lat="46.61952" lon="5.5499">
        <ele>358.36666870117</ele>
        <time>2014-10-24T13:05:34Z</time>
      </trkpt>
      <trkpt lat="46.6195" lon="5.54986">
        <ele>358.4885559082</ele>
        <time>2014-10-24T13:05:36Z</time>
      </trkpt>
      <trkpt lat="46.61947" lon="5.54983">
        <ele>358.62930297852</ele>
        <time>2014-10-24T13:05:38Z</time>
      </trkpt>
      <trkpt lat="46.61941" lon="5.54974">
        <ele>358.9289855957</ele>
        <time>2014-10-24T13:05:43Z</time>
      </trkpt>
      <trkpt lat="46.61937" lon="5.54964">
        <ele>359</ele>
        <time>2014-10-24T13:05:49Z</time>
      </trkpt>
      <trkpt lat="46.6193" lon="5.54959">
        <ele>359</ele>
        <time>2014-10-24T13:05:56Z</time>
      </trkpt>
      <trkpt lat="46.61929" lon="5.54959">
        <ele>359</ele>
        <time>2014-10-24T13:05:58Z</time>
      </trkpt>
      <trkpt lat="46.61926" lon="5.54957">
        <ele>359</ele>
        <time>2014-10-24T13:06:02Z</time>
      </trkpt>
      <trkpt lat="46.61922" lon="5.54957">
        <ele>359</ele>
        <time>2014-10-24T13:06:05Z</time>
      </trkpt>
      <trkpt lat="46.61919" lon="5.54956">
        <ele>359</ele>
        <time>2014-10-24T13:06:08Z</time>
      </trkpt>
      <trkpt lat="46.61916" lon="5.54953">
        <ele>359</ele>
        <time>2014-10-24T13:06:10Z</time>
      </trkpt>
      <trkpt lat="46.6191" lon="5.54943">
        <ele>359.05410766602</ele>
        <time>2014-10-24T13:06:15Z</time>
      </trkpt>
      <trkpt lat="46.61907" lon="5.5494">
        <ele>359.15194702148</ele>
        <time>2014-10-24T13:06:18Z</time>
      </trkpt>
      <trkpt lat="46.61904" lon="5.54935">
        <ele>359.34591674805</ele>
        <time>2014-10-24T13:06:21Z</time>
      </trkpt>
      <trkpt lat="46.61902" lon="5.54933">
        <ele>359.42831420898</ele>
        <time>2014-10-24T13:06:23Z</time>
      </trkpt>
      <trkpt lat="46.619" lon="5.54931">
        <ele>359.47467041016</ele>
        <time>2014-10-24T13:06:25Z</time>
      </trkpt>
      <trkpt lat="46.61891" lon="5.54914">
        <ele>360</ele>
        <time>2014-10-24T13:06:31Z</time>
      </trkpt>
      <trkpt lat="46.61887" lon="5.54904">
        <ele>360</ele>
        <time>2014-10-24T13:06:33Z</time>
      </trkpt>
      <trkpt lat="46.61884" lon="5.54901">
        <ele>360</ele>
        <time>2014-10-24T13:06:35Z</time>
      </trkpt>
      <trkpt lat="46.61874" lon="5.54879">
        <ele>360</ele>
        <time>2014-10-24T13:06:40Z</time>
      </trkpt>
      <trkpt lat="46.61863" lon="5.54868">
        <ele>360</ele>
        <time>2014-10-24T13:06:45Z</time>
      </trkpt>
      <trkpt lat="46.61852" lon="5.54846">
        <ele>367.92681884766</ele>
        <time>2014-10-24T13:06:49Z</time>
      </trkpt>
      <trkpt lat="46.61849" lon="5.54842">
        <ele>369.60903930664</ele>
        <time>2014-10-24T13:06:50Z</time>
      </trkpt>
      <trkpt lat="46.6184" lon="5.54842">
        <ele>372.03652954102</ele>
        <time>2014-10-24T13:06:55Z</time>
      </trkpt>
      <trkpt lat="46.61832" lon="5.54837">
        <ele>375.03753662109</ele>
        <time>2014-10-24T13:07:01Z</time>
      </trkpt>
      <trkpt lat="46.61829" lon="5.54836">
        <ele>375.67108154297</ele>
        <time>2014-10-24T13:07:05Z</time>
      </trkpt>
      <trkpt lat="46.61828" lon="5.54835">
        <ele>375.90396118164</ele>
        <time>2014-10-24T13:07:06Z</time>
      </trkpt>
      <trkpt lat="46.61824" lon="5.54836">
        <ele>375.96371459961</ele>
        <time>2014-10-24T13:07:11Z</time>
      </trkpt>
      <trkpt lat="46.61824" lon="5.54842">
        <ele>374.68377685547</ele>
        <time>2014-10-24T13:07:12Z</time>
      </trkpt>
      <trkpt lat="46.61818" lon="5.54832">
        <ele>377.44488525391</ele>
        <time>2014-10-24T13:07:15Z</time>
      </trkpt>
      <trkpt lat="46.61817" lon="5.54836">
        <ele>376.74139404297</ele>
        <time>2014-10-24T13:07:17Z</time>
      </trkpt>
      <trkpt lat="46.61814" lon="5.54836">
        <ele>376.82971191406</ele>
        <time>2014-10-24T13:07:19Z</time>
      </trkpt>
      <trkpt lat="46.61811" lon="5.54841">
        <ele>376.24261474609</ele>
        <time>2014-10-24T13:07:24Z</time>
      </trkpt>
      <trkpt lat="46.61808" lon="5.54846">
        <ele>375.72439575195</ele>
        <time>2014-10-24T13:07:28Z</time>
      </trkpt>
      <trkpt lat="46.61807" lon="5.54847">
        <ele>375.74578857422</ele>
        <time>2014-10-24T13:07:29Z</time>
      </trkpt>
      <trkpt lat="46.61806" lon="5.54855">
        <ele>374.76953125</ele>
        <time>2014-10-24T13:07:33Z</time>
      </trkpt>
      <trkpt lat="46.61802" lon="5.54861">
        <ele>374.63006591797</ele>
        <time>2014-10-24T13:07:39Z</time>
      </trkpt>
      <trkpt lat="46.61801" lon="5.54876">
        <ele>371.77001953125</ele>
        <time>2014-10-24T13:07:43Z</time>
      </trkpt>
      <trkpt lat="46.61801" lon="5.54887">
        <ele>369.57809448242</ele>
        <time>2014-10-24T13:07:47Z</time>
      </trkpt>
      <trkpt lat="46.618" lon="5.54889">
        <ele>369.39807128906</ele>
        <time>2014-10-24T13:07:49Z</time>
      </trkpt>
      <trkpt lat="46.61795" lon="5.54885">
        <ele>371.36962890625</ele>
        <time>2014-10-24T13:07:53Z</time>
      </trkpt>
      <trkpt lat="46.61792" lon="5.54886">
        <ele>371.92630004883</ele>
        <time>2014-10-24T13:07:57Z</time>
      </trkpt>
      <trkpt lat="46.61789" lon="5.54888">
        <ele>372.26898193359</ele>
        <time>2014-10-24T13:08:00Z</time>
      </trkpt>
      <trkpt lat="46.61786" lon="5.54889">
        <ele>372.9098815918</ele>
        <time>2014-10-24T13:08:03Z</time>
      </trkpt>
      <trkpt lat="46.61781" lon="5.54891">
        <ele>374.05816650391</ele>
        <time>2014-10-24T13:08:09Z</time>
      </trkpt>
      <trkpt lat="46.61779" lon="5.54895">
        <ele>374.36486816406</ele>
        <time>2014-10-24T13:08:14Z</time>
      </trkpt>
      <trkpt lat="46.61776" lon="5.54895">
        <ele>374.89276123047</ele>
        <time>2014-10-24T13:08:17Z</time>
      </trkpt>
      <trkpt lat="46.61774" lon="5.54895">
        <ele>375.18426513672</ele>
        <time>2014-10-24T13:08:18Z</time>
      </trkpt>
      <trkpt lat="46.61769" lon="5.54897">
        <ele>375.85809326172</ele>
        <time>2014-10-24T13:08:22Z</time>
      </trkpt>
      <trkpt lat="46.61766" lon="5.54898">
        <ele>376.3762512207</ele>
        <time>2014-10-24T13:08:27Z</time>
      </trkpt>
      <trkpt lat="46.61763" lon="5.54897">
        <ele>376.77764892578</ele>
        <time>2014-10-24T13:08:29Z</time>
      </trkpt>
      <trkpt lat="46.61761" lon="5.54898">
        <ele>377.08306884766</ele>
        <time>2014-10-24T13:08:31Z</time>
      </trkpt>
      <trkpt lat="46.61757" lon="5.54897">
        <ele>377.85717773438</ele>
        <time>2014-10-24T13:08:35Z</time>
      </trkpt>
      <trkpt lat="46.61753" lon="5.54899">
        <ele>378.53945922852</ele>
        <time>2014-10-24T13:08:40Z</time>
      </trkpt>
      <trkpt lat="46.61749" lon="5.549">
        <ele>379</ele>
        <time>2014-10-24T13:08:43Z</time>
      </trkpt>
      <trkpt lat="46.61745" lon="5.549">
        <ele>379</ele>
        <time>2014-10-24T13:08:45Z</time>
      </trkpt>
      <trkpt lat="46.61741" lon="5.54901">
        <ele>379</ele>
        <time>2014-10-24T13:08:48Z</time>
      </trkpt>
      <trkpt lat="46.61734" lon="5.54899">
        <ele>379</ele>
        <time>2014-10-24T13:08:53Z</time>
      </trkpt>
      <trkpt lat="46.6173" lon="5.54896">
        <ele>379</ele>
        <time>2014-10-24T13:08:56Z</time>
      </trkpt>
      <trkpt lat="46.61728" lon="5.54895">
        <ele>379</ele>
        <time>2014-10-24T13:08:58Z</time>
      </trkpt>
      <trkpt lat="46.61728" lon="5.54897">
        <ele>379</ele>
        <time>2014-10-24T13:08:59Z</time>
      </trkpt>
      <trkpt lat="46.61727" lon="5.54899">
        <ele>379</ele>
        <time>2014-10-24T13:09:02Z</time>
      </trkpt>
      <trkpt lat="46.61726" lon="5.54901">
        <ele>379</ele>
        <time>2014-10-24T13:09:03Z</time>
      </trkpt>
      <trkpt lat="46.61724" lon="5.54901">
        <ele>379</ele>
        <time>2014-10-24T13:09:06Z</time>
      </trkpt>
      <trkpt lat="46.61723" lon="5.54899">
        <ele>379</ele>
        <time>2014-10-24T13:09:07Z</time>
      </trkpt>
      <trkpt lat="46.61719" lon="5.54898">
        <ele>379.0348815918</ele>
        <time>2014-10-24T13:09:10Z</time>
      </trkpt>
      <trkpt lat="46.61716" lon="5.54895">
        <ele>379.0534362793</ele>
        <time>2014-10-24T13:09:14Z</time>
      </trkpt>
      <trkpt lat="46.61713" lon="5.549">
        <ele>379.13525390625</ele>
        <time>2014-10-24T13:09:19Z</time>
      </trkpt>
      <trkpt lat="46.61712" lon="5.54901">
        <ele>379.15753173828</ele>
        <time>2014-10-24T13:09:20Z</time>
      </trkpt>
      <trkpt lat="46.61707" lon="5.54894">
        <ele>379.09979248047</ele>
        <time>2014-10-24T13:09:24Z</time>
      </trkpt>
      <trkpt lat="46.61703" lon="5.54892">
        <ele>379.07861328125</ele>
        <time>2014-10-24T13:09:26Z</time>
      </trkpt>
      <trkpt lat="46.61691" lon="5.54881">
        <ele>379.27883911133</ele>
        <time>2014-10-24T13:09:33Z</time>
      </trkpt>
      <trkpt lat="46.61683" lon="5.54871">
        <ele>379.63760375977</ele>
        <time>2014-10-24T13:09:37Z</time>
      </trkpt>
      <trkpt lat="46.61676" lon="5.54867">
        <ele>379.79553222656</ele>
        <time>2014-10-24T13:09:41Z</time>
      </trkpt>
      <trkpt lat="46.61666" lon="5.5487">
        <ele>379.66677856445</ele>
        <time>2014-10-24T13:09:46Z</time>
      </trkpt>
      <trkpt lat="46.61664" lon="5.54872">
        <ele>379.59985351562</ele>
        <time>2014-10-24T13:09:47Z</time>
      </trkpt>
      <trkpt lat="46.6166" lon="5.54879">
        <ele>379.34576416016</ele>
        <time>2014-10-24T13:09:51Z</time>
      </trkpt>
      <trkpt lat="46.61658" lon="5.5488">
        <ele>379.33032226562</ele>
        <time>2014-10-24T13:09:52Z</time>
      </trkpt>
      <trkpt lat="46.6165" lon="5.5488">
        <ele>379.33377075195</ele>
        <time>2014-10-24T13:09:56Z</time>
      </trkpt>
      <trkpt lat="46.61645" lon="5.54881">
        <ele>379.30114746094</ele>
        <time>2014-10-24T13:10:00Z</time>
      </trkpt>
      <trkpt lat="46.61644" lon="5.5488">
        <ele>379.30630493164</ele>
        <time>2014-10-24T13:10:01Z</time>
      </trkpt>
      <trkpt lat="46.61641" lon="5.54881">
        <ele>379.29428100586</ele>
        <time>2014-10-24T13:10:04Z</time>
      </trkpt>
      <trkpt lat="46.6164" lon="5.5488">
        <ele>379.31146240234</ele>
        <time>2014-10-24T13:10:05Z</time>
      </trkpt>
      <trkpt lat="46.61635" lon="5.5488">
        <ele>379.31829833984</ele>
        <time>2014-10-24T13:10:08Z</time>
      </trkpt>
      <trkpt lat="46.61629" lon="5.54884">
        <ele>379.18786621094</ele>
        <time>2014-10-24T13:10:13Z</time>
      </trkpt>
      <trkpt lat="46.61626" lon="5.54884">
        <ele>379.17755126953</ele>
        <time>2014-10-24T13:10:16Z</time>
      </trkpt>
      <trkpt lat="46.61623" lon="5.54885">
        <ele>379.13635253906</ele>
        <time>2014-10-24T13:10:19Z</time>
      </trkpt>
      <trkpt lat="46.61617" lon="5.5489">
        <ele>379.35711669922</ele>
        <time>2014-10-24T13:10:24Z</time>
      </trkpt>
      <trkpt lat="46.61612" lon="5.54891">
        <ele>379.52130126953</ele>
        <time>2014-10-24T13:10:26Z</time>
      </trkpt>
      <trkpt lat="46.61611" lon="5.54893">
        <ele>380.02822875977</ele>
        <time>2014-10-24T13:10:27Z</time>
      </trkpt>
      <trkpt lat="46.61609" lon="5.54898">
        <ele>381.25387573242</ele>
        <time>2014-10-24T13:10:29Z</time>
      </trkpt>
      <trkpt lat="46.616" lon="5.54909">
        <ele>383.95755004883</ele>
        <time>2014-10-24T13:10:34Z</time>
      </trkpt>
      <trkpt lat="46.61597" lon="5.54914">
        <ele>385.29135131836</ele>
        <time>2014-10-24T13:10:36Z</time>
      </trkpt>
      <trkpt lat="46.61595" lon="5.54918">
        <ele>386.60070800781</ele>
        <time>2014-10-24T13:10:38Z</time>
      </trkpt>
      <trkpt lat="46.61593" lon="5.5492">
        <ele>388.16073608398</ele>
        <time>2014-10-24T13:10:39Z</time>
      </trkpt>
      <trkpt lat="46.61585" lon="5.54926">
        <ele>392.35110473633</ele>
        <time>2014-10-24T13:10:43Z</time>
      </trkpt>
      <trkpt lat="46.61579" lon="5.54931">
        <ele>395.21774291992</ele>
        <time>2014-10-24T13:10:46Z</time>
      </trkpt>
      <trkpt lat="46.61577" lon="5.54933">
        <ele>396.31103515625</ele>
        <time>2014-10-24T13:10:47Z</time>
      </trkpt>
      <trkpt lat="46.61573" lon="5.54938">
        <ele>399.04449462891</ele>
        <time>2014-10-24T13:10:50Z</time>
      </trkpt>
      <trkpt lat="46.61569" lon="5.54941">
        <ele>400.31732177734</ele>
        <time>2014-10-24T13:10:52Z</time>
      </trkpt>
      <trkpt lat="46.61561" lon="5.54952">
        <ele>404.04971313477</ele>
        <time>2014-10-24T13:10:57Z</time>
      </trkpt>
      <trkpt lat="46.61556" lon="5.54958">
        <ele>405.48892211914</ele>
        <time>2014-10-24T13:11:01Z</time>
      </trkpt>
      <trkpt lat="46.6155" lon="5.54964">
        <ele>407.41879272461</ele>
        <time>2014-10-24T13:11:06Z</time>
      </trkpt>
      <trkpt lat="46.61548" lon="5.54972">
        <ele>410.60632324219</ele>
        <time>2014-10-24T13:11:11Z</time>
      </trkpt>
      <trkpt lat="46.61546" lon="5.54975">
        <ele>412.04013061523</ele>
        <time>2014-10-24T13:11:13Z</time>
      </trkpt>
      <trkpt lat="46.61543" lon="5.54981">
        <ele>415.56887817383</ele>
        <time>2014-10-24T13:11:17Z</time>
      </trkpt>
      <trkpt lat="46.61542" lon="5.54984">
        <ele>417.53344726562</ele>
        <time>2014-10-24T13:11:19Z</time>
      </trkpt>
      <trkpt lat="46.61535" lon="5.54994">
        <ele>422.47607421875</ele>
        <time>2014-10-24T13:11:25Z</time>
      </trkpt>
      <trkpt lat="46.61529" lon="5.54999">
        <ele>424.78204345703</ele>
        <time>2014-10-24T13:11:31Z</time>
      </trkpt>
      <trkpt lat="46.61519" lon="5.55002">
        <ele>424.05944824219</ele>
        <time>2014-10-24T13:11:36Z</time>
      </trkpt>
      <trkpt lat="46.61517" lon="5.55003">
        <ele>423.93585205078</ele>
        <time>2014-10-24T13:11:37Z</time>
      </trkpt>
      <trkpt lat="46.61506" lon="5.55007">
        <ele>422.90588378906</ele>
        <time>2014-10-24T13:11:43Z</time>
      </trkpt>
      <trkpt lat="46.61497" lon="5.5501">
        <ele>422.89794921875</ele>
        <time>2014-10-24T13:11:49Z</time>
      </trkpt>
      <trkpt lat="46.61493" lon="5.55014">
        <ele>423.71484375</ele>
        <time>2014-10-24T13:11:53Z</time>
      </trkpt>
      <trkpt lat="46.6149" lon="5.55019">
        <ele>424.66754150391</ele>
        <time>2014-10-24T13:11:57Z</time>
      </trkpt>
      <trkpt lat="46.6149" lon="5.55021">
        <ele>425.31149291992</ele>
        <time>2014-10-24T13:12:02Z</time>
      </trkpt>
      <trkpt lat="46.61489" lon="5.55029">
        <ele>427.21090698242</ele>
        <time>2014-10-24T13:12:10Z</time>
      </trkpt>
      <trkpt lat="46.61486" lon="5.55034">
        <ele>428.8723449707</ele>
        <time>2014-10-24T13:12:16Z</time>
      </trkpt>
      <trkpt lat="46.61484" lon="5.55036">
        <ele>429.21670532227</ele>
        <time>2014-10-24T13:12:19Z</time>
      </trkpt>
      <trkpt lat="46.61483" lon="5.55037">
        <ele>429.31793212891</ele>
        <time>2014-10-24T13:12:21Z</time>
      </trkpt>
      <trkpt lat="46.61483" lon="5.55043">
        <ele>431.62292480469</ele>
        <time>2014-10-24T13:12:27Z</time>
      </trkpt>
      <trkpt lat="46.61486" lon="5.55049">
        <ele>434.3991394043</ele>
        <time>2014-10-24T13:12:34Z</time>
      </trkpt>
      <trkpt lat="46.61489" lon="5.55051">
        <ele>435.79333496094</ele>
        <time>2014-10-24T13:12:39Z</time>
      </trkpt>
      <trkpt lat="46.61491" lon="5.55053">
        <ele>436.81280517578</ele>
        <time>2014-10-24T13:12:41Z</time>
      </trkpt>
      <trkpt lat="46.61493" lon="5.55054">
        <ele>437.93676757812</ele>
        <time>2014-10-24T13:12:44Z</time>
      </trkpt>
      <trkpt lat="46.61499" lon="5.55056">
        <ele>439.91442871094</ele>
        <time>2014-10-24T13:12:50Z</time>
      </trkpt>
      <trkpt lat="46.615" lon="5.55057">
        <ele>440.24603271484</ele>
        <time>2014-10-24T13:12:51Z</time>
      </trkpt>
      <trkpt lat="46.61504" lon="5.55055">
        <ele>440.4075012207</ele>
        <time>2014-10-24T13:12:55Z</time>
      </trkpt>
      <trkpt lat="46.61504" lon="5.55055">
        <ele>440.52423095703</ele>
        <time>2014-10-24T13:12:56Z</time>
      </trkpt>
      <trkpt lat="46.61509" lon="5.55055">
        <ele>441.33447265625</ele>
        <time>2014-10-24T13:13:00Z</time>
      </trkpt>
      <trkpt lat="46.61514" lon="5.55054">
        <ele>441.65719604492</ele>
        <time>2014-10-24T13:13:04Z</time>
      </trkpt>
      <trkpt lat="46.61519" lon="5.55052">
        <ele>441.77392578125</ele>
        <time>2014-10-24T13:13:10Z</time>
      </trkpt>
      <trkpt lat="46.61523" lon="5.55051">
        <ele>442.03485107422</ele>
        <time>2014-10-24T13:13:15Z</time>
      </trkpt>
      <trkpt lat="46.61523" lon="5.5505">
        <ele>441.95932006836</ele>
        <time>2014-10-24T13:13:16Z</time>
      </trkpt>
      <trkpt lat="46.61527" lon="5.55047">
        <ele>441.41000366211</ele>
        <time>2014-10-24T13:13:20Z</time>
      </trkpt>
      <trkpt lat="46.6153" lon="5.55048">
        <ele>442.42498779297</ele>
        <time>2014-10-24T13:13:24Z</time>
      </trkpt>
      <trkpt lat="46.61529" lon="5.55049">
        <ele>442.53372192383</ele>
        <time>2014-10-24T13:13:25Z</time>
      </trkpt>
      <trkpt lat="46.61523" lon="5.55056">
        <ele>444.30715942383</ele>
        <time>2014-10-24T13:13:30Z</time>
      </trkpt>
      <trkpt lat="46.61522" lon="5.55058">
        <ele>444.56915283203</ele>
        <time>2014-10-24T13:13:31Z</time>
      </trkpt>
      <trkpt lat="46.61514" lon="5.55065">
        <ele>445.69082641602</ele>
        <time>2014-10-24T13:13:36Z</time>
      </trkpt>
      <trkpt lat="46.61512" lon="5.55066">
        <ele>445.43490600586</ele>
        <time>2014-10-24T13:13:37Z</time>
      </trkpt>
      <trkpt lat="46.61504" lon="5.55066">
        <ele>443.74346923828</ele>
        <time>2014-10-24T13:13:41Z</time>
      </trkpt>
      <trkpt lat="46.61501" lon="5.55069">
        <ele>444.02005004883</ele>
        <time>2014-10-24T13:13:43Z</time>
      </trkpt>
      <trkpt lat="46.61494" lon="5.55063">
        <ele>440.7248840332</ele>
        <time>2014-10-24T13:13:47Z</time>
      </trkpt>
      <trkpt lat="46.61485" lon="5.55052">
        <ele>435.55944824219</ele>
        <time>2014-10-24T13:13:53Z</time>
      </trkpt>
      <trkpt lat="46.61482" lon="5.55041">
        <ele>430.69180297852</ele>
        <time>2014-10-24T13:13:57Z</time>
      </trkpt>
      <trkpt lat="46.61483" lon="5.55037">
        <ele>429.5959777832</ele>
        <time>2014-10-24T13:13:58Z</time>
      </trkpt>
      <trkpt lat="46.61485" lon="5.55028">
        <ele>426.33581542969</ele>
        <time>2014-10-24T13:14:02Z</time>
      </trkpt>
      <trkpt lat="46.61483" lon="5.55018">
        <ele>423.98287963867</ele>
        <time>2014-10-24T13:14:07Z</time>
      </trkpt>
      <trkpt lat="46.61477" lon="5.55017">
        <ele>423.3896484375</ele>
        <time>2014-10-24T13:14:12Z</time>
      </trkpt>
      <trkpt lat="46.61474" lon="5.55017">
        <ele>423.16467285156</ele>
        <time>2014-10-24T13:14:14Z</time>
      </trkpt>
      <trkpt lat="46.61473" lon="5.55017">
        <ele>423.09939575195</ele>
        <time>2014-10-24T13:14:15Z</time>
      </trkpt>
      <trkpt lat="46.6147" lon="5.55017">
        <ele>423.03326416016</ele>
        <time>2014-10-24T13:14:18Z</time>
      </trkpt>
      <trkpt lat="46.61468" lon="5.55017">
        <ele>423.11050415039</ele>
        <time>2014-10-24T13:14:19Z</time>
      </trkpt>
      <trkpt lat="46.61466" lon="5.55019">
        <ele>423.42807006836</ele>
        <time>2014-10-24T13:14:22Z</time>
      </trkpt>
      <trkpt lat="46.61464" lon="5.55019">
        <ele>423.49673461914</ele>
        <time>2014-10-24T13:14:24Z</time>
      </trkpt>
      <trkpt lat="46.61459" lon="5.55021">
        <ele>423.74566650391</ele>
        <time>2014-10-24T13:14:29Z</time>
      </trkpt>
      <trkpt lat="46.61457" lon="5.55022">
        <ele>424.01171875</ele>
        <time>2014-10-24T13:14:32Z</time>
      </trkpt>
      <trkpt lat="46.61458" lon="5.55026">
        <ele>424.62112426758</ele>
        <time>2014-10-24T13:14:34Z</time>
      </trkpt>
      <trkpt lat="46.61458" lon="5.55028">
        <ele>425.19009399414</ele>
        <time>2014-10-24T13:14:36Z</time>
      </trkpt>
      <trkpt lat="46.61459" lon="5.55034">
        <ele>426.77194213867</ele>
        <time>2014-10-24T13:14:41Z</time>
      </trkpt>
      <trkpt lat="46.61459" lon="5.55038">
        <ele>427.91607666016</ele>
        <time>2014-10-24T13:14:44Z</time>
      </trkpt>
      <trkpt lat="46.61458" lon="5.5504">
        <ele>428.63311767578</ele>
        <time>2014-10-24T13:14:46Z</time>
      </trkpt>
      <trkpt lat="46.61459" lon="5.55045">
        <ele>429.91192626953</ele>
        <time>2014-10-24T13:14:49Z</time>
      </trkpt>
      <trkpt lat="46.61459" lon="5.55049">
        <ele>431.09564208984</ele>
        <time>2014-10-24T13:14:53Z</time>
      </trkpt>
      <trkpt lat="46.61459" lon="5.55051">
        <ele>431.65017700195</ele>
        <time>2014-10-24T13:14:54Z</time>
      </trkpt>
      <trkpt lat="46.6146" lon="5.55055">
        <ele>432.96514892578</ele>
        <time>2014-10-24T13:14:58Z</time>
      </trkpt>
      <trkpt lat="46.61462" lon="5.55057">
        <ele>433.62692260742</ele>
        <time>2014-10-24T13:15:01Z</time>
      </trkpt>
      <trkpt lat="46.61461" lon="5.55062">
        <ele>434.47235107422</ele>
        <time>2014-10-24T13:15:03Z</time>
      </trkpt>
      <trkpt lat="46.6146" lon="5.55066">
        <ele>435.28024291992</ele>
        <time>2014-10-24T13:15:06Z</time>
      </trkpt>
      <trkpt lat="46.61463" lon="5.55067">
        <ele>435.71374511719</ele>
        <time>2014-10-24T13:15:09Z</time>
      </trkpt>
      <trkpt lat="46.61463" lon="5.55068">
        <ele>435.82061767578</ele>
        <time>2014-10-24T13:15:10Z</time>
      </trkpt>
      <trkpt lat="46.61463" lon="5.5507">
        <ele>436.29244995117</ele>
        <time>2014-10-24T13:15:14Z</time>
      </trkpt>
      <trkpt lat="46.61464" lon="5.55073">
        <ele>436.95190429688</ele>
        <time>2014-10-24T13:15:19Z</time>
      </trkpt>
      <trkpt lat="46.61467" lon="5.55077">
        <ele>437.98712158203</ele>
        <time>2014-10-24T13:15:24Z</time>
      </trkpt>
      <trkpt lat="46.6147" lon="5.55079">
        <ele>438.73626708984</ele>
        <time>2014-10-24T13:15:28Z</time>
      </trkpt>
      <trkpt lat="46.6147" lon="5.5508">
        <ele>439.05859375</ele>
        <time>2014-10-24T13:15:29Z</time>
      </trkpt>
      <trkpt lat="46.61472" lon="5.55086">
        <ele>441.1360168457</ele>
        <time>2014-10-24T13:15:33Z</time>
      </trkpt>
      <trkpt lat="46.61472" lon="5.5509">
        <ele>442.62643432617</ele>
        <time>2014-10-24T13:15:36Z</time>
      </trkpt>
      <trkpt lat="46.61472" lon="5.55091">
        <ele>443.14953613281</ele>
        <time>2014-10-24T13:15:37Z</time>
      </trkpt>
      <trkpt lat="46.61471" lon="5.55095">
        <ele>445.02456665039</ele>
        <time>2014-10-24T13:15:41Z</time>
      </trkpt>
      <trkpt lat="46.61472" lon="5.55097">
        <ele>445.98452758789</ele>
        <time>2014-10-24T13:15:46Z</time>
      </trkpt>
      <trkpt lat="46.61474" lon="5.55101">
        <ele>448.00247192383</ele>
        <time>2014-10-24T13:15:51Z</time>
      </trkpt>
      <trkpt lat="46.61474" lon="5.55107">
        <ele>450.61859130859</ele>
        <time>2014-10-24T13:15:55Z</time>
      </trkpt>
      <trkpt lat="46.61475" lon="5.55107">
        <ele>451.12670898438</ele>
        <time>2014-10-24T13:15:56Z</time>
      </trkpt>
      <trkpt lat="46.61475" lon="5.5511">
        <ele>452.20474243164</ele>
        <time>2014-10-24T13:16:00Z</time>
      </trkpt>
      <trkpt lat="46.61476" lon="5.55113">
        <ele>453.39938354492</ele>
        <time>2014-10-24T13:16:04Z</time>
      </trkpt>
      <trkpt lat="46.61475" lon="5.55116">
        <ele>454.12591552734</ele>
        <time>2014-10-24T13:16:09Z</time>
      </trkpt>
      <trkpt lat="46.61476" lon="5.55121">
        <ele>455.90054321289</ele>
        <time>2014-10-24T13:16:14Z</time>
      </trkpt>
      <trkpt lat="46.61478" lon="5.55126">
        <ele>457.77789306641</ele>
        <time>2014-10-24T13:16:19Z</time>
      </trkpt>
      <trkpt lat="46.61481" lon="5.55132">
        <ele>459.90737915039</ele>
        <time>2014-10-24T13:16:25Z</time>
      </trkpt>
      <trkpt lat="46.61484" lon="5.55136">
        <ele>461.39376831055</ele>
        <time>2014-10-24T13:16:29Z</time>
      </trkpt>
      <trkpt lat="46.61485" lon="5.55136">
        <ele>461.69967651367</ele>
        <time>2014-10-24T13:16:30Z</time>
      </trkpt>
      <trkpt lat="46.61488" lon="5.5514">
        <ele>463.04400634766</ele>
        <time>2014-10-24T13:16:35Z</time>
      </trkpt>
      <trkpt lat="46.61489" lon="5.55143">
        <ele>464.03857421875</ele>
        <time>2014-10-24T13:16:39Z</time>
      </trkpt>
      <trkpt lat="46.61492" lon="5.55148">
        <ele>465.56213378906</ele>
        <time>2014-10-24T13:16:46Z</time>
      </trkpt>
      <trkpt lat="46.61494" lon="5.55156">
        <ele>467.97161865234</ele>
        <time>2014-10-24T13:16:53Z</time>
      </trkpt>
      <trkpt lat="46.61495" lon="5.55161">
        <ele>469.46908569336</ele>
        <time>2014-10-24T13:16:57Z</time>
      </trkpt>
      <trkpt lat="46.61497" lon="5.55164">
        <ele>470.64465332031</ele>
        <time>2014-10-24T13:17:00Z</time>
      </trkpt>
      <trkpt lat="46.61497" lon="5.55165">
        <ele>471.04330444336</ele>
        <time>2014-10-24T13:17:01Z</time>
      </trkpt>
      <trkpt lat="46.61501" lon="5.55171">
        <ele>472.94952392578</ele>
        <time>2014-10-24T13:17:06Z</time>
      </trkpt>
      <trkpt lat="46.61502" lon="5.55172">
        <ele>473.5041809082</ele>
        <time>2014-10-24T13:17:08Z</time>
      </trkpt>
      <trkpt lat="46.61502" lon="5.55173">
        <ele>473.61734008789</ele>
        <time>2014-10-24T13:17:09Z</time>
      </trkpt>
      <trkpt lat="46.61503" lon="5.55178">
        <ele>474.79507446289</ele>
        <time>2014-10-24T13:17:14Z</time>
      </trkpt>
      <trkpt lat="46.61504" lon="5.55181">
        <ele>475.38488769531</ele>
        <time>2014-10-24T13:17:16Z</time>
      </trkpt>
      <trkpt lat="46.61506" lon="5.55186">
        <ele>476.45193481445</ele>
        <time>2014-10-24T13:17:21Z</time>
      </trkpt>
      <trkpt lat="46.61509" lon="5.55193">
        <ele>477.79461669922</ele>
        <time>2014-10-24T13:17:28Z</time>
      </trkpt>
      <trkpt lat="46.61509" lon="5.55194">
        <ele>478.00930786133</ele>
        <time>2014-10-24T13:17:29Z</time>
      </trkpt>
      <trkpt lat="46.61511" lon="5.55196">
        <ele>478.26922607422</ele>
        <time>2014-10-24T13:17:32Z</time>
      </trkpt>
      <trkpt lat="46.61514" lon="5.55199">
        <ele>478.82400512695</ele>
        <time>2014-10-24T13:17:37Z</time>
      </trkpt>
      <trkpt lat="46.61517" lon="5.55202">
        <ele>479.36410522461</ele>
        <time>2014-10-24T13:17:42Z</time>
      </trkpt>
      <trkpt lat="46.61522" lon="5.55204">
        <ele>479.81704711914</ele>
        <time>2014-10-24T13:17:47Z</time>
      </trkpt>
      <trkpt lat="46.61522" lon="5.55204">
        <ele>479.85626220703</ele>
        <time>2014-10-24T13:17:48Z</time>
      </trkpt>
      <trkpt lat="46.61525" lon="5.55205">
        <ele>480.1842956543</ele>
        <time>2014-10-24T13:17:54Z</time>
      </trkpt>
      <trkpt lat="46.61528" lon="5.55206">
        <ele>480.40347290039</ele>
        <time>2014-10-24T13:17:57Z</time>
      </trkpt>
      <trkpt lat="46.6153" lon="5.55205">
        <ele>481.06842041016</ele>
        <time>2014-10-24T13:17:59Z</time>
      </trkpt>
      <trkpt lat="46.61535" lon="5.55205">
        <ele>482.55502319336</ele>
        <time>2014-10-24T13:18:04Z</time>
      </trkpt>
      <trkpt lat="46.61539" lon="5.55205">
        <ele>484.05706787109</ele>
        <time>2014-10-24T13:18:09Z</time>
      </trkpt>
      <trkpt lat="46.61543" lon="5.55206">
        <ele>485.20202636719</ele>
        <time>2014-10-24T13:18:12Z</time>
      </trkpt>
      <trkpt lat="46.61546" lon="5.55208">
        <ele>486.25775146484</ele>
        <time>2014-10-24T13:18:15Z</time>
      </trkpt>
      <trkpt lat="46.61551" lon="5.55214">
        <ele>488.19580078125</ele>
        <time>2014-10-24T13:18:22Z</time>
      </trkpt>
      <trkpt lat="46.61552" lon="5.55215">
        <ele>488.47216796875</ele>
        <time>2014-10-24T13:18:23Z</time>
      </trkpt>
      <trkpt lat="46.61556" lon="5.55217">
        <ele>490.01116943359</ele>
        <time>2014-10-24T13:18:28Z</time>
      </trkpt>
      <trkpt lat="46.61558" lon="5.55218">
        <ele>490.56817626953</ele>
        <time>2014-10-24T13:18:31Z</time>
      </trkpt>
      <trkpt lat="46.61561" lon="5.5522">
        <ele>491.40682983398</ele>
        <time>2014-10-24T13:18:34Z</time>
      </trkpt>
      <trkpt lat="46.61562" lon="5.5522">
        <ele>491.60961914062</ele>
        <time>2014-10-24T13:18:35Z</time>
      </trkpt>
      <trkpt lat="46.61566" lon="5.5522">
        <ele>492.7180480957</ele>
        <time>2014-10-24T13:18:40Z</time>
      </trkpt>
      <trkpt lat="46.61568" lon="5.5522">
        <ele>493.11883544922</ele>
        <time>2014-10-24T13:18:42Z</time>
      </trkpt>
      <trkpt lat="46.61571" lon="5.55221">
        <ele>493.87924194336</ele>
        <time>2014-10-24T13:18:45Z</time>
      </trkpt>
      <trkpt lat="46.61574" lon="5.55224">
        <ele>494.51864624023</ele>
        <time>2014-10-24T13:18:50Z</time>
      </trkpt>
      <trkpt lat="46.61575" lon="5.55224">
        <ele>494.5173034668</ele>
        <time>2014-10-24T13:18:51Z</time>
      </trkpt>
      <trkpt lat="46.61578" lon="5.55226">
        <ele>495.13955688477</ele>
        <time>2014-10-24T13:18:54Z</time>
      </trkpt>
      <trkpt lat="46.61581" lon="5.55227">
        <ele>495.56518554688</ele>
        <time>2014-10-24T13:18:57Z</time>
      </trkpt>
      <trkpt lat="46.61583" lon="5.55229">
        <ele>495.64944458008</ele>
        <time>2014-10-24T13:19:00Z</time>
      </trkpt>
      <trkpt lat="46.61584" lon="5.55232">
        <ele>495.24075317383</ele>
        <time>2014-10-24T13:19:01Z</time>
      </trkpt>
      <trkpt lat="46.61589" lon="5.55239">
        <ele>494.1487121582</ele>
        <time>2014-10-24T13:19:06Z</time>
      </trkpt>
      <trkpt lat="46.61589" lon="5.5524">
        <ele>493.92785644531</ele>
        <time>2014-10-24T13:19:07Z</time>
      </trkpt>
      <trkpt lat="46.61592" lon="5.55244">
        <ele>493.31604003906</ele>
        <time>2014-10-24T13:19:12Z</time>
      </trkpt>
      <trkpt lat="46.61595" lon="5.55245">
        <ele>492.95449829102</ele>
        <time>2014-10-24T13:19:15Z</time>
      </trkpt>
      <trkpt lat="46.61596" lon="5.55248">
        <ele>492.49151611328</ele>
        <time>2014-10-24T13:19:18Z</time>
      </trkpt>
      <trkpt lat="46.616" lon="5.55249">
        <ele>492.27032470703</ele>
        <time>2014-10-24T13:19:22Z</time>
      </trkpt>
      <trkpt lat="46.61603" lon="5.5525">
        <ele>492.04943847656</ele>
        <time>2014-10-24T13:19:26Z</time>
      </trkpt>
      <trkpt lat="46.61604" lon="5.5525">
        <ele>492.00946044922</ele>
        <time>2014-10-24T13:19:27Z</time>
      </trkpt>
      <trkpt lat="46.61607" lon="5.55252">
        <ele>492.05410766602</ele>
        <time>2014-10-24T13:19:30Z</time>
      </trkpt>
      <trkpt lat="46.6161" lon="5.55252">
        <ele>492.0661315918</ele>
        <time>2014-10-24T13:19:33Z</time>
      </trkpt>
      <trkpt lat="46.61612" lon="5.55252">
        <ele>492.09228515625</ele>
        <time>2014-10-24T13:19:35Z</time>
      </trkpt>
      <trkpt lat="46.61615" lon="5.55251">
        <ele>492.16110229492</ele>
        <time>2014-10-24T13:19:40Z</time>
      </trkpt>
      <trkpt lat="46.61619" lon="5.55252">
        <ele>492.33151245117</ele>
        <time>2014-10-24T13:19:46Z</time>
      </trkpt>
      <trkpt lat="46.61621" lon="5.55252">
        <ele>492.41241455078</ele>
        <time>2014-10-24T13:19:51Z</time>
      </trkpt>
      <trkpt lat="46.61624" lon="5.55252">
        <ele>492.48870849609</ele>
        <time>2014-10-24T13:19:53Z</time>
      </trkpt>
      <trkpt lat="46.61626" lon="5.55252">
        <ele>492.58819580078</ele>
        <time>2014-10-24T13:19:56Z</time>
      </trkpt>
      <trkpt lat="46.61633" lon="5.55251">
        <ele>492.78021240234</ele>
        <time>2014-10-24T13:20:02Z</time>
      </trkpt>
      <trkpt lat="46.61639" lon="5.55252">
        <ele>492.99185180664</ele>
        <time>2014-10-24T13:20:08Z</time>
      </trkpt>
      <trkpt lat="46.61639" lon="5.55253">
        <ele>493</ele>
        <time>2014-10-24T13:20:09Z</time>
      </trkpt>
      <trkpt lat="46.61644" lon="5.55256">
        <ele>493</ele>
        <time>2014-10-24T13:20:14Z</time>
      </trkpt>
      <trkpt lat="46.61654" lon="5.55257">
        <ele>493</ele>
        <time>2014-10-24T13:20:22Z</time>
      </trkpt>
      <trkpt lat="46.61658" lon="5.55257">
        <ele>493</ele>
        <time>2014-10-24T13:20:29Z</time>
      </trkpt>
      <trkpt lat="46.61663" lon="5.55256">
        <ele>493</ele>
        <time>2014-10-24T13:20:34Z</time>
      </trkpt>
      <trkpt lat="46.61664" lon="5.55256">
        <ele>493</ele>
        <time>2014-10-24T13:20:35Z</time>
      </trkpt>
      <trkpt lat="46.61667" lon="5.55258">
        <ele>493</ele>
        <time>2014-10-24T13:20:39Z</time>
      </trkpt>
      <trkpt lat="46.61668" lon="5.55258">
        <ele>493</ele>
        <time>2014-10-24T13:20:40Z</time>
      </trkpt>
      <trkpt lat="46.61672" lon="5.55258">
        <ele>493</ele>
        <time>2014-10-24T13:20:43Z</time>
      </trkpt>
      <trkpt lat="46.61674" lon="5.55258">
        <ele>493</ele>
        <time>2014-10-24T13:20:46Z</time>
      </trkpt>
      <trkpt lat="46.61678" lon="5.55258">
        <ele>493</ele>
        <time>2014-10-24T13:20:49Z</time>
      </trkpt>
      <trkpt lat="46.61686" lon="5.55257">
        <ele>493</ele>
        <time>2014-10-24T13:20:55Z</time>
      </trkpt>
      <trkpt lat="46.61691" lon="5.55259">
        <ele>493</ele>
        <time>2014-10-24T13:20:59Z</time>
      </trkpt>
      <trkpt lat="46.61692" lon="5.55258">
        <ele>493</ele>
        <time>2014-10-24T13:21:00Z</time>
      </trkpt>
      <trkpt lat="46.61701" lon="5.55258">
        <ele>488.37860107422</ele>
        <time>2014-10-24T13:21:07Z</time>
      </trkpt>
      <trkpt lat="46.6171" lon="5.55258">
        <ele>481.76916503906</ele>
        <time>2014-10-24T13:21:15Z</time>
      </trkpt>
      <trkpt lat="46.61713" lon="5.5526">
        <ele>479.68304443359</ele>
        <time>2014-10-24T13:21:18Z</time>
      </trkpt>
      <trkpt lat="46.61715" lon="5.55264">
        <ele>478.3447265625</ele>
        <time>2014-10-24T13:21:21Z</time>
      </trkpt>
      <trkpt lat="46.61718" lon="5.5527">
        <ele>477.01974487305</ele>
        <time>2014-10-24T13:21:25Z</time>
      </trkpt>
      <trkpt lat="46.61719" lon="5.55272">
        <ele>476.73168945312</ele>
        <time>2014-10-24T13:21:27Z</time>
      </trkpt>
      <trkpt lat="46.61722" lon="5.55281">
        <ele>475.23431396484</ele>
        <time>2014-10-24T13:21:32Z</time>
      </trkpt>
      <trkpt lat="46.61727" lon="5.55292">
        <ele>474.10604858398</ele>
        <time>2014-10-24T13:21:39Z</time>
      </trkpt>
      <trkpt lat="46.6173" lon="5.55303">
        <ele>473.78628540039</ele>
        <time>2014-10-24T13:21:45Z</time>
      </trkpt>
      <trkpt lat="46.6173" lon="5.55315">
        <ele>475.09204101562</ele>
        <time>2014-10-24T13:21:51Z</time>
      </trkpt>
      <trkpt lat="46.6173" lon="5.55319">
        <ele>475.66204833984</ele>
        <time>2014-10-24T13:21:53Z</time>
      </trkpt>
      <trkpt lat="46.61731" lon="5.55325">
        <ele>476.40118408203</ele>
        <time>2014-10-24T13:21:57Z</time>
      </trkpt>
      <trkpt lat="46.61729" lon="5.55335">
        <ele>478.18640136719</ele>
        <time>2014-10-24T13:22:03Z</time>
      </trkpt>
      <trkpt lat="46.61724" lon="5.55343">
        <ele>479.46768188477</ele>
        <time>2014-10-24T13:22:09Z</time>
      </trkpt>
      <trkpt lat="46.61722" lon="5.55346">
        <ele>480.01965332031</ele>
        <time>2014-10-24T13:22:11Z</time>
      </trkpt>
      <trkpt lat="46.61716" lon="5.55353">
        <ele>482.90356445312</ele>
        <time>2014-10-24T13:22:17Z</time>
      </trkpt>
      <trkpt lat="46.6171" lon="5.55362">
        <ele>485.98794555664</ele>
        <time>2014-10-24T13:22:23Z</time>
      </trkpt>
      <trkpt lat="46.61708" lon="5.55364">
        <ele>487.18075561523</ele>
        <time>2014-10-24T13:22:25Z</time>
      </trkpt>
      <trkpt lat="46.61702" lon="5.55371">
        <ele>490.12091064453</ele>
        <time>2014-10-24T13:22:31Z</time>
      </trkpt>
      <trkpt lat="46.61695" lon="5.55378">
        <ele>493.86834716797</ele>
        <time>2014-10-24T13:22:38Z</time>
      </trkpt>
      <trkpt lat="46.61689" lon="5.55386">
        <ele>494</ele>
        <time>2014-10-24T13:22:45Z</time>
      </trkpt>
      <trkpt lat="46.61688" lon="5.55387">
        <ele>494</ele>
        <time>2014-10-24T13:22:46Z</time>
      </trkpt>
      <trkpt lat="46.61682" lon="5.55395">
        <ele>494</ele>
        <time>2014-10-24T13:22:52Z</time>
      </trkpt>
      <trkpt lat="46.61677" lon="5.55404">
        <ele>494</ele>
        <time>2014-10-24T13:22:59Z</time>
      </trkpt>
      <trkpt lat="46.61676" lon="5.55409">
        <ele>494</ele>
        <time>2014-10-24T13:23:01Z</time>
      </trkpt>
      <trkpt lat="46.61675" lon="5.55414">
        <ele>494</ele>
        <time>2014-10-24T13:23:04Z</time>
      </trkpt>
      <trkpt lat="46.61671" lon="5.55423">
        <ele>494.22705078125</ele>
        <time>2014-10-24T13:23:10Z</time>
      </trkpt>
      <trkpt lat="46.61667" lon="5.5543">
        <ele>494.48281860352</ele>
        <time>2014-10-24T13:23:15Z</time>
      </trkpt>
      <trkpt lat="46.61666" lon="5.55431">
        <ele>494.51028442383</ele>
        <time>2014-10-24T13:23:16Z</time>
      </trkpt>
      <trkpt lat="46.61657" lon="5.5543">
        <ele>494.47595214844</ele>
        <time>2014-10-24T13:23:23Z</time>
      </trkpt>
      <trkpt lat="46.61652" lon="5.55428">
        <ele>494.40216064453</ele>
        <time>2014-10-24T13:23:29Z</time>
      </trkpt>
      <trkpt lat="46.6165" lon="5.55428">
        <ele>494.41931152344</ele>
        <time>2014-10-24T13:23:36Z</time>
      </trkpt>
      <trkpt lat="46.61646" lon="5.55427">
        <ele>494.38842773438</ele>
        <time>2014-10-24T13:23:40Z</time>
      </trkpt>
      <trkpt lat="46.61644" lon="5.55426">
        <ele>494.33349609375</ele>
        <time>2014-10-24T13:23:43Z</time>
      </trkpt>
      <trkpt lat="46.61642" lon="5.55425">
        <ele>494.30944824219</ele>
        <time>2014-10-24T13:23:46Z</time>
      </trkpt>
      <trkpt lat="46.6164" lon="5.55423">
        <ele>494.23907470703</ele>
        <time>2014-10-24T13:23:51Z</time>
      </trkpt>
      <trkpt lat="46.61631" lon="5.55422">
        <ele>494.18414306641</ele>
        <time>2014-10-24T13:23:58Z</time>
      </trkpt>
      <trkpt lat="46.61628" lon="5.55423">
        <ele>494.22018432617</ele>
        <time>2014-10-24T13:24:01Z</time>
      </trkpt>
      <trkpt lat="46.6163" lon="5.55425">
        <ele>494.30258178711</ele>
        <time>2014-10-24T13:24:04Z</time>
      </trkpt>
      <trkpt lat="46.61637" lon="5.55428">
        <ele>494.41589355469</ele>
        <time>2014-10-24T13:24:10Z</time>
      </trkpt>
      <trkpt lat="46.61638" lon="5.55429">
        <ele>494.44506835938</ele>
        <time>2014-10-24T13:24:11Z</time>
      </trkpt>
      <trkpt lat="46.61645" lon="5.55432">
        <ele>494.54119873047</ele>
        <time>2014-10-24T13:24:17Z</time>
      </trkpt>
      <trkpt lat="46.61655" lon="5.55438">
        <ele>494.78494262695</ele>
        <time>2014-10-24T13:24:23Z</time>
      </trkpt>
      <trkpt lat="46.61667" lon="5.55446">
        <ele>495</ele>
        <time>2014-10-24T13:24:28Z</time>
      </trkpt>
      <trkpt lat="46.61678" lon="5.55455">
        <ele>495</ele>
        <time>2014-10-24T13:24:33Z</time>
      </trkpt>
      <trkpt lat="46.61688" lon="5.55465">
        <ele>495</ele>
        <time>2014-10-24T13:24:38Z</time>
      </trkpt>
      <trkpt lat="46.61698" lon="5.55467">
        <ele>493.50741577148</ele>
        <time>2014-10-24T13:24:43Z</time>
      </trkpt>
      <trkpt lat="46.61708" lon="5.55462">
        <ele>489.42639160156</ele>
        <time>2014-10-24T13:24:48Z</time>
      </trkpt>
      <trkpt lat="46.61722" lon="5.55459">
        <ele>483.52548217773</ele>
        <time>2014-10-24T13:24:54Z</time>
      </trkpt>
      <trkpt lat="46.61739" lon="5.55455">
        <ele>482.77777099609</ele>
        <time>2014-10-24T13:25:01Z</time>
      </trkpt>
      <trkpt lat="46.61751" lon="5.55452">
        <ele>482.26388549805</ele>
        <time>2014-10-24T13:25:06Z</time>
      </trkpt>
      <trkpt lat="46.61761" lon="5.5545">
        <ele>482.21240234375</ele>
        <time>2014-10-24T13:25:10Z</time>
      </trkpt>
      <trkpt lat="46.61774" lon="5.55448">
        <ele>482.11111450195</ele>
        <time>2014-10-24T13:25:15Z</time>
      </trkpt>
      <trkpt lat="46.6179" lon="5.55444">
        <ele>481.98431396484</ele>
        <time>2014-10-24T13:25:22Z</time>
      </trkpt>
      <trkpt lat="46.61799" lon="5.55443">
        <ele>481.88049316406</ele>
        <time>2014-10-24T13:25:26Z</time>
      </trkpt>
      <trkpt lat="46.61811" lon="5.55441">
        <ele>481.46725463867</ele>
        <time>2014-10-24T13:25:31Z</time>
      </trkpt>
      <trkpt lat="46.61826" lon="5.5544">
        <ele>480.66909790039</ele>
        <time>2014-10-24T13:25:37Z</time>
      </trkpt>
      <trkpt lat="46.61833" lon="5.55438">
        <ele>480.14028930664</ele>
        <time>2014-10-24T13:25:40Z</time>
      </trkpt>
      <trkpt lat="46.61843" lon="5.55438">
        <ele>478.33624267578</ele>
        <time>2014-10-24T13:25:44Z</time>
      </trkpt>
      <trkpt lat="46.61855" lon="5.55439">
        <ele>476.58407592773</ele>
        <time>2014-10-24T13:25:48Z</time>
      </trkpt>
      <trkpt lat="46.61867" lon="5.55436">
        <ele>473.43811035156</ele>
        <time>2014-10-24T13:25:53Z</time>
      </trkpt>
      <trkpt lat="46.61879" lon="5.55434">
        <ele>470.00912475586</ele>
        <time>2014-10-24T13:25:58Z</time>
      </trkpt>
      <trkpt lat="46.6189" lon="5.55431">
        <ele>466.88702392578</ele>
        <time>2014-10-24T13:26:03Z</time>
      </trkpt>
      <trkpt lat="46.61903" lon="5.55426">
        <ele>464.5592956543</ele>
        <time>2014-10-24T13:26:09Z</time>
      </trkpt>
      <trkpt lat="46.61913" lon="5.55422">
        <ele>462.5817565918</ele>
        <time>2014-10-24T13:26:14Z</time>
      </trkpt>
      <trkpt lat="46.61924" lon="5.55418">
        <ele>460.97021484375</ele>
        <time>2014-10-24T13:26:19Z</time>
      </trkpt>
      <trkpt lat="46.61939" lon="5.55411">
        <ele>459.16525268555</ele>
        <time>2014-10-24T13:26:26Z</time>
      </trkpt>
      <trkpt lat="46.61952" lon="5.55404">
        <ele>457.58889770508</ele>
        <time>2014-10-24T13:26:32Z</time>
      </trkpt>
      <trkpt lat="46.61961" lon="5.55397">
        <ele>455.99722290039</ele>
        <time>2014-10-24T13:26:37Z</time>
      </trkpt>
      <trkpt lat="46.61975" lon="5.55389">
        <ele>453.77368164062</ele>
        <time>2014-10-24T13:26:43Z</time>
      </trkpt>
      <trkpt lat="46.61987" lon="5.55383">
        <ele>451.40689086914</ele>
        <time>2014-10-24T13:26:48Z</time>
      </trkpt>
      <trkpt lat="46.61998" lon="5.55378">
        <ele>449.24807739258</ele>
        <time>2014-10-24T13:26:53Z</time>
      </trkpt>
      <trkpt lat="46.62011" lon="5.55371">
        <ele>446.54904174805</ele>
        <time>2014-10-24T13:26:59Z</time>
      </trkpt>
      <trkpt lat="46.62024" lon="5.55363">
        <ele>443.11920166016</ele>
        <time>2014-10-24T13:27:05Z</time>
      </trkpt>
      <trkpt lat="46.62036" lon="5.55357">
        <ele>441.34552001953</ele>
        <time>2014-10-24T13:27:10Z</time>
      </trkpt>
      <trkpt lat="46.62052" lon="5.55352">
        <ele>440.32470703125</ele>
        <time>2014-10-24T13:27:16Z</time>
      </trkpt>
      <trkpt lat="46.62067" lon="5.55348">
        <ele>438.75457763672</ele>
        <time>2014-10-24T13:27:23Z</time>
      </trkpt>
      <trkpt lat="46.62079" lon="5.5535">
        <ele>438.30825805664</ele>
        <time>2014-10-24T13:27:28Z</time>
      </trkpt>
      <trkpt lat="46.6209" lon="5.55353">
        <ele>438.47521972656</ele>
        <time>2014-10-24T13:27:33Z</time>
      </trkpt>
      <trkpt lat="46.62102" lon="5.55357">
        <ele>439.18762207031</ele>
        <time>2014-10-24T13:27:38Z</time>
      </trkpt>
      <trkpt lat="46.62117" lon="5.55363">
        <ele>440.67776489258</ele>
        <time>2014-10-24T13:27:44Z</time>
      </trkpt>
      <trkpt lat="46.62133" lon="5.5537">
        <ele>442.57241821289</ele>
        <time>2014-10-24T13:27:50Z</time>
      </trkpt>
      <trkpt lat="46.62146" lon="5.55373">
        <ele>443.39685058594</ele>
        <time>2014-10-24T13:27:55Z</time>
      </trkpt>
      <trkpt lat="46.62159" lon="5.55376">
        <ele>444.17962646484</ele>
        <time>2014-10-24T13:28:00Z</time>
      </trkpt>
      <trkpt lat="46.62178" lon="5.55379">
        <ele>445.27825927734</ele>
        <time>2014-10-24T13:28:07Z</time>
      </trkpt>
      <trkpt lat="46.6219" lon="5.55381">
        <ele>445.81384277344</ele>
        <time>2014-10-24T13:28:12Z</time>
      </trkpt>
      <trkpt lat="46.62202" lon="5.55381">
        <ele>445.23718261719</ele>
        <time>2014-10-24T13:28:17Z</time>
      </trkpt>
      <trkpt lat="46.62215" lon="5.55382">
        <ele>444.53680419922</ele>
        <time>2014-10-24T13:28:23Z</time>
      </trkpt>
      <trkpt lat="46.62231" lon="5.55382">
        <ele>444.11596679688</ele>
        <time>2014-10-24T13:28:31Z</time>
      </trkpt>
      <trkpt lat="46.62244" lon="5.55384">
        <ele>444.50048828125</ele>
        <time>2014-10-24T13:28:36Z</time>
      </trkpt>
      <trkpt lat="46.62257" lon="5.55384">
        <ele>444.96356201172</ele>
        <time>2014-10-24T13:28:42Z</time>
      </trkpt>
      <trkpt lat="46.62271" lon="5.55384">
        <ele>445.95233154297</ele>
        <time>2014-10-24T13:28:48Z</time>
      </trkpt>
      <trkpt lat="46.62283" lon="5.55382">
        <ele>446.37933349609</ele>
        <time>2014-10-24T13:28:53Z</time>
      </trkpt>
      <trkpt lat="46.62293" lon="5.55379">
        <ele>445.80764770508</ele>
        <time>2014-10-24T13:28:58Z</time>
      </trkpt>
      <trkpt lat="46.62307" lon="5.55377">
        <ele>445.62701416016</ele>
        <time>2014-10-24T13:29:04Z</time>
      </trkpt>
      <trkpt lat="46.6232" lon="5.55376">
        <ele>443.72515869141</ele>
        <time>2014-10-24T13:29:09Z</time>
      </trkpt>
      <trkpt lat="46.62328" lon="5.55374">
        <ele>441.83145141602</ele>
        <time>2014-10-24T13:29:13Z</time>
      </trkpt>
      <trkpt lat="46.62341" lon="5.5537">
        <ele>440.56463623047</ele>
        <time>2014-10-24T13:29:19Z</time>
      </trkpt>
      <trkpt lat="46.62355" lon="5.55366">
        <ele>440.73010253906</ele>
        <time>2014-10-24T13:29:26Z</time>
      </trkpt>
      <trkpt lat="46.62363" lon="5.55362">
        <ele>440.15884399414</ele>
        <time>2014-10-24T13:29:33Z</time>
      </trkpt>
      <trkpt lat="46.62366" lon="5.55361">
        <ele>439.90808105469</ele>
        <time>2014-10-24T13:29:35Z</time>
      </trkpt>
      <trkpt lat="46.62371" lon="5.5536">
        <ele>439.81195068359</ele>
        <time>2014-10-24T13:29:39Z</time>
      </trkpt>
      <trkpt lat="46.62375" lon="5.5536">
        <ele>439.69180297852</ele>
        <time>2014-10-24T13:29:43Z</time>
      </trkpt>
      <trkpt lat="46.62378" lon="5.55359">
        <ele>439.55963134766</ele>
        <time>2014-10-24T13:29:45Z</time>
      </trkpt>
      <trkpt lat="46.62381" lon="5.55357">
        <ele>438.94677734375</ele>
        <time>2014-10-24T13:29:48Z</time>
      </trkpt>
      <trkpt lat="46.62384" lon="5.55357">
        <ele>439.01889038086</ele>
        <time>2014-10-24T13:29:50Z</time>
      </trkpt>
      <trkpt lat="46.62389" lon="5.55359">
        <ele>439.36737060547</ele>
        <time>2014-10-24T13:29:53Z</time>
      </trkpt>
      <trkpt lat="46.62393" lon="5.55359">
        <ele>439.37911987305</ele>
        <time>2014-10-24T13:29:56Z</time>
      </trkpt>
      <trkpt lat="46.62401" lon="5.55359">
        <ele>439.31451416016</ele>
        <time>2014-10-24T13:30:03Z</time>
      </trkpt>
      <trkpt lat="46.62411" lon="5.55358">
        <ele>439.06903076172</ele>
        <time>2014-10-24T13:30:10Z</time>
      </trkpt>
      <trkpt lat="46.6242" lon="5.55347">
        <ele>435.96734619141</ele>
        <time>2014-10-24T13:30:18Z</time>
      </trkpt>
      <trkpt lat="46.62432" lon="5.55346">
        <ele>435.72015380859</ele>
        <time>2014-10-24T13:30:27Z</time>
      </trkpt>
      <trkpt lat="46.6244" lon="5.55346">
        <ele>435.77508544922</ele>
        <time>2014-10-24T13:30:33Z</time>
      </trkpt>
      <trkpt lat="46.62441" lon="5.55347">
        <ele>435.85748291016</ele>
        <time>2014-10-24T13:30:34Z</time>
      </trkpt>
      <trkpt lat="46.62444" lon="5.55346">
        <ele>435.76135253906</ele>
        <time>2014-10-24T13:30:38Z</time>
      </trkpt>
      <trkpt lat="46.62447" lon="5.55347">
        <ele>435.67852783203</ele>
        <time>2014-10-24T13:30:40Z</time>
      </trkpt>
      <trkpt lat="46.6245" lon="5.55348">
        <ele>435.76058959961</ele>
        <time>2014-10-24T13:30:43Z</time>
      </trkpt>
      <trkpt lat="46.62456" lon="5.55349">
        <ele>435.56378173828</ele>
        <time>2014-10-24T13:30:47Z</time>
      </trkpt>
      <trkpt lat="46.62467" lon="5.5535">
        <ele>435.1005859375</ele>
        <time>2014-10-24T13:30:55Z</time>
      </trkpt>
      <trkpt lat="46.62477" lon="5.55352">
        <ele>435.04669189453</ele>
        <time>2014-10-24T13:31:02Z</time>
      </trkpt>
      <trkpt lat="46.62485" lon="5.55351">
        <ele>434.88189697266</ele>
        <time>2014-10-24T13:31:07Z</time>
      </trkpt>
      <trkpt lat="46.6249" lon="5.5535">
        <ele>434.67590332031</ele>
        <time>2014-10-24T13:31:12Z</time>
      </trkpt>
      <trkpt lat="46.62492" lon="5.55351">
        <ele>434.82006835938</ele>
        <time>2014-10-24T13:31:13Z</time>
      </trkpt>
      <trkpt lat="46.62503" lon="5.55353">
        <ele>435.02667236328</ele>
        <time>2014-10-24T13:31:21Z</time>
      </trkpt>
      <trkpt lat="46.62513" lon="5.55354">
        <ele>434.72991943359</ele>
        <time>2014-10-24T13:31:28Z</time>
      </trkpt>
      <trkpt lat="46.62525" lon="5.55357">
        <ele>434.55725097656</ele>
        <time>2014-10-24T13:31:37Z</time>
      </trkpt>
      <trkpt lat="46.62536" lon="5.55361">
        <ele>434.99554443359</ele>
        <time>2014-10-24T13:31:44Z</time>
      </trkpt>
      <trkpt lat="46.62537" lon="5.55361">
        <ele>434.99554443359</ele>
        <time>2014-10-24T13:31:45Z</time>
      </trkpt>
      <trkpt lat="46.62544" lon="5.55363">
        <ele>435.46710205078</ele>
        <time>2014-10-24T13:31:50Z</time>
      </trkpt>
      <trkpt lat="46.62552" lon="5.55367">
        <ele>436.29107666016</ele>
        <time>2014-10-24T13:31:56Z</time>
      </trkpt>
      <trkpt lat="46.6256" lon="5.55369">
        <ele>436.27606201172</ele>
        <time>2014-10-24T13:32:02Z</time>
      </trkpt>
      <trkpt lat="46.62571" lon="5.55368">
        <ele>434.7001953125</ele>
        <time>2014-10-24T13:32:08Z</time>
      </trkpt>
      <trkpt lat="46.62587" lon="5.55365">
        <ele>432.54135131836</ele>
        <time>2014-10-24T13:32:14Z</time>
      </trkpt>
      <trkpt lat="46.62598" lon="5.55363">
        <ele>431.31912231445</ele>
        <time>2014-10-24T13:32:19Z</time>
      </trkpt>
      <trkpt lat="46.62614" lon="5.55362">
        <ele>430.13751220703</ele>
        <time>2014-10-24T13:32:26Z</time>
      </trkpt>
      <trkpt lat="46.62628" lon="5.55362">
        <ele>430.28170776367</ele>
        <time>2014-10-24T13:32:32Z</time>
      </trkpt>
      <trkpt lat="46.6264" lon="5.55362">
        <ele>430.09851074219</ele>
        <time>2014-10-24T13:32:38Z</time>
      </trkpt>
      <trkpt lat="46.62652" lon="5.5536">
        <ele>428.50231933594</ele>
        <time>2014-10-24T13:32:44Z</time>
      </trkpt>
      <trkpt lat="46.6266" lon="5.55359">
        <ele>427.41741943359</ele>
        <time>2014-10-24T13:32:48Z</time>
      </trkpt>
      <trkpt lat="46.62666" lon="5.55361">
        <ele>426.96423339844</ele>
        <time>2014-10-24T13:32:54Z</time>
      </trkpt>
      <trkpt lat="46.62675" lon="5.55368">
        <ele>427.57894897461</ele>
        <time>2014-10-24T13:33:01Z</time>
      </trkpt>
      <trkpt lat="46.62681" lon="5.55377">
        <ele>428.83209228516</ele>
        <time>2014-10-24T13:33:07Z</time>
      </trkpt>
      <trkpt lat="46.62689" lon="5.55391">
        <ele>430.63656616211</ele>
        <time>2014-10-24T13:33:15Z</time>
      </trkpt>
      <trkpt lat="46.62692" lon="5.55395">
        <ele>431.12408447266</ele>
        <time>2014-10-24T13:33:21Z</time>
      </trkpt>
      <trkpt lat="46.62698" lon="5.55394">
        <ele>430.46856689453</ele>
        <time>2014-10-24T13:33:43Z</time>
      </trkpt>
      <trkpt lat="46.6271" lon="5.55397">
        <ele>429.87298583984</ele>
        <time>2014-10-24T13:33:48Z</time>
      </trkpt>
      <trkpt lat="46.6272" lon="5.55398">
        <ele>429.20236206055</ele>
        <time>2014-10-24T13:33:52Z</time>
      </trkpt>
      <trkpt lat="46.62725" lon="5.55396">
        <ele>428.6467590332</ele>
        <time>2014-10-24T13:33:54Z</time>
      </trkpt>
      <trkpt lat="46.62728" lon="5.55391">
        <ele>428.00646972656</ele>
        <time>2014-10-24T13:33:56Z</time>
      </trkpt>
      <trkpt lat="46.62732" lon="5.55382">
        <ele>426.57116699219</ele>
        <time>2014-10-24T13:33:59Z</time>
      </trkpt>
      <trkpt lat="46.62741" lon="5.55372">
        <ele>424.69372558594</ele>
        <time>2014-10-24T13:34:04Z</time>
      </trkpt>
      <trkpt lat="46.62754" lon="5.55368">
        <ele>423.69955444336</ele>
        <time>2014-10-24T13:34:09Z</time>
      </trkpt>
      <trkpt lat="46.62765" lon="5.55365">
        <ele>422.61029052734</ele>
        <time>2014-10-24T13:34:14Z</time>
      </trkpt>
      <trkpt lat="46.62775" lon="5.55361">
        <ele>421.18759155273</ele>
        <time>2014-10-24T13:34:18Z</time>
      </trkpt>
      <trkpt lat="46.62788" lon="5.55358">
        <ele>420.40283203125</ele>
        <time>2014-10-24T13:34:23Z</time>
      </trkpt>
      <trkpt lat="46.62797" lon="5.55357">
        <ele>420.03204345703</ele>
        <time>2014-10-24T13:34:27Z</time>
      </trkpt>
      <trkpt lat="46.62806" lon="5.55356">
        <ele>419.63549804688</ele>
        <time>2014-10-24T13:34:31Z</time>
      </trkpt>
      <trkpt lat="46.62817" lon="5.55356">
        <ele>419.68753051758</ele>
        <time>2014-10-24T13:34:36Z</time>
      </trkpt>
      <trkpt lat="46.62829" lon="5.55358">
        <ele>419.88043212891</ele>
        <time>2014-10-24T13:34:42Z</time>
      </trkpt>
      <trkpt lat="46.62842" lon="5.55359">
        <ele>419.94543457031</ele>
        <time>2014-10-24T13:34:47Z</time>
      </trkpt>
      <trkpt lat="46.62857" lon="5.5536">
        <ele>419.99270629883</ele>
        <time>2014-10-24T13:34:53Z</time>
      </trkpt>
      <trkpt lat="46.62868" lon="5.55359">
        <ele>420</ele>
        <time>2014-10-24T13:34:58Z</time>
      </trkpt>
      <trkpt lat="46.6288" lon="5.55357">
        <ele>420</ele>
        <time>2014-10-24T13:35:03Z</time>
      </trkpt>
      <trkpt lat="46.62892" lon="5.55353">
        <ele>420.08120727539</ele>
        <time>2014-10-24T13:35:08Z</time>
      </trkpt>
      <trkpt lat="46.62906" lon="5.55347">
        <ele>420.29455566406</ele>
        <time>2014-10-24T13:35:14Z</time>
      </trkpt>
      <trkpt lat="46.62916" lon="5.55342">
        <ele>420.30917358398</ele>
        <time>2014-10-24T13:35:19Z</time>
      </trkpt>
      <trkpt lat="46.62926" lon="5.55338">
        <ele>420.2966003418</ele>
        <time>2014-10-24T13:35:23Z</time>
      </trkpt>
      <trkpt lat="46.62941" lon="5.55329">
        <ele>420</ele>
        <time>2014-10-24T13:35:30Z</time>
      </trkpt>
      <trkpt lat="46.62953" lon="5.55328">
        <ele>420.25521850586</ele>
        <time>2014-10-24T13:35:34Z</time>
      </trkpt>
      <trkpt lat="46.62968" lon="5.55323">
        <ele>420.53631591797</ele>
        <time>2014-10-24T13:35:40Z</time>
      </trkpt>
      <trkpt lat="46.6298" lon="5.5532">
        <ele>421.04623413086</ele>
        <time>2014-10-24T13:35:45Z</time>
      </trkpt>
      <trkpt lat="46.62992" lon="5.55316">
        <ele>421.49554443359</ele>
        <time>2014-10-24T13:35:50Z</time>
      </trkpt>
      <trkpt lat="46.63005" lon="5.55312">
        <ele>421.6706237793</ele>
        <time>2014-10-24T13:35:55Z</time>
      </trkpt>
      <trkpt lat="46.63015" lon="5.55307">
        <ele>421.88418579102</ele>
        <time>2014-10-24T13:36:00Z</time>
      </trkpt>
      <trkpt lat="46.63027" lon="5.553">
        <ele>422.39944458008</ele>
        <time>2014-10-24T13:36:05Z</time>
      </trkpt>
      <trkpt lat="46.63039" lon="5.55297">
        <ele>423.77951049805</ele>
        <time>2014-10-24T13:36:10Z</time>
      </trkpt>
      <trkpt lat="46.63052" lon="5.55299">
        <ele>425.71755981445</ele>
        <time>2014-10-24T13:36:15Z</time>
      </trkpt>
      <trkpt lat="46.63063" lon="5.55295">
        <ele>427.18362426758</ele>
        <time>2014-10-24T13:36:20Z</time>
      </trkpt>
      <trkpt lat="46.63076" lon="5.55289">
        <ele>428.9753112793</ele>
        <time>2014-10-24T13:36:26Z</time>
      </trkpt>
      <trkpt lat="46.63087" lon="5.5529">
        <ele>430.87554931641</ele>
        <time>2014-10-24T13:36:31Z</time>
      </trkpt>
      <trkpt lat="46.63095" lon="5.55289">
        <ele>431.98309326172</ele>
        <time>2014-10-24T13:36:35Z</time>
      </trkpt>
      <trkpt lat="46.63111" lon="5.55288">
        <ele>434.00042724609</ele>
        <time>2014-10-24T13:36:42Z</time>
      </trkpt>
      <trkpt lat="46.63129" lon="5.5529">
        <ele>436.29196166992</ele>
        <time>2014-10-24T13:36:50Z</time>
      </trkpt>
      <trkpt lat="46.63143" lon="5.55293">
        <ele>437.18283081055</ele>
        <time>2014-10-24T13:36:56Z</time>
      </trkpt>
      <trkpt lat="46.63151" lon="5.55291">
        <ele>436.65753173828</ele>
        <time>2014-10-24T13:37:00Z</time>
      </trkpt>
      <trkpt lat="46.6316" lon="5.55288">
        <ele>436.14428710938</ele>
        <time>2014-10-24T13:37:04Z</time>
      </trkpt>
      <trkpt lat="46.63167" lon="5.55288">
        <ele>435.5964050293</ele>
        <time>2014-10-24T13:37:08Z</time>
      </trkpt>
      <trkpt lat="46.63179" lon="5.5529">
        <ele>434.94778442383</ele>
        <time>2014-10-24T13:37:13Z</time>
      </trkpt>
      <trkpt lat="46.63188" lon="5.5529">
        <ele>434.43579101562</ele>
        <time>2014-10-24T13:37:18Z</time>
      </trkpt>
      <trkpt lat="46.63202" lon="5.55292">
        <ele>432.544921875</ele>
        <time>2014-10-24T13:37:24Z</time>
      </trkpt>
      <trkpt lat="46.63218" lon="5.553">
        <ele>429.10827636719</ele>
        <time>2014-10-24T13:37:31Z</time>
      </trkpt>
      <trkpt lat="46.6323" lon="5.55304">
        <ele>426.99322509766</ele>
        <time>2014-10-24T13:37:36Z</time>
      </trkpt>
      <trkpt lat="46.63243" lon="5.55311">
        <ele>424.37982177734</ele>
        <time>2014-10-24T13:37:42Z</time>
      </trkpt>
      <trkpt lat="46.63252" lon="5.55317">
        <ele>422.48962402344</ele>
        <time>2014-10-24T13:37:46Z</time>
      </trkpt>
      <trkpt lat="46.63264" lon="5.55323">
        <ele>420.34674072266</ele>
        <time>2014-10-24T13:37:51Z</time>
      </trkpt>
      <trkpt lat="46.63274" lon="5.5533">
        <ele>417.93548583984</ele>
        <time>2014-10-24T13:37:56Z</time>
      </trkpt>
      <trkpt lat="46.63281" lon="5.55337">
        <ele>416.642578125</ele>
        <time>2014-10-24T13:38:00Z</time>
      </trkpt>
      <trkpt lat="46.63292" lon="5.55344">
        <ele>415.69552612305</ele>
        <time>2014-10-24T13:38:05Z</time>
      </trkpt>
      <trkpt lat="46.63294" lon="5.55344">
        <ele>415.49063110352</ele>
        <time>2014-10-24T13:38:06Z</time>
      </trkpt>
      <trkpt lat="46.63306" lon="5.55345">
        <ele>414.32455444336</ele>
        <time>2014-10-24T13:38:12Z</time>
      </trkpt>
      <trkpt lat="46.63319" lon="5.55343">
        <ele>412.93408203125</ele>
        <time>2014-10-24T13:38:17Z</time>
      </trkpt>
      <trkpt lat="46.63329" lon="5.55337">
        <ele>411.64834594727</ele>
        <time>2014-10-24T13:38:22Z</time>
      </trkpt>
      <trkpt lat="46.63331" lon="5.55337">
        <ele>411.41146850586</ele>
        <time>2014-10-24T13:38:23Z</time>
      </trkpt>
      <trkpt lat="46.63339" lon="5.55337">
        <ele>410.509765625</ele>
        <time>2014-10-24T13:38:26Z</time>
      </trkpt>
      <trkpt lat="46.63351" lon="5.55334">
        <ele>409.13836669922</ele>
        <time>2014-10-24T13:38:31Z</time>
      </trkpt>
      <trkpt lat="46.63363" lon="5.5533">
        <ele>407.72247314453</ele>
        <time>2014-10-24T13:38:36Z</time>
      </trkpt>
      <trkpt lat="46.63374" lon="5.55321">
        <ele>406.21185302734</ele>
        <time>2014-10-24T13:38:41Z</time>
      </trkpt>
      <trkpt lat="46.6338" lon="5.55311">
        <ele>405.14239501953</ele>
        <time>2014-10-24T13:38:45Z</time>
      </trkpt>
      <trkpt lat="46.63385" lon="5.55297">
        <ele>404.46319580078</ele>
        <time>2014-10-24T13:38:49Z</time>
      </trkpt>
      <trkpt lat="46.63392" lon="5.55286">
        <ele>403.63616943359</ele>
        <time>2014-10-24T13:38:53Z</time>
      </trkpt>
      <trkpt lat="46.63396" lon="5.55277">
        <ele>403.23272705078</ele>
        <time>2014-10-24T13:38:56Z</time>
      </trkpt>
      <trkpt lat="46.63403" lon="5.55262">
        <ele>401.92639160156</ele>
        <time>2014-10-24T13:39:01Z</time>
      </trkpt>
      <trkpt lat="46.63407" lon="5.55245">
        <ele>400.80130004883</ele>
        <time>2014-10-24T13:39:05Z</time>
      </trkpt>
      <trkpt lat="46.63409" lon="5.55245">
        <ele>400.48431396484</ele>
        <time>2014-10-24T13:39:06Z</time>
      </trkpt>
      <trkpt lat="46.63415" lon="5.5524">
        <ele>399.48812866211</ele>
        <time>2014-10-24T13:39:09Z</time>
      </trkpt>
      <trkpt lat="46.63422" lon="5.55231">
        <ele>397.42282104492</ele>
        <time>2014-10-24T13:39:13Z</time>
      </trkpt>
      <trkpt lat="46.63431" lon="5.55219">
        <ele>393.87567138672</ele>
        <time>2014-10-24T13:39:18Z</time>
      </trkpt>
      <trkpt lat="46.63438" lon="5.55211">
        <ele>390.54241943359</ele>
        <time>2014-10-24T13:39:22Z</time>
      </trkpt>
      <trkpt lat="46.63447" lon="5.552">
        <ele>385.08895874023</ele>
        <time>2014-10-24T13:39:27Z</time>
      </trkpt>
      <trkpt lat="46.63456" lon="5.5519">
        <ele>382.61862182617</ele>
        <time>2014-10-24T13:39:31Z</time>
      </trkpt>
      <trkpt lat="46.63465" lon="5.55183">
        <ele>380.85394287109</ele>
        <time>2014-10-24T13:39:36Z</time>
      </trkpt>
      <trkpt lat="46.63479" lon="5.55174">
        <ele>379.05844116211</ele>
        <time>2014-10-24T13:39:43Z</time>
      </trkpt>
      <trkpt lat="46.63492" lon="5.55164">
        <ele>377.45193481445</ele>
        <time>2014-10-24T13:39:49Z</time>
      </trkpt>
      <trkpt lat="46.63502" lon="5.55157">
        <ele>376.22631835938</ele>
        <time>2014-10-24T13:39:54Z</time>
      </trkpt>
      <trkpt lat="46.63514" lon="5.55147">
        <ele>374.80456542969</ele>
        <time>2014-10-24T13:40:00Z</time>
      </trkpt>
      <trkpt lat="46.63525" lon="5.55144">
        <ele>374.62030029297</ele>
        <time>2014-10-24T13:40:05Z</time>
      </trkpt>
      <trkpt lat="46.63536" lon="5.5514">
        <ele>375.07901000977</ele>
        <time>2014-10-24T13:40:10Z</time>
      </trkpt>
      <trkpt lat="46.63545" lon="5.5513">
        <ele>375.2380065918</ele>
        <time>2014-10-24T13:40:15Z</time>
      </trkpt>
      <trkpt lat="46.63557" lon="5.55124">
        <ele>376.00225830078</ele>
        <time>2014-10-24T13:40:20Z</time>
      </trkpt>
      <trkpt lat="46.63572" lon="5.55115">
        <ele>375.88552856445</ele>
        <time>2014-10-24T13:40:26Z</time>
      </trkpt>
      <trkpt lat="46.63583" lon="5.55109">
        <ele>375.65972900391</ele>
        <time>2014-10-24T13:40:31Z</time>
      </trkpt>
      <trkpt lat="46.63595" lon="5.551">
        <ele>375.03024291992</ele>
        <time>2014-10-24T13:40:36Z</time>
      </trkpt>
      <trkpt lat="46.63608" lon="5.55091">
        <ele>374.67205810547</ele>
        <time>2014-10-24T13:40:42Z</time>
      </trkpt>
      <trkpt lat="46.63622" lon="5.55083">
        <ele>374.78308105469</ele>
        <time>2014-10-24T13:40:48Z</time>
      </trkpt>
      <trkpt lat="46.63634" lon="5.55075">
        <ele>375.05084228516</ele>
        <time>2014-10-24T13:40:53Z</time>
      </trkpt>
      <trkpt lat="46.63644" lon="5.55067">
        <ele>375.01690673828</ele>
        <time>2014-10-24T13:40:58Z</time>
      </trkpt>
      <trkpt lat="46.63654" lon="5.55059">
        <ele>374.74224853516</ele>
        <time>2014-10-24T13:41:03Z</time>
      </trkpt>
      <trkpt lat="46.63664" lon="5.55054">
        <ele>374.69989013672</ele>
        <time>2014-10-24T13:41:08Z</time>
      </trkpt>
      <trkpt lat="46.63675" lon="5.55045">
        <ele>374.42733764648</ele>
        <time>2014-10-24T13:41:13Z</time>
      </trkpt>
      <trkpt lat="46.63685" lon="5.55036">
        <ele>374.18872070312</ele>
        <time>2014-10-24T13:41:18Z</time>
      </trkpt>
      <trkpt lat="46.63695" lon="5.55026">
        <ele>373.97344970703</ele>
        <time>2014-10-24T13:41:23Z</time>
      </trkpt>
      <trkpt lat="46.63704" lon="5.55018">
        <ele>374.36999511719</ele>
        <time>2014-10-24T13:41:28Z</time>
      </trkpt>
      <trkpt lat="46.63713" lon="5.55009">
        <ele>375.08511352539</ele>
        <time>2014-10-24T13:41:33Z</time>
      </trkpt>
      <trkpt lat="46.63723" lon="5.55002">
        <ele>376.08871459961</ele>
        <time>2014-10-24T13:41:38Z</time>
      </trkpt>
      <trkpt lat="46.63736" lon="5.54996">
        <ele>376.71942138672</ele>
        <time>2014-10-24T13:41:44Z</time>
      </trkpt>
      <trkpt lat="46.63751" lon="5.54993">
        <ele>377.49600219727</ele>
        <time>2014-10-24T13:41:50Z</time>
      </trkpt>
      <trkpt lat="46.63757" lon="5.54989">
        <ele>377.45135498047</ele>
        <time>2014-10-24T13:41:54Z</time>
      </trkpt>
      <trkpt lat="46.63769" lon="5.54982">
        <ele>377.38958740234</ele>
        <time>2014-10-24T13:42:00Z</time>
      </trkpt>
      <trkpt lat="46.63783" lon="5.54978">
        <ele>377.58526611328</ele>
        <time>2014-10-24T13:42:06Z</time>
      </trkpt>
      <trkpt lat="46.63794" lon="5.54972">
        <ele>377.58526611328</ele>
        <time>2014-10-24T13:42:11Z</time>
      </trkpt>
      <trkpt lat="46.63804" lon="5.54961">
        <ele>377.12521362305</ele>
        <time>2014-10-24T13:42:16Z</time>
      </trkpt>
      <trkpt lat="46.63813" lon="5.54953">
        <ele>376.88488769531</ele>
        <time>2014-10-24T13:42:21Z</time>
      </trkpt>
      <trkpt lat="46.63823" lon="5.54948">
        <ele>376.89520263672</ele>
        <time>2014-10-24T13:42:26Z</time>
      </trkpt>
      <trkpt lat="46.63834" lon="5.54946">
        <ele>377.16641235352</ele>
        <time>2014-10-24T13:42:31Z</time>
      </trkpt>
      <trkpt lat="46.63847" lon="5.5494">
        <ele>377.93948364258</ele>
        <time>2014-10-24T13:42:36Z</time>
      </trkpt>
      <trkpt lat="46.6386" lon="5.54929">
        <ele>379.0876159668</ele>
        <time>2014-10-24T13:42:41Z</time>
      </trkpt>
      <trkpt lat="46.63873" lon="5.54919">
        <ele>379.05764770508</ele>
        <time>2014-10-24T13:42:46Z</time>
      </trkpt>
      <trkpt lat="46.63883" lon="5.54915">
        <ele>378.50341796875</ele>
        <time>2014-10-24T13:42:50Z</time>
      </trkpt>
      <trkpt lat="46.63894" lon="5.54912">
        <ele>377.92098999023</ele>
        <time>2014-10-24T13:42:55Z</time>
      </trkpt>
      <trkpt lat="46.63907" lon="5.5491">
        <ele>377.05206298828</ele>
        <time>2014-10-24T13:43:00Z</time>
      </trkpt>
      <trkpt lat="46.63919" lon="5.54906">
        <ele>376.189453125</ele>
        <time>2014-10-24T13:43:05Z</time>
      </trkpt>
      <trkpt lat="46.63931" lon="5.54901">
        <ele>375.14297485352</ele>
        <time>2014-10-24T13:43:10Z</time>
      </trkpt>
      <trkpt lat="46.63944" lon="5.54894">
        <ele>373.42810058594</ele>
        <time>2014-10-24T13:43:16Z</time>
      </trkpt>
      <trkpt lat="46.63951" lon="5.54881">
        <ele>371.77075195312</ele>
        <time>2014-10-24T13:43:21Z</time>
      </trkpt>
      <trkpt lat="46.63963" lon="5.54876">
        <ele>369.18603515625</ele>
        <time>2014-10-24T13:43:26Z</time>
      </trkpt>
      <trkpt lat="46.63973" lon="5.5487">
        <ele>367.03601074219</ele>
        <time>2014-10-24T13:43:31Z</time>
      </trkpt>
      <trkpt lat="46.63987" lon="5.54864">
        <ele>363.00759887695</ele>
        <time>2014-10-24T13:43:37Z</time>
      </trkpt>
      <trkpt lat="46.63993" lon="5.54858">
        <ele>361.5178527832</ele>
        <time>2014-10-24T13:43:40Z</time>
      </trkpt>
      <trkpt lat="46.63995" lon="5.54857">
        <ele>361.12042236328</ele>
        <time>2014-10-24T13:43:41Z</time>
      </trkpt>
      <trkpt lat="46.64003" lon="5.54856">
        <ele>359.44631958008</ele>
        <time>2014-10-24T13:43:46Z</time>
      </trkpt>
      <trkpt lat="46.64013" lon="5.54858">
        <ele>358.83731079102</ele>
        <time>2014-10-24T13:43:50Z</time>
      </trkpt>
      <trkpt lat="46.64021" lon="5.5486">
        <ele>358.29406738281</ele>
        <time>2014-10-24T13:43:54Z</time>
      </trkpt>
      <trkpt lat="46.64029" lon="5.54861">
        <ele>358.00302124023</ele>
        <time>2014-10-24T13:43:58Z</time>
      </trkpt>
      <trkpt lat="46.64038" lon="5.54862">
        <ele>358.04138183594</ele>
        <time>2014-10-24T13:44:02Z</time>
      </trkpt>
      <trkpt lat="46.64051" lon="5.54863">
        <ele>358.05169677734</ele>
        <time>2014-10-24T13:44:07Z</time>
      </trkpt>
      <trkpt lat="46.64066" lon="5.5486">
        <ele>358.02075195312</ele>
        <time>2014-10-24T13:44:12Z</time>
      </trkpt>
      <trkpt lat="46.64079" lon="5.5486">
        <ele>358.00772094727</ele>
        <time>2014-10-24T13:44:17Z</time>
      </trkpt>
      <trkpt lat="46.64091" lon="5.54861">
        <ele>357.73565673828</ele>
        <time>2014-10-24T13:44:22Z</time>
      </trkpt>
      <trkpt lat="46.64104" lon="5.54862">
        <ele>357.25500488281</ele>
        <time>2014-10-24T13:44:27Z</time>
      </trkpt>
      <trkpt lat="46.64115" lon="5.54863">
        <ele>356.81185913086</ele>
        <time>2014-10-24T13:44:31Z</time>
      </trkpt>
      <trkpt lat="46.64128" lon="5.54863">
        <ele>355.87640380859</ele>
        <time>2014-10-24T13:44:36Z</time>
      </trkpt>
      <trkpt lat="46.64138" lon="5.54862">
        <ele>355.17971801758</ele>
        <time>2014-10-24T13:44:40Z</time>
      </trkpt>
      <trkpt lat="46.64148" lon="5.54864">
        <ele>354.40463256836</ele>
        <time>2014-10-24T13:44:44Z</time>
      </trkpt>
      <trkpt lat="46.64159" lon="5.54866">
        <ele>353.58978271484</ele>
        <time>2014-10-24T13:44:48Z</time>
      </trkpt>
      <trkpt lat="46.64169" lon="5.54866">
        <ele>352.75466918945</ele>
        <time>2014-10-24T13:44:53Z</time>
      </trkpt>
      <trkpt lat="46.64183" lon="5.54868">
        <ele>352.14526367188</ele>
        <time>2014-10-24T13:44:59Z</time>
      </trkpt>
      <trkpt lat="46.64192" lon="5.54871">
        <ele>351.99078369141</ele>
        <time>2014-10-24T13:45:03Z</time>
      </trkpt>
      <trkpt lat="46.64202" lon="5.54872">
        <ele>350.96792602539</ele>
        <time>2014-10-24T13:45:07Z</time>
      </trkpt>
      <trkpt lat="46.64215" lon="5.54874">
        <ele>349.38348388672</ele>
        <time>2014-10-24T13:45:12Z</time>
      </trkpt>
      <trkpt lat="46.64224" lon="5.54876">
        <ele>348.28936767578</ele>
        <time>2014-10-24T13:45:16Z</time>
      </trkpt>
      <trkpt lat="46.64238" lon="5.54874">
        <ele>345.43118286133</ele>
        <time>2014-10-24T13:45:22Z</time>
      </trkpt>
      <trkpt lat="46.64251" lon="5.54874">
        <ele>343.22900390625</ele>
        <time>2014-10-24T13:45:27Z</time>
      </trkpt>
      <trkpt lat="46.64264" lon="5.54876">
        <ele>342.02975463867</ele>
        <time>2014-10-24T13:45:33Z</time>
      </trkpt>
      <trkpt lat="46.64274" lon="5.54874">
        <ele>340.85736083984</ele>
        <time>2014-10-24T13:45:37Z</time>
      </trkpt>
      <trkpt lat="46.64286" lon="5.54875">
        <ele>340.11856079102</ele>
        <time>2014-10-24T13:45:42Z</time>
      </trkpt>
      <trkpt lat="46.64298" lon="5.54876">
        <ele>339.48336791992</ele>
        <time>2014-10-24T13:45:47Z</time>
      </trkpt>
      <trkpt lat="46.6431" lon="5.54873">
        <ele>338.58905029297</ele>
        <time>2014-10-24T13:45:53Z</time>
      </trkpt>
      <trkpt lat="46.64319" lon="5.54874">
        <ele>338.34872436523</ele>
        <time>2014-10-24T13:45:57Z</time>
      </trkpt>
      <trkpt lat="46.64333" lon="5.54879">
        <ele>338.57531738281</ele>
        <time>2014-10-24T13:46:02Z</time>
      </trkpt>
      <trkpt lat="46.64345" lon="5.5488">
        <ele>338.14224243164</ele>
        <time>2014-10-24T13:46:07Z</time>
      </trkpt>
      <trkpt lat="46.64355" lon="5.54881">
        <ele>337.84091186523</ele>
        <time>2014-10-24T13:46:11Z</time>
      </trkpt>
      <trkpt lat="46.64366" lon="5.54881">
        <ele>336.93176269531</ele>
        <time>2014-10-24T13:46:16Z</time>
      </trkpt>
      <trkpt lat="46.6438" lon="5.5488">
        <ele>334.83749389648</ele>
        <time>2014-10-24T13:46:21Z</time>
      </trkpt>
      <trkpt lat="46.64393" lon="5.54877">
        <ele>332.39944458008</ele>
        <time>2014-10-24T13:46:26Z</time>
      </trkpt>
      <trkpt lat="46.64407" lon="5.54874">
        <ele>330.16415405273</ele>
        <time>2014-10-24T13:46:32Z</time>
      </trkpt>
      <trkpt lat="46.64419" lon="5.54869">
        <ele>328.04470825195</ele>
        <time>2014-10-24T13:46:38Z</time>
      </trkpt>
      <trkpt lat="46.6443" lon="5.54864">
        <ele>326.82559204102</ele>
        <time>2014-10-24T13:46:43Z</time>
      </trkpt>
      <trkpt lat="46.64446" lon="5.54857">
        <ele>325.49203491211</ele>
        <time>2014-10-24T13:46:50Z</time>
      </trkpt>
      <trkpt lat="46.64457" lon="5.54852">
        <ele>323.93676757812</ele>
        <time>2014-10-24T13:46:55Z</time>
      </trkpt>
      <trkpt lat="46.64469" lon="5.54844">
        <ele>322.12747192383</ele>
        <time>2014-10-24T13:47:01Z</time>
      </trkpt>
      <trkpt lat="46.64483" lon="5.54846">
        <ele>321.34231567383</ele>
        <time>2014-10-24T13:47:06Z</time>
      </trkpt>
      <trkpt lat="46.64493" lon="5.54845">
        <ele>320.77734375</ele>
        <time>2014-10-24T13:47:10Z</time>
      </trkpt>
      <trkpt lat="46.64504" lon="5.54841">
        <ele>319.49978637695</ele>
        <time>2014-10-24T13:47:15Z</time>
      </trkpt>
      <trkpt lat="46.64514" lon="5.54832">
        <ele>316.90661621094</ele>
        <time>2014-10-24T13:47:20Z</time>
      </trkpt>
      <trkpt lat="46.64521" lon="5.54822">
        <ele>314.40884399414</ele>
        <time>2014-10-24T13:47:24Z</time>
      </trkpt>
      <trkpt lat="46.64524" lon="5.54803">
        <ele>311.77185058594</ele>
        <time>2014-10-24T13:47:29Z</time>
      </trkpt>
      <trkpt lat="46.64531" lon="5.54791">
        <ele>309.38806152344</ele>
        <time>2014-10-24T13:47:34Z</time>
      </trkpt>
      <trkpt lat="46.64539" lon="5.54782">
        <ele>307.61727905273</ele>
        <time>2014-10-24T13:47:38Z</time>
      </trkpt>
      <trkpt lat="46.64544" lon="5.54775">
        <ele>306.36837768555</ele>
        <time>2014-10-24T13:47:41Z</time>
      </trkpt>
      <trkpt lat="46.64547" lon="5.5477">
        <ele>305.61282348633</ele>
        <time>2014-10-24T13:47:43Z</time>
      </trkpt>
      <trkpt lat="46.64553" lon="5.54754">
        <ele>303.55960083008</ele>
        <time>2014-10-24T13:47:48Z</time>
      </trkpt>
      <trkpt lat="46.64559" lon="5.54743">
        <ele>302.37826538086</ele>
        <time>2014-10-24T13:47:52Z</time>
      </trkpt>
      <trkpt lat="46.6456" lon="5.5473">
        <ele>301.88583374023</ele>
        <time>2014-10-24T13:47:56Z</time>
      </trkpt>
      <trkpt lat="46.64561" lon="5.54727">
        <ele>301.763671875</ele>
        <time>2014-10-24T13:47:57Z</time>
      </trkpt>
      <trkpt lat="46.64563" lon="5.54715">
        <ele>300.94610595703</ele>
        <time>2014-10-24T13:48:01Z</time>
      </trkpt>
      <trkpt lat="46.64562" lon="5.54712">
        <ele>300.736328125</ele>
        <time>2014-10-24T13:48:02Z</time>
      </trkpt>
      <trkpt lat="46.64561" lon="5.54701">
        <ele>299.85720825195</ele>
        <time>2014-10-24T13:48:06Z</time>
      </trkpt>
      <trkpt lat="46.64562" lon="5.54694">
        <ele>299.31283569336</ele>
        <time>2014-10-24T13:48:08Z</time>
      </trkpt>
      <trkpt lat="46.64564" lon="5.54687">
        <ele>298.65643310547</ele>
        <time>2014-10-24T13:48:11Z</time>
      </trkpt>
      <trkpt lat="46.64565" lon="5.54685">
        <ele>298.43252563477</ele>
        <time>2014-10-24T13:48:12Z</time>
      </trkpt>
      <trkpt lat="46.64569" lon="5.54676">
        <ele>297.52517700195</ele>
        <time>2014-10-24T13:48:16Z</time>
      </trkpt>
      <trkpt lat="46.64572" lon="5.54671">
        <ele>297.05905151367</ele>
        <time>2014-10-24T13:48:19Z</time>
      </trkpt>
      <trkpt lat="46.64573" lon="5.54669">
        <ele>296.87573242188</ele>
        <time>2014-10-24T13:48:21Z</time>
      </trkpt>
      <trkpt lat="46.64576" lon="5.54663">
        <ele>296.11853027344</ele>
        <time>2014-10-24T13:48:24Z</time>
      </trkpt>
      <trkpt lat="46.64577" lon="5.54661">
        <ele>295.82327270508</ele>
        <time>2014-10-24T13:48:25Z</time>
      </trkpt>
      <trkpt lat="46.64585" lon="5.54652">
        <ele>294.21002197266</ele>
        <time>2014-10-24T13:48:30Z</time>
      </trkpt>
      <trkpt lat="46.64596" lon="5.54647">
        <ele>292.19525146484</ele>
        <time>2014-10-24T13:48:35Z</time>
      </trkpt>
      <trkpt lat="46.64611" lon="5.54634">
        <ele>289.61557006836</ele>
        <time>2014-10-24T13:48:41Z</time>
      </trkpt>
      <trkpt lat="46.6462" lon="5.54629">
        <ele>287.83612060547</ele>
        <time>2014-10-24T13:48:45Z</time>
      </trkpt>
      <trkpt lat="46.64631" lon="5.54626">
        <ele>285.88159179688</ele>
        <time>2014-10-24T13:48:50Z</time>
      </trkpt>
      <trkpt lat="46.64631" lon="5.54621">
        <ele>285.55407714844</ele>
        <time>2014-10-24T13:48:51Z</time>
      </trkpt>
      <trkpt lat="46.64637" lon="5.54615">
        <ele>284.36825561523</ele>
        <time>2014-10-24T13:48:55Z</time>
      </trkpt>
      <trkpt lat="46.64647" lon="5.54613">
        <ele>283.47039794922</ele>
        <time>2014-10-24T13:48:59Z</time>
      </trkpt>
      <trkpt lat="46.6466" lon="5.54607">
        <ele>282.30484008789</ele>
        <time>2014-10-24T13:49:04Z</time>
      </trkpt>
      <trkpt lat="46.64661" lon="5.54604">
        <ele>282.107421875</ele>
        <time>2014-10-24T13:49:05Z</time>
      </trkpt>
      <trkpt lat="46.64666" lon="5.54598">
        <ele>281.5666809082</ele>
        <time>2014-10-24T13:49:07Z</time>
      </trkpt>
      <trkpt lat="46.64665" lon="5.54584">
        <ele>281.1100769043</ele>
        <time>2014-10-24T13:49:11Z</time>
      </trkpt>
      <trkpt lat="46.64663" lon="5.5458">
        <ele>281.1220703125</ele>
        <time>2014-10-24T13:49:12Z</time>
      </trkpt>
      <trkpt lat="46.6466" lon="5.54567">
        <ele>280.88177490234</ele>
        <time>2014-10-24T13:49:15Z</time>
      </trkpt>
      <trkpt lat="46.64657" lon="5.54554">
        <ele>280.65859985352</ele>
        <time>2014-10-24T13:49:18Z</time>
      </trkpt>
      <trkpt lat="46.64655" lon="5.54546">
        <ele>280.47491455078</ele>
        <time>2014-10-24T13:49:20Z</time>
      </trkpt>
      <trkpt lat="46.64653" lon="5.54533">
        <ele>280.12646484375</ele>
        <time>2014-10-24T13:49:24Z</time>
      </trkpt>
      <trkpt lat="46.64657" lon="5.54517">
        <ele>279.54440307617</ele>
        <time>2014-10-24T13:49:29Z</time>
      </trkpt>
      <trkpt lat="46.64668" lon="5.54507">
        <ele>279</ele>
        <time>2014-10-24T13:49:33Z</time>
      </trkpt>
      <trkpt lat="46.64682" lon="5.54509">
        <ele>279</ele>
        <time>2014-10-24T13:49:37Z</time>
      </trkpt>
      <trkpt lat="46.64694" lon="5.54519">
        <ele>279</ele>
        <time>2014-10-24T13:49:42Z</time>
      </trkpt>
      <trkpt lat="46.64703" lon="5.54535">
        <ele>279</ele>
        <time>2014-10-24T13:49:47Z</time>
      </trkpt>
      <trkpt lat="46.64711" lon="5.54552">
        <ele>279</ele>
        <time>2014-10-24T13:49:52Z</time>
      </trkpt>
      <trkpt lat="46.64718" lon="5.54564">
        <ele>279</ele>
        <time>2014-10-24T13:49:56Z</time>
      </trkpt>
      <trkpt lat="46.64727" lon="5.5458">
        <ele>278.82727050781</ele>
        <time>2014-10-24T13:50:01Z</time>
      </trkpt>
      <trkpt lat="46.64732" lon="5.54597">
        <ele>278.63500976562</ele>
        <time>2014-10-24T13:50:06Z</time>
      </trkpt>
      <trkpt lat="46.64737" lon="5.54612">
        <ele>278.47021484375</ele>
        <time>2014-10-24T13:50:10Z</time>
      </trkpt>
      <trkpt lat="46.64741" lon="5.54637">
        <ele>278.33288574219</ele>
        <time>2014-10-24T13:50:16Z</time>
      </trkpt>
      <trkpt lat="46.64746" lon="5.5466">
        <ele>278.15435791016</ele>
        <time>2014-10-24T13:50:22Z</time>
      </trkpt>
      <trkpt lat="46.64751" lon="5.54685">
        <ele>277.96209716797</ele>
        <time>2014-10-24T13:50:28Z</time>
      </trkpt>
      <trkpt lat="46.64759" lon="5.54705">
        <ele>277.67370605469</ele>
        <time>2014-10-24T13:50:34Z</time>
      </trkpt>
      <trkpt lat="46.64764" lon="5.54726">
        <ele>277.4814453125</ele>
        <time>2014-10-24T13:50:40Z</time>
      </trkpt>
      <trkpt lat="46.64769" lon="5.54745">
        <ele>277.30291748047</ele>
        <time>2014-10-24T13:50:45Z</time>
      </trkpt>
      <trkpt lat="46.64776" lon="5.54759">
        <ele>277.06945800781</ele>
        <time>2014-10-24T13:50:49Z</time>
      </trkpt>
      <trkpt lat="46.64784" lon="5.54774">
        <ele>277</ele>
        <time>2014-10-24T13:50:54Z</time>
      </trkpt>
      <trkpt lat="46.64791" lon="5.54787">
        <ele>277.18029785156</ele>
        <time>2014-10-24T13:50:58Z</time>
      </trkpt>
      <trkpt lat="46.64802" lon="5.54806">
        <ele>277.13562011719</ele>
        <time>2014-10-24T13:51:04Z</time>
      </trkpt>
      <trkpt lat="46.64809" lon="5.54824">
        <ele>276.86096191406</ele>
        <time>2014-10-24T13:51:09Z</time>
      </trkpt>
      <trkpt lat="46.64812" lon="5.54847">
        <ele>276.87142944336</ele>
        <time>2014-10-24T13:51:15Z</time>
      </trkpt>
      <trkpt lat="46.64811" lon="5.5487">
        <ele>277</ele>
        <time>2014-10-24T13:51:21Z</time>
      </trkpt>
      <trkpt lat="46.64814" lon="5.54884">
        <ele>277</ele>
        <time>2014-10-24T13:51:25Z</time>
      </trkpt>
      <trkpt lat="46.64816" lon="5.54885">
        <ele>277</ele>
        <time>2014-10-24T13:51:26Z</time>
      </trkpt>
      <trkpt lat="46.64819" lon="5.54901">
        <ele>277</ele>
        <time>2014-10-24T13:51:30Z</time>
      </trkpt>
      <trkpt lat="46.64819" lon="5.54909">
        <ele>277</ele>
        <time>2014-10-24T13:51:32Z</time>
      </trkpt>
      <trkpt lat="46.64819" lon="5.54927">
        <ele>277</ele>
        <time>2014-10-24T13:51:36Z</time>
      </trkpt>
      <trkpt lat="46.6482" lon="5.5494">
        <ele>277</ele>
        <time>2014-10-24T13:51:40Z</time>
      </trkpt>
    </trkseg>
  </trk>
</gpx>